PWSweather.com
Personal Weather Stations
Station Observations
KCAKERNV93238
Kernville Downtown, Kernville, CA 93238

Kernville DowntownKernville, CA 93238

Lat: 35.754209, Lon: -118.42456

Elevation: 2664

Station Type: Ambient Weather 2902A

www.natureali.org

High Low Average
Temperature 70.3°F21.3°C 42.8°F6.0°C 54.6°F12.6°C
Dew Point 19.4°F-7.0°C 2.3°F-16.5°C 9.2°F-12.7°C
Winds 8.5 mph 13.7 kmh Calm Calm 1.0 mph S1.6 kmh S
Wind Gusts 10.3 mph16.6 kmh -- 1.0 mph1.6 kmh
Humidity 34% 10% 17%
Pressure 29.68 in1005.1 mb 29.55 in1000.7 mb -
Precipitation 0.00 in0.0 mm - -
Hour Temp Dew Point Humidity Winds Wind Gusts Pressure Precip Precip Rate Daily Precip Total
12:00 AM 49.1°F9.5°C 12.9°F-10.6°C 23% 1.3 mph NW2.1 kmh NW 2.2 mph3.5 kmh 29.67 in1004.7 mb 0.00 in0.0 mm 0.00 in0.0 mm 0.00 in0.0 mm
12:01 AM 49.1°F9.5°C 13.9°F-10.1°C 24% 1.1 mph NW1.8 kmh NW 1.1 mph1.8 kmh 29.67 in1004.7 mb 0.00 in0.0 mm 0.00 in0.0 mm 0.00 in0.0 mm
12:02 AM 49.1°F9.5°C 13.9°F-10.1°C 24% 1.3 mph NW2.1 kmh NW 2.2 mph3.5 kmh 29.68 in1005.1 mb 0.00 in0.0 mm 0.00 in0.0 mm 0.00 in0.0 mm
12:03 AM 48.9°F9.4°C 13.7°F-10.2°C 24% 0.2 mph NW0.3 kmh NW 1.1 mph1.8 kmh 29.67 in1004.7 mb 0.00 in0.0 mm 0.00 in0.0 mm 0.00 in0.0 mm
12:04 AM 48.9°F9.4°C 13.7°F-10.2°C 24% 0.9 mph NW1.4 kmh NW 1.1 mph1.8 kmh 29.67 in1004.7 mb 0.00 in0.0 mm 0.00 in0.0 mm 0.00 in0.0 mm
12:05 AM 48.7°F9.3°C 13.5°F-10.3°C 24% 2.2 mph NW3.5 kmh NW 2.2 mph3.5 kmh 29.68 in1005.1 mb 0.00 in0.0 mm 0.00 in0.0 mm 0.00 in0.0 mm
12:06 AM 48.7°F9.3°C 12.6°F-10.8°C 23% 1.1 mph NW1.8 kmh NW 1.1 mph1.8 kmh 29.67 in1004.7 mb 0.00 in0.0 mm 0.00 in0.0 mm 0.00 in0.0 mm
12:07 AM 48.9°F9.4°C 13.7°F-10.2°C 24% 0.7 mph NW1.1 kmh NW 1.1 mph1.8 kmh 29.66 in1004.4 mb 0.00 in0.0 mm 0.00 in0.0 mm 0.00 in0.0 mm
12:08 AM 48.9°F9.4°C 13.7°F-10.2°C 24% 0.9 mph NW1.4 kmh NW 1.1 mph1.8 kmh 29.67 in1004.7 mb 0.00 in0.0 mm 0.00 in0.0 mm 0.00 in0.0 mm
12:09 AM 48.9°F9.4°C 13.7°F-10.2°C 24% 1.3 mph NW2.1 kmh NW 2.2 mph3.5 kmh 29.68 in1005.1 mb 0.00 in0.0 mm 0.00 in0.0 mm 0.00 in0.0 mm
12:10 AM 48.9°F9.4°C 12.8°F-10.7°C 23% 1.8 mph NW2.9 kmh NW 2.2 mph3.5 kmh 29.68 in1005.1 mb 0.00 in0.0 mm 0.00 in0.0 mm 0.00 in0.0 mm
12:11 AM 48.9°F9.4°C 13.7°F-10.2°C 24% 0.2 mph NW0.3 kmh NW 1.1 mph1.8 kmh 29.67 in1004.7 mb 0.00 in0.0 mm 0.00 in0.0 mm 0.00 in0.0 mm
12:12 AM 48.9°F9.4°C 13.7°F-10.2°C 24% 0.9 mph NW1.4 kmh NW 1.1 mph1.8 kmh 29.67 in1004.7 mb 0.00 in0.0 mm 0.00 in0.0 mm 0.00 in0.0 mm
12:13 AM 48.9°F9.4°C 13.7°F-10.2°C 24% 0.9 mph NW1.4 kmh NW 1.1 mph1.8 kmh 29.66 in1004.4 mb 0.00 in0.0 mm 0.00 in0.0 mm 0.00 in0.0 mm
12:14 AM 48.9°F9.4°C 12.8°F-10.7°C 23% 1.6 mph NW2.6 kmh NW 2.2 mph3.5 kmh 29.67 in1004.7 mb 0.00 in0.0 mm 0.00 in0.0 mm 0.00 in0.0 mm
12:15 AM 48.9°F9.4°C 13.7°F-10.2°C 24% 2.0 mph WNW3.2 kmh WNW 2.2 mph3.5 kmh 29.67 in1004.7 mb 0.00 in0.0 mm 0.00 in0.0 mm 0.00 in0.0 mm
12:16 AM 48.9°F9.4°C 13.7°F-10.2°C 24% 1.6 mph WNW2.6 kmh WNW 2.2 mph3.5 kmh 29.66 in1004.4 mb 0.00 in0.0 mm 0.00 in0.0 mm 0.00 in0.0 mm
12:17 AM 48.9°F9.4°C 13.7°F-10.2°C 24% 1.6 mph WNW2.6 kmh WNW 2.2 mph3.5 kmh 29.66 in1004.4 mb 0.00 in0.0 mm 0.00 in0.0 mm 0.00 in0.0 mm
12:18 AM 48.9°F9.4°C 13.7°F-10.2°C 24% 1.3 mph WNW2.1 kmh WNW 2.2 mph3.5 kmh 29.67 in1004.7 mb 0.00 in0.0 mm 0.00 in0.0 mm 0.00 in0.0 mm
12:19 AM 48.7°F9.3°C 13.5°F-10.3°C 24% 2.0 mph WNW3.2 kmh WNW 2.2 mph3.5 kmh 29.67 in1004.7 mb 0.00 in0.0 mm 0.00 in0.0 mm 0.00 in0.0 mm
12:20 AM 48.7°F9.3°C 13.5°F-10.3°C 24% 2.9 mph WNW4.7 kmh WNW 3.4 mph5.5 kmh 29.66 in1004.4 mb 0.00 in0.0 mm 0.00 in0.0 mm 0.00 in0.0 mm
12:21 AM 48.7°F9.3°C 13.5°F-10.3°C 24% 3.4 mph WNW5.5 kmh WNW 3.4 mph5.5 kmh 29.66 in1004.4 mb 0.00 in0.0 mm 0.00 in0.0 mm 0.00 in0.0 mm
12:22 AM 48.6°F9.2°C 13.5°F-10.3°C 24% 1.8 mph WNW2.9 kmh WNW 2.2 mph3.5 kmh 29.66 in1004.4 mb 0.00 in0.0 mm 0.00 in0.0 mm 0.00 in0.0 mm
12:23 AM 48.4°F9.1°C 12.3°F-10.9°C 23% 2.9 mph NW4.7 kmh NW 4.5 mph7.2 kmh 29.67 in1004.7 mb 0.00 in0.0 mm 0.00 in0.0 mm 0.00 in0.0 mm
12:24 AM 48.4°F9.1°C 12.3°F-10.9°C 23% 1.6 mph NW2.6 kmh NW 2.2 mph3.5 kmh 29.66 in1004.4 mb 0.00 in0.0 mm 0.00 in0.0 mm 0.00 in0.0 mm
12:25 AM 48.4°F9.1°C 12.3°F-10.9°C 23% 2.7 mph NW4.3 kmh NW 3.4 mph5.5 kmh 29.67 in1004.7 mb 0.00 in0.0 mm 0.00 in0.0 mm 0.00 in0.0 mm
12:26 AM 48.6°F9.2°C 12.5°F-10.8°C 23% 2.5 mph NW4.0 kmh NW 3.4 mph5.5 kmh 29.66 in1004.4 mb 0.00 in0.0 mm 0.00 in0.0 mm 0.00 in0.0 mm
12:27 AM 48.6°F9.2°C 12.5°F-10.8°C 23% 2.7 mph NW4.3 kmh NW 3.4 mph5.5 kmh 29.66 in1004.4 mb 0.00 in0.0 mm 0.00 in0.0 mm 0.00 in0.0 mm
12:28 AM 48.6°F9.2°C 12.5°F-10.8°C 23% 2.0 mph NW3.2 kmh NW 2.2 mph3.5 kmh 29.66 in1004.4 mb 0.00 in0.0 mm 0.00 in0.0 mm 0.00 in0.0 mm
12:29 AM 48.6°F9.2°C 12.5°F-10.8°C 23% 1.8 mph NW2.9 kmh NW 2.2 mph3.5 kmh 29.67 in1004.7 mb 0.00 in0.0 mm 0.00 in0.0 mm 0.00 in0.0 mm
12:30 AM 48.7°F9.3°C 12.6°F-10.8°C 23% 1.8 mph NW2.9 kmh NW 2.2 mph3.5 kmh 29.67 in1004.7 mb 0.00 in0.0 mm 0.00 in0.0 mm 0.00 in0.0 mm
12:31 AM 48.7°F9.3°C 12.6°F-10.8°C 23% 3.6 mph W5.8 kmh W 4.5 mph7.2 kmh 29.67 in1004.7 mb 0.00 in0.0 mm 0.00 in0.0 mm 0.00 in0.0 mm
12:32 AM 48.7°F9.3°C 12.6°F-10.8°C 23% 0.9 mph WNW1.4 kmh WNW 2.2 mph3.5 kmh 29.66 in1004.4 mb 0.00 in0.0 mm 0.00 in0.0 mm 0.00 in0.0 mm
12:33 AM 48.7°F9.3°C 12.6°F-10.8°C 23% 1.6 mph WNW2.6 kmh WNW 3.4 mph5.5 kmh 29.66 in1004.4 mb 0.00 in0.0 mm 0.00 in0.0 mm 0.00 in0.0 mm
12:34 AM 48.9°F9.4°C 12.8°F-10.7°C 23% 1.3 mph W2.1 kmh W 2.2 mph3.5 kmh 29.66 in1004.4 mb 0.00 in0.0 mm 0.00 in0.0 mm 0.00 in0.0 mm
12:35 AM 48.9°F9.4°C 12.8°F-10.7°C 23% 1.6 mph W2.6 kmh W 2.2 mph3.5 kmh 29.66 in1004.4 mb 0.00 in0.0 mm 0.00 in0.0 mm 0.00 in0.0 mm
12:36 AM 48.9°F9.4°C 12.8°F-10.7°C 23% 2.2 mph W3.5 kmh W 3.4 mph5.5 kmh 29.66 in1004.4 mb 0.00 in0.0 mm 0.00 in0.0 mm 0.00 in0.0 mm
12:37 AM 48.9°F9.4°C 12.8°F-10.7°C 23% 1.8 mph W2.9 kmh W 2.2 mph3.5 kmh 29.66 in1004.4 mb 0.00 in0.0 mm 0.00 in0.0 mm 0.00 in0.0 mm
12:38 AM 48.9°F9.4°C 12.8°F-10.7°C 23% 0.7 mph W1.1 kmh W 1.1 mph1.8 kmh 29.66 in1004.4 mb 0.00 in0.0 mm 0.00 in0.0 mm 0.00 in0.0 mm
12:39 AM 48.9°F9.4°C 12.8°F-10.7°C 23% 2.2 mph WNW3.5 kmh WNW 2.2 mph3.5 kmh 29.65 in1004.1 mb 0.00 in0.0 mm 0.00 in0.0 mm 0.00 in0.0 mm
12:40 AM 48.9°F9.4°C 12.8°F-10.7°C 23% 0.9 mph W1.4 kmh W 2.2 mph3.5 kmh 29.66 in1004.4 mb 0.00 in0.0 mm 0.00 in0.0 mm 0.00 in0.0 mm
12:41 AM 48.7°F9.3°C 12.6°F-10.8°C 23% 0.9 mph W1.4 kmh W 1.1 mph1.8 kmh 29.66 in1004.4 mb 0.00 in0.0 mm 0.00 in0.0 mm 0.00 in0.0 mm
12:42 AM 48.7°F9.3°C 12.6°F-10.8°C 23% 0.4 mph W0.6 kmh W 1.1 mph1.8 kmh 29.66 in1004.4 mb 0.00 in0.0 mm 0.00 in0.0 mm 0.00 in0.0 mm
12:43 AM 48.7°F9.3°C 12.6°F-10.8°C 23% 0.7 mph W1.1 kmh W 1.1 mph1.8 kmh 29.66 in1004.4 mb 0.00 in0.0 mm 0.00 in0.0 mm 0.00 in0.0 mm
12:44 AM 48.7°F9.3°C 12.6°F-10.8°C 23% 0.2 mph W0.3 kmh W 1.1 mph1.8 kmh 29.66 in1004.4 mb 0.00 in0.0 mm 0.00 in0.0 mm 0.00 in0.0 mm
12:45 AM 48.7°F9.3°C 12.6°F-10.8°C 23% Calm Calm -- 29.66 in1004.4 mb 0.00 in0.0 mm 0.00 in0.0 mm 0.00 in0.0 mm
12:46 AM 48.6°F9.2°C 12.5°F-10.8°C 23% 0.9 mph WNW1.4 kmh WNW 1.1 mph1.8 kmh 29.66 in1004.4 mb 0.00 in0.0 mm 0.00 in0.0 mm 0.00 in0.0 mm
12:47 AM 48.6°F9.2°C 12.5°F-10.8°C 23% 2.0 mph W3.2 kmh W 2.2 mph3.5 kmh 29.65 in1004.1 mb 0.00 in0.0 mm 0.00 in0.0 mm 0.00 in0.0 mm
12:48 AM 48.6°F9.2°C 11.5°F-11.4°C 22% 2.0 mph WNW3.2 kmh WNW 2.2 mph3.5 kmh 29.66 in1004.4 mb 0.00 in0.0 mm 0.00 in0.0 mm 0.00 in0.0 mm
12:49 AM 48.7°F9.3°C 11.6°F-11.3°C 22% 1.1 mph WNW1.8 kmh WNW 1.1 mph1.8 kmh 29.66 in1004.4 mb 0.00 in0.0 mm 0.00 in0.0 mm 0.00 in0.0 mm
12:50 AM 48.7°F9.3°C 12.6°F-10.8°C 23% Calm Calm -- 29.65 in1004.1 mb 0.00 in0.0 mm 0.00 in0.0 mm 0.00 in0.0 mm
12:51 AM 48.7°F9.3°C 11.6°F-11.3°C 22% 0.7 mph WNW1.1 kmh WNW 1.1 mph1.8 kmh 29.66 in1004.4 mb 0.00 in0.0 mm 0.00 in0.0 mm 0.00 in0.0 mm
12:52 AM 48.7°F9.3°C 11.6°F-11.3°C 22% 1.1 mph WNW1.8 kmh WNW 1.1 mph1.8 kmh 29.65 in1004.1 mb 0.00 in0.0 mm 0.00 in0.0 mm 0.00 in0.0 mm
12:53 AM 48.7°F9.3°C 12.6°F-10.8°C 23% 0.4 mph WNW0.6 kmh WNW 1.1 mph1.8 kmh 29.66 in1004.4 mb 0.00 in0.0 mm 0.00 in0.0 mm 0.00 in0.0 mm
12:54 AM 48.7°F9.3°C 11.6°F-11.3°C 22% 0.4 mph WNW0.6 kmh WNW 1.1 mph1.8 kmh 29.66 in1004.4 mb 0.00 in0.0 mm 0.00 in0.0 mm 0.00 in0.0 mm
12:55 AM 48.7°F9.3°C 11.6°F-11.3°C 22% 2.0 mph WNW3.2 kmh WNW 2.2 mph3.5 kmh 29.65 in1004.1 mb 0.00 in0.0 mm 0.00 in0.0 mm 0.00 in0.0 mm
12:56 AM 48.7°F9.3°C 11.6°F-11.3°C 22% 1.6 mph W2.6 kmh W 2.2 mph3.5 kmh 29.65 in1004.1 mb 0.00 in0.0 mm 0.00 in0.0 mm 0.00 in0.0 mm
12:57 AM 48.7°F9.3°C 11.6°F-11.3°C 22% 0.9 mph W1.4 kmh W 1.1 mph1.8 kmh 29.66 in1004.4 mb 0.00 in0.0 mm 0.00 in0.0 mm 0.00 in0.0 mm
12:58 AM 48.7°F9.3°C 12.6°F-10.8°C 23% Calm Calm -- 29.65 in1004.1 mb 0.00 in0.0 mm 0.00 in0.0 mm 0.00 in0.0 mm
12:59 AM 48.7°F9.3°C 12.6°F-10.8°C 23% Calm Calm -- 29.66 in1004.4 mb 0.00 in0.0 mm 0.00 in0.0 mm 0.00 in0.0 mm
01:00 AM 48.6°F9.2°C 12.5°F-10.8°C 23% Calm Calm -- 29.66 in1004.4 mb 0.00 in0.0 mm 0.00 in0.0 mm 0.00 in0.0 mm
01:01 AM 48.6°F9.2°C 11.5°F-11.4°C 22% 1.8 mph W2.9 kmh W 2.2 mph3.5 kmh 29.65 in1004.1 mb 0.00 in0.0 mm 0.00 in0.0 mm 0.00 in0.0 mm
01:02 AM 48.6°F9.2°C 11.5°F-11.4°C 22% Calm Calm -- 29.66 in1004.4 mb 0.00 in0.0 mm 0.00 in0.0 mm 0.00 in0.0 mm
01:03 AM 48.6°F9.2°C 12.5°F-10.8°C 23% 1.3 mph N2.1 kmh N 2.2 mph3.5 kmh 29.65 in1004.1 mb 0.00 in0.0 mm 0.00 in0.0 mm 0.00 in0.0 mm
01:04 AM 48.6°F9.2°C 12.5°F-10.8°C 23% 0.7 mph N1.1 kmh N 1.1 mph1.8 kmh 29.65 in1004.1 mb 0.00 in0.0 mm 0.00 in0.0 mm 0.00 in0.0 mm
01:05 AM 48.6°F9.2°C 12.5°F-10.8°C 23% Calm Calm -- 29.65 in1004.1 mb 0.00 in0.0 mm 0.00 in0.0 mm 0.00 in0.0 mm
01:06 AM 48.6°F9.2°C 13.5°F-10.3°C 24% Calm Calm -- 29.65 in1004.1 mb 0.00 in0.0 mm 0.00 in0.0 mm 0.00 in0.0 mm
01:07 AM 48.4°F9.1°C 12.3°F-10.9°C 23% 0.2 mph N0.3 kmh N 1.1 mph1.8 kmh 29.66 in1004.4 mb 0.00 in0.0 mm 0.00 in0.0 mm 0.00 in0.0 mm
01:08 AM 48.2°F9.0°C 12.2°F-11.0°C 23% 0.7 mph N1.1 kmh N 1.1 mph1.8 kmh 29.65 in1004.1 mb 0.00 in0.0 mm 0.00 in0.0 mm 0.00 in0.0 mm
01:09 AM 48.2°F9.0°C 12.2°F-11.0°C 23% Calm Calm -- 29.66 in1004.4 mb 0.00 in0.0 mm 0.00 in0.0 mm 0.00 in0.0 mm
01:10 AM 48.2°F9.0°C 11.2°F-11.6°C 22% Calm Calm -- 29.66 in1004.4 mb 0.00 in0.0 mm 0.00 in0.0 mm 0.00 in0.0 mm
01:11 AM 48.4°F9.1°C 12.3°F-10.9°C 23% 1.8 mph WSW2.9 kmh WSW 2.2 mph3.5 kmh 29.66 in1004.4 mb 0.00 in0.0 mm 0.00 in0.0 mm 0.00 in0.0 mm
01:12 AM 48.6°F9.2°C 11.5°F-11.4°C 22% Calm Calm -- 29.65 in1004.1 mb 0.00 in0.0 mm 0.00 in0.0 mm 0.00 in0.0 mm
01:13 AM 48.6°F9.2°C 11.5°F-11.4°C 22% Calm Calm -- 29.66 in1004.4 mb 0.00 in0.0 mm 0.00 in0.0 mm 0.00 in0.0 mm
01:14 AM 48.7°F9.3°C 12.6°F-10.8°C 23% Calm Calm -- 29.65 in1004.1 mb 0.00 in0.0 mm 0.00 in0.0 mm 0.00 in0.0 mm
01:15 AM 48.7°F9.3°C 12.6°F-10.8°C 23% Calm Calm -- 29.65 in1004.1 mb 0.00 in0.0 mm 0.00 in0.0 mm 0.00 in0.0 mm
01:16 AM 48.6°F9.2°C 14.4°F-9.8°C 25% Calm Calm -- 29.65 in1004.1 mb 0.00 in0.0 mm 0.00 in0.0 mm 0.00 in0.0 mm
01:17 AM 48.4°F9.1°C 15.1°F-9.4°C 26% Calm Calm -- 29.65 in1004.1 mb 0.00 in0.0 mm 0.00 in0.0 mm 0.00 in0.0 mm
01:18 AM 48.0°F8.9°C 14.8°F-9.6°C 26% Calm Calm -- 29.65 in1004.1 mb 0.00 in0.0 mm 0.00 in0.0 mm 0.00 in0.0 mm
01:19 AM 47.7°F8.7°C 14.5°F-9.7°C 26% Calm Calm -- 29.65 in1004.1 mb 0.00 in0.0 mm 0.00 in0.0 mm 0.00 in0.0 mm
01:20 AM 47.5°F8.6°C 14.3°F-9.8°C 26% Calm Calm -- 29.65 in1004.1 mb 0.00 in0.0 mm 0.00 in0.0 mm 0.00 in0.0 mm
01:21 AM 47.3°F8.5°C 14.2°F-9.9°C 26% Calm Calm -- 29.65 in1004.1 mb 0.00 in0.0 mm 0.00 in0.0 mm 0.00 in0.0 mm
01:22 AM 47.1°F8.4°C 14.9°F-9.5°C 27% Calm Calm -- 29.66 in1004.4 mb 0.00 in0.0 mm 0.00 in0.0 mm 0.00 in0.0 mm
01:23 AM 46.9°F8.3°C 14.7°F-9.6°C 27% Calm Calm -- 29.66 in1004.4 mb 0.00 in0.0 mm 0.00 in0.0 mm 0.00 in0.0 mm
01:24 AM 46.9°F8.3°C 12.0°F-11.1°C 24% Calm Calm -- 29.65 in1004.1 mb 0.00 in0.0 mm 0.00 in0.0 mm 0.00 in0.0 mm
01:25 AM 46.9°F8.3°C 12.9°F-10.6°C 25% Calm Calm -- 29.65 in1004.1 mb 0.00 in0.0 mm 0.00 in0.0 mm 0.00 in0.0 mm
01:26 AM 46.9°F8.3°C 12.0°F-11.1°C 24% Calm Calm -- 29.65 in1004.1 mb 0.00 in0.0 mm 0.00 in0.0 mm 0.00 in0.0 mm
01:27 AM 46.9°F8.3°C 12.9°F-10.6°C 25% Calm Calm -- 29.65 in1004.1 mb 0.00 in0.0 mm 0.00 in0.0 mm 0.00 in0.0 mm
01:28 AM 46.8°F8.2°C 11.9°F-11.2°C 24% Calm Calm -- 29.65 in1004.1 mb 0.00 in0.0 mm 0.00 in0.0 mm 0.00 in0.0 mm
01:29 AM 46.8°F8.2°C 11.9°F-11.2°C 24% Calm Calm -- 29.65 in1004.1 mb 0.00 in0.0 mm 0.00 in0.0 mm 0.00 in0.0 mm
01:30 AM 46.8°F8.2°C 12.9°F-10.6°C 25% Calm Calm -- 29.66 in1004.4 mb 0.00 in0.0 mm 0.00 in0.0 mm 0.00 in0.0 mm
01:31 AM 46.8°F8.2°C 12.9°F-10.6°C 25% Calm Calm -- 29.66 in1004.4 mb 0.00 in0.0 mm 0.00 in0.0 mm 0.00 in0.0 mm
01:32 AM 46.8°F8.2°C 11.9°F-11.2°C 24% Calm Calm -- 29.65 in1004.1 mb 0.00 in0.0 mm 0.00 in0.0 mm 0.00 in0.0 mm
01:33 AM 46.8°F8.2°C 11.9°F-11.2°C 24% Calm Calm -- 29.65 in1004.1 mb 0.00 in0.0 mm 0.00 in0.0 mm 0.00 in0.0 mm
01:34 AM 46.8°F8.2°C 12.9°F-10.6°C 25% 0.2 mph WSW0.3 kmh WSW 1.1 mph1.8 kmh 29.66 in1004.4 mb 0.00 in0.0 mm 0.00 in0.0 mm 0.00 in0.0 mm
01:35 AM 46.9°F8.3°C 12.0°F-11.1°C 24% Calm Calm -- 29.66 in1004.4 mb 0.00 in0.0 mm 0.00 in0.0 mm 0.00 in0.0 mm
01:36 AM 46.9°F8.3°C 11.1°F-11.6°C 23% 0.2 mph WSW0.3 kmh WSW 1.1 mph1.8 kmh 29.65 in1004.1 mb 0.00 in0.0 mm 0.00 in0.0 mm 0.00 in0.0 mm
01:37 AM 46.9°F8.3°C 10.1°F-12.2°C 22% 0.9 mph WSW1.4 kmh WSW 1.1 mph1.8 kmh 29.65 in1004.1 mb 0.00 in0.0 mm 0.00 in0.0 mm 0.00 in0.0 mm
01:38 AM 47.3°F8.5°C 10.4°F-12.0°C 22% 0.9 mph WSW1.4 kmh WSW 1.1 mph1.8 kmh 29.65 in1004.1 mb 0.00 in0.0 mm 0.00 in0.0 mm 0.00 in0.0 mm
01:39 AM 48.0°F8.9°C 10.0°F-12.2°C 21% 0.2 mph NNE0.3 kmh NNE 1.1 mph1.8 kmh 29.65 in1004.1 mb 0.00 in0.0 mm 0.00 in0.0 mm 0.00 in0.0 mm
01:40 AM 48.4°F9.1°C 10.3°F-12.1°C 21% Calm Calm -- 29.65 in1004.1 mb 0.00 in0.0 mm 0.00 in0.0 mm 0.00 in0.0 mm
01:41 AM 48.6°F9.2°C 11.5°F-11.4°C 22% Calm Calm -- 29.65 in1004.1 mb 0.00 in0.0 mm 0.00 in0.0 mm 0.00 in0.0 mm
01:42 AM 48.6°F9.2°C 11.5°F-11.4°C 22% Calm Calm -- 29.65 in1004.1 mb 0.00 in0.0 mm 0.00 in0.0 mm 0.00 in0.0 mm
01:43 AM 48.4°F9.1°C 10.3°F-12.1°C 21% Calm Calm -- 29.65 in1004.1 mb 0.00 in0.0 mm 0.00 in0.0 mm 0.00 in0.0 mm
01:44 AM 48.4°F9.1°C 10.3°F-12.1°C 21% Calm Calm -- 29.65 in1004.1 mb 0.00 in0.0 mm 0.00 in0.0 mm 0.00 in0.0 mm
01:45 AM 48.4°F9.1°C 10.3°F-12.1°C 21% Calm Calm -- 29.65 in1004.1 mb 0.00 in0.0 mm 0.00 in0.0 mm 0.00 in0.0 mm
01:46 AM 48.4°F9.1°C 10.3°F-12.1°C 21% Calm Calm -- 29.65 in1004.1 mb 0.00 in0.0 mm 0.00 in0.0 mm 0.00 in0.0 mm
01:47 AM 48.2°F9.0°C 12.2°F-11.0°C 23% 1.1 mph NNE1.8 kmh NNE 1.1 mph1.8 kmh 29.66 in1004.4 mb 0.00 in0.0 mm 0.00 in0.0 mm 0.00 in0.0 mm
01:48 AM 48.2°F9.0°C 11.2°F-11.6°C 22% Calm Calm -- 29.65 in1004.1 mb 0.00 in0.0 mm 0.00 in0.0 mm 0.00 in0.0 mm
01:49 AM 48.2°F9.0°C 10.1°F-12.2°C 21% Calm Calm -- 29.65 in1004.1 mb 0.00 in0.0 mm 0.00 in0.0 mm 0.00 in0.0 mm
01:50 AM 48.0°F8.9°C 11.0°F-11.7°C 22% Calm Calm -- 29.66 in1004.4 mb 0.00 in0.0 mm 0.00 in0.0 mm 0.00 in0.0 mm
01:51 AM 48.0°F8.9°C 8.9°F-12.8°C 20% 2.9 mph WNW4.7 kmh WNW 5.8 mph9.3 kmh 29.65 in1004.1 mb 0.00 in0.0 mm 0.00 in0.0 mm 0.00 in0.0 mm
01:52 AM 48.2°F9.0°C 9.0°F-12.8°C 20% 2.9 mph NW4.7 kmh NW 3.4 mph5.5 kmh 29.65 in1004.1 mb 0.00 in0.0 mm 0.00 in0.0 mm 0.00 in0.0 mm
01:53 AM 48.7°F9.3°C 9.5°F-12.5°C 20% 1.6 mph WNW2.6 kmh WNW 2.2 mph3.5 kmh 29.65 in1004.1 mb 0.00 in0.0 mm 0.00 in0.0 mm 0.00 in0.0 mm
01:54 AM 49.3°F9.6°C 10.0°F-12.2°C 20% 2.7 mph W4.3 kmh W 3.4 mph5.5 kmh 29.65 in1004.1 mb 0.00 in0.0 mm 0.00 in0.0 mm 0.00 in0.0 mm
01:55 AM 49.3°F9.6°C 10.0°F-12.2°C 20% Calm Calm -- 29.65 in1004.1 mb 0.00 in0.0 mm 0.00 in0.0 mm 0.00 in0.0 mm
01:56 AM 49.1°F9.5°C 9.8°F-12.3°C 20% 0.2 mph W0.3 kmh W 1.1 mph1.8 kmh 29.65 in1004.1 mb 0.00 in0.0 mm 0.00 in0.0 mm 0.00 in0.0 mm
01:57 AM 48.9°F9.4°C 9.6°F-12.4°C 20% 0.7 mph W1.1 kmh W 1.1 mph1.8 kmh 29.65 in1004.1 mb 0.00 in0.0 mm 0.00 in0.0 mm 0.00 in0.0 mm
01:58 AM 48.9°F9.4°C 9.6°F-12.4°C 20% 1.1 mph W1.8 kmh W 1.1 mph1.8 kmh 29.65 in1004.1 mb 0.00 in0.0 mm 0.00 in0.0 mm 0.00 in0.0 mm
01:59 AM 48.9°F9.4°C 9.6°F-12.4°C 20% Calm Calm -- 29.65 in1004.1 mb 0.00 in0.0 mm 0.00 in0.0 mm 0.00 in0.0 mm
02:00 AM 48.9°F9.4°C 9.6°F-12.4°C 20% 0.9 mph W1.4 kmh W 1.1 mph1.8 kmh 29.65 in1004.1 mb 0.00 in0.0 mm 0.00 in0.0 mm 0.00 in0.0 mm
02:01 AM 48.7°F9.3°C 9.5°F-12.5°C 20% Calm Calm -- 29.65 in1004.1 mb 0.00 in0.0 mm 0.00 in0.0 mm 0.00 in0.0 mm
02:02 AM 48.7°F9.3°C 9.5°F-12.5°C 20% Calm Calm -- 29.66 in1004.4 mb 0.00 in0.0 mm 0.00 in0.0 mm 0.00 in0.0 mm
02:03 AM 48.7°F9.3°C 9.5°F-12.5°C 20% Calm Calm -- 29.65 in1004.1 mb 0.00 in0.0 mm 0.00 in0.0 mm 0.00 in0.0 mm
02:04 AM 48.7°F9.3°C 9.5°F-12.5°C 20% 1.3 mph W2.1 kmh W 2.2 mph3.5 kmh 29.65 in1004.1 mb 0.00 in0.0 mm 0.00 in0.0 mm 0.00 in0.0 mm
02:05 AM 48.7°F9.3°C 9.5°F-12.5°C 20% 0.2 mph W0.3 kmh W 1.1 mph1.8 kmh 29.65 in1004.1 mb 0.00 in0.0 mm 0.00 in0.0 mm 0.00 in0.0 mm
02:06 AM 48.9°F9.4°C 9.6°F-12.4°C 20% Calm Calm -- 29.65 in1004.1 mb 0.00 in0.0 mm 0.00 in0.0 mm 0.00 in0.0 mm
02:07 AM 48.7°F9.3°C 9.5°F-12.5°C 20% 2.0 mph W3.2 kmh W 2.2 mph3.5 kmh 29.65 in1004.1 mb 0.00 in0.0 mm 0.00 in0.0 mm 0.00 in0.0 mm
02:08 AM 48.7°F9.3°C 9.5°F-12.5°C 20% 0.7 mph WNW1.1 kmh WNW 2.2 mph3.5 kmh 29.65 in1004.1 mb 0.00 in0.0 mm 0.00 in0.0 mm 0.00 in0.0 mm
02:09 AM 48.9°F9.4°C 9.6°F-12.4°C 20% 0.9 mph NW1.4 kmh NW 2.2 mph3.5 kmh 29.65 in1004.1 mb 0.00 in0.0 mm 0.00 in0.0 mm 0.00 in0.0 mm
02:10 AM 48.9°F9.4°C 9.6°F-12.4°C 20% Calm Calm -- 29.65 in1004.1 mb 0.00 in0.0 mm 0.00 in0.0 mm 0.00 in0.0 mm
02:11 AM 48.7°F9.3°C 9.5°F-12.5°C 20% 2.5 mph WNW4.0 kmh WNW 3.4 mph5.5 kmh 29.65 in1004.1 mb 0.00 in0.0 mm 0.00 in0.0 mm 0.00 in0.0 mm
02:12 AM 48.7°F9.3°C 9.5°F-12.5°C 20% 1.6 mph WNW2.6 kmh WNW 2.2 mph3.5 kmh 29.65 in1004.1 mb 0.00 in0.0 mm 0.00 in0.0 mm 0.00 in0.0 mm
02:13 AM 48.7°F9.3°C 9.5°F-12.5°C 20% 1.1 mph WNW1.8 kmh WNW 1.1 mph1.8 kmh 29.65 in1004.1 mb 0.00 in0.0 mm 0.00 in0.0 mm 0.00 in0.0 mm
02:14 AM 48.7°F9.3°C 9.5°F-12.5°C 20% 1.6 mph NW2.6 kmh NW 2.2 mph3.5 kmh 29.65 in1004.1 mb 0.00 in0.0 mm 0.00 in0.0 mm 0.00 in0.0 mm
02:15 AM 48.7°F9.3°C 9.5°F-12.5°C 20% 1.6 mph NW2.6 kmh NW 2.2 mph3.5 kmh 29.65 in1004.1 mb 0.00 in0.0 mm 0.00 in0.0 mm 0.00 in0.0 mm
02:16 AM 48.7°F9.3°C 9.5°F-12.5°C 20% 0.7 mph NW1.1 kmh NW 1.1 mph1.8 kmh 29.66 in1004.4 mb 0.00 in0.0 mm 0.00 in0.0 mm 0.00 in0.0 mm
02:17 AM 48.7°F9.3°C 9.5°F-12.5°C 20% 2.9 mph NW4.7 kmh NW 3.4 mph5.5 kmh 29.65 in1004.1 mb 0.00 in0.0 mm 0.00 in0.0 mm 0.00 in0.0 mm
02:18 AM 48.7°F9.3°C 9.5°F-12.5°C 20% 1.1 mph NW1.8 kmh NW 1.1 mph1.8 kmh 29.66 in1004.4 mb 0.00 in0.0 mm 0.00 in0.0 mm 0.00 in0.0 mm
02:19 AM 48.7°F9.3°C 9.5°F-12.5°C 20% 3.4 mph NW5.5 kmh NW 4.5 mph7.2 kmh 29.65 in1004.1 mb 0.00 in0.0 mm 0.00 in0.0 mm 0.00 in0.0 mm
02:20 AM 48.7°F9.3°C 9.5°F-12.5°C 20% 2.9 mph NW4.7 kmh NW 3.4 mph5.5 kmh 29.65 in1004.1 mb 0.00 in0.0 mm 0.00 in0.0 mm 0.00 in0.0 mm
02:21 AM 48.9°F9.4°C 9.6°F-12.4°C 20% 2.5 mph NW4.0 kmh NW 3.4 mph5.5 kmh 29.65 in1004.1 mb 0.00 in0.0 mm 0.00 in0.0 mm 0.00 in0.0 mm
02:22 AM 48.9°F9.4°C 9.6°F-12.4°C 20% 1.8 mph NNW2.9 kmh NNW 2.2 mph3.5 kmh 29.65 in1004.1 mb 0.00 in0.0 mm 0.00 in0.0 mm 0.00 in0.0 mm
02:23 AM 48.7°F9.3°C 9.5°F-12.5°C 20% 1.1 mph NNW1.8 kmh NNW 1.1 mph1.8 kmh 29.65 in1004.1 mb 0.00 in0.0 mm 0.00 in0.0 mm 0.00 in0.0 mm
02:24 AM 48.7°F9.3°C 9.5°F-12.5°C 20% 1.1 mph NNW1.8 kmh NNW 1.1 mph1.8 kmh 29.65 in1004.1 mb 0.00 in0.0 mm 0.00 in0.0 mm 0.00 in0.0 mm
02:25 AM 48.7°F9.3°C 9.5°F-12.5°C 20% 1.3 mph NNW2.1 kmh NNW 2.2 mph3.5 kmh 29.65 in1004.1 mb 0.00 in0.0 mm 0.00 in0.0 mm 0.00 in0.0 mm
02:26 AM 48.7°F9.3°C 9.5°F-12.5°C 20% 1.8 mph NNW2.9 kmh NNW 2.2 mph3.5 kmh 29.65 in1004.1 mb 0.00 in0.0 mm 0.00 in0.0 mm 0.00 in0.0 mm
02:27 AM 48.7°F9.3°C 9.5°F-12.5°C 20% 1.3 mph NNW2.1 kmh NNW 2.2 mph3.5 kmh 29.65 in1004.1 mb 0.00 in0.0 mm 0.00 in0.0 mm 0.00 in0.0 mm
02:28 AM 48.7°F9.3°C 9.5°F-12.5°C 20% 0.9 mph NNW1.4 kmh NNW 1.1 mph1.8 kmh 29.65 in1004.1 mb 0.00 in0.0 mm 0.00 in0.0 mm 0.00 in0.0 mm
02:29 AM 48.7°F9.3°C 9.5°F-12.5°C 20% 2.2 mph NNW3.5 kmh NNW 2.2 mph3.5 kmh 29.65 in1004.1 mb 0.00 in0.0 mm 0.00 in0.0 mm 0.00 in0.0 mm
02:30 AM 48.7°F9.3°C 9.5°F-12.5°C 20% 1.6 mph NNW2.6 kmh NNW 2.2 mph3.5 kmh 29.65 in1004.1 mb 0.00 in0.0 mm 0.00 in0.0 mm 0.00 in0.0 mm
02:31 AM 48.6°F9.2°C 9.4°F-12.6°C 20% 2.9 mph NW4.7 kmh NW 3.4 mph5.5 kmh 29.65 in1004.1 mb 0.00 in0.0 mm 0.00 in0.0 mm 0.00 in0.0 mm
02:32 AM 48.6°F9.2°C 9.4°F-12.6°C 20% 2.5 mph WNW4.0 kmh WNW 3.4 mph5.5 kmh 29.64 in1003.7 mb 0.00 in0.0 mm 0.00 in0.0 mm 0.00 in0.0 mm
02:33 AM 48.6°F9.2°C 9.4°F-12.6°C 20% 2.0 mph WNW3.2 kmh WNW 3.4 mph5.5 kmh 29.65 in1004.1 mb 0.00 in0.0 mm 0.00 in0.0 mm 0.00 in0.0 mm
02:34 AM 48.7°F9.3°C 9.5°F-12.5°C 20% 2.2 mph WNW3.5 kmh WNW 2.2 mph3.5 kmh 29.65 in1004.1 mb 0.00 in0.0 mm 0.00 in0.0 mm 0.00 in0.0 mm
02:35 AM 48.6°F9.2°C 9.4°F-12.6°C 20% 1.1 mph WNW1.8 kmh WNW 1.1 mph1.8 kmh 29.65 in1004.1 mb 0.00 in0.0 mm 0.00 in0.0 mm 0.00 in0.0 mm
02:36 AM 48.6°F9.2°C 9.4°F-12.6°C 20% 2.0 mph WNW3.2 kmh WNW 2.2 mph3.5 kmh 29.65 in1004.1 mb 0.00 in0.0 mm 0.00 in0.0 mm 0.00 in0.0 mm
02:37 AM 48.6°F9.2°C 9.4°F-12.6°C 20% 1.1 mph WNW1.8 kmh WNW 2.2 mph3.5 kmh 29.65 in1004.1 mb 0.00 in0.0 mm 0.00 in0.0 mm 0.00 in0.0 mm
02:38 AM 48.6°F9.2°C 9.4°F-12.6°C 20% 0.7 mph WNW1.1 kmh WNW 1.1 mph1.8 kmh 29.65 in1004.1 mb 0.00 in0.0 mm 0.00 in0.0 mm 0.00 in0.0 mm
02:39 AM 48.6°F9.2°C 9.4°F-12.6°C 20% 0.2 mph WNW0.3 kmh WNW 1.1 mph1.8 kmh 29.65 in1004.1 mb 0.00 in0.0 mm 0.00 in0.0 mm 0.00 in0.0 mm
02:40 AM 48.4°F9.1°C 9.2°F-12.7°C 20% Calm Calm -- 29.65 in1004.1 mb 0.00 in0.0 mm 0.00 in0.0 mm 0.00 in0.0 mm
02:41 AM 48.4°F9.1°C 10.3°F-12.1°C 21% Calm Calm -- 29.65 in1004.1 mb 0.00 in0.0 mm 0.00 in0.0 mm 0.00 in0.0 mm
02:42 AM 48.2°F9.0°C 10.1°F-12.2°C 21% Calm Calm -- 29.65 in1004.1 mb 0.00 in0.0 mm 0.00 in0.0 mm 0.00 in0.0 mm
02:43 AM 48.0°F8.9°C 8.9°F-12.8°C 20% Calm Calm -- 29.65 in1004.1 mb 0.00 in0.0 mm 0.00 in0.0 mm 0.00 in0.0 mm
02:44 AM 47.8°F8.8°C 8.7°F-12.9°C 20% Calm Calm -- 29.65 in1004.1 mb 0.00 in0.0 mm 0.00 in0.0 mm 0.00 in0.0 mm
02:45 AM 47.7°F8.7°C 8.6°F-13.0°C 20% Calm Calm -- 29.65 in1004.1 mb 0.00 in0.0 mm 0.00 in0.0 mm 0.00 in0.0 mm
02:46 AM 47.7°F8.7°C 8.6°F-13.0°C 20% Calm Calm -- 29.65 in1004.1 mb 0.00 in0.0 mm 0.00 in0.0 mm 0.00 in0.0 mm
02:47 AM 47.5°F8.6°C 10.6°F-11.9°C 22% Calm Calm -- 29.65 in1004.1 mb 0.00 in0.0 mm 0.00 in0.0 mm 0.00 in0.0 mm
02:48 AM 47.5°F8.6°C 9.5°F-12.5°C 21% Calm Calm -- 29.64 in1003.7 mb 0.00 in0.0 mm 0.00 in0.0 mm 0.00 in0.0 mm
02:49 AM 47.5°F8.6°C 9.5°F-12.5°C 21% Calm Calm -- 29.65 in1004.1 mb 0.00 in0.0 mm 0.00 in0.0 mm 0.00 in0.0 mm
02:50 AM 47.1°F8.4°C 9.2°F-12.7°C 21% Calm Calm -- 29.65 in1004.1 mb 0.00 in0.0 mm 0.00 in0.0 mm 0.00 in0.0 mm
02:51 AM 47.1°F8.4°C 8.1°F-13.3°C 20% 0.2 mph WNW0.3 kmh WNW 1.1 mph1.8 kmh 29.65 in1004.1 mb 0.00 in0.0 mm 0.00 in0.0 mm 0.00 in0.0 mm
02:52 AM 47.1°F8.4°C 8.1°F-13.3°C 20% 0.2 mph WNW0.3 kmh WNW 1.1 mph1.8 kmh 29.65 in1004.1 mb 0.00 in0.0 mm 0.00 in0.0 mm 0.00 in0.0 mm
02:53 AM 47.3°F8.5°C 8.3°F-13.2°C 20% Calm Calm -- 29.64 in1003.7 mb 0.00 in0.0 mm 0.00 in0.0 mm 0.00 in0.0 mm
02:54 AM 47.3°F8.5°C 8.3°F-13.2°C 20% Calm Calm -- 29.65 in1004.1 mb 0.00 in0.0 mm 0.00 in0.0 mm 0.00 in0.0 mm
02:55 AM 47.3°F8.5°C 8.3°F-13.2°C 20% 0.9 mph WNW1.4 kmh WNW 1.1 mph1.8 kmh 29.65 in1004.1 mb 0.00 in0.0 mm 0.00 in0.0 mm 0.00 in0.0 mm
02:56 AM 47.5°F8.6°C 8.5°F-13.1°C 20% 2.0 mph WNW3.2 kmh WNW 3.4 mph5.5 kmh 29.65 in1004.1 mb 0.00 in0.0 mm 0.00 in0.0 mm 0.00 in0.0 mm
02:57 AM 47.5°F8.6°C 8.5°F-13.1°C 20% 0.2 mph WNW0.3 kmh WNW 1.1 mph1.8 kmh 29.65 in1004.1 mb 0.00 in0.0 mm 0.00 in0.0 mm 0.00 in0.0 mm
02:58 AM 47.8°F8.8°C 8.7°F-12.9°C 20% 1.1 mph WNW1.8 kmh WNW 1.1 mph1.8 kmh 29.65 in1004.1 mb 0.00 in0.0 mm 0.00 in0.0 mm 0.00 in0.0 mm
02:59 AM 47.8°F8.8°C 8.7°F-12.9°C 20% 0.7 mph WNW1.1 kmh WNW 1.1 mph1.8 kmh 29.65 in1004.1 mb 0.00 in0.0 mm 0.00 in0.0 mm 0.00 in0.0 mm
03:00 AM 47.8°F8.8°C 8.7°F-12.9°C 20% 0.2 mph WNW0.3 kmh WNW 1.1 mph1.8 kmh 29.65 in1004.1 mb 0.00 in0.0 mm 0.00 in0.0 mm 0.00 in0.0 mm
03:01 AM 47.8°F8.8°C 8.7°F-12.9°C 20% 0.7 mph WNW1.1 kmh WNW 2.2 mph3.5 kmh 29.65 in1004.1 mb 0.00 in0.0 mm 0.00 in0.0 mm 0.00 in0.0 mm
03:02 AM 47.8°F8.8°C 8.7°F-12.9°C 20% Calm Calm -- 29.65 in1004.1 mb 0.00 in0.0 mm 0.00 in0.0 mm 0.00 in0.0 mm
03:03 AM 47.7°F8.7°C 8.6°F-13.0°C 20% 1.1 mph WNW1.8 kmh WNW 1.1 mph1.8 kmh 29.65 in1004.1 mb 0.00 in0.0 mm 0.00 in0.0 mm 0.00 in0.0 mm
03:04 AM 47.7°F8.7°C 7.5°F-13.6°C 19% 1.8 mph NW2.9 kmh NW 2.2 mph3.5 kmh 29.65 in1004.1 mb 0.00 in0.0 mm 0.00 in0.0 mm 0.00 in0.0 mm
03:05 AM 47.7°F8.7°C 7.5°F-13.6°C 19% Calm Calm -- 29.65 in1004.1 mb 0.00 in0.0 mm 0.00 in0.0 mm 0.00 in0.0 mm
03:06 AM 47.7°F8.7°C 8.6°F-13.0°C 20% Calm Calm -- 29.65 in1004.1 mb 0.00 in0.0 mm 0.00 in0.0 mm 0.00 in0.0 mm
03:07 AM 47.7°F8.7°C 8.6°F-13.0°C 20% 1.6 mph W2.6 kmh W 2.2 mph3.5 kmh 29.65 in1004.1 mb 0.00 in0.0 mm 0.00 in0.0 mm 0.00 in0.0 mm
03:08 AM 47.5°F8.6°C 8.5°F-13.1°C 20% 2.0 mph W3.2 kmh W 2.2 mph3.5 kmh 29.65 in1004.1 mb 0.00 in0.0 mm 0.00 in0.0 mm 0.00 in0.0 mm
03:09 AM 47.5°F8.6°C 7.3°F-13.7°C 19% 0.7 mph W1.1 kmh W 1.1 mph1.8 kmh 29.65 in1004.1 mb 0.00 in0.0 mm 0.00 in0.0 mm 0.00 in0.0 mm
03:10 AM 47.7°F8.7°C 8.6°F-13.0°C 20% Calm Calm -- 29.65 in1004.1 mb 0.00 in0.0 mm 0.00 in0.0 mm 0.00 in0.0 mm
03:11 AM 47.7°F8.7°C 7.5°F-13.6°C 19% 2.5 mph WNW4.0 kmh WNW 3.4 mph5.5 kmh 29.65 in1004.1 mb 0.00 in0.0 mm 0.00 in0.0 mm 0.00 in0.0 mm
03:12 AM 47.5°F8.6°C 7.3°F-13.7°C 19% 0.2 mph WNW0.3 kmh WNW 1.1 mph1.8 kmh 29.65 in1004.1 mb 0.00 in0.0 mm 0.00 in0.0 mm 0.00 in0.0 mm
03:13 AM 47.5°F8.6°C 8.5°F-13.1°C 20% 0.9 mph WNW1.4 kmh WNW 1.1 mph1.8 kmh 29.65 in1004.1 mb 0.00 in0.0 mm 0.00 in0.0 mm 0.00 in0.0 mm
03:14 AM 47.5°F8.6°C 8.5°F-13.1°C 20% Calm Calm -- 29.65 in1004.1 mb 0.00 in0.0 mm 0.00 in0.0 mm 0.00 in0.0 mm
03:15 AM 47.5°F8.6°C 8.5°F-13.1°C 20% 1.3 mph WNW2.1 kmh WNW 2.2 mph3.5 kmh 29.65 in1004.1 mb 0.00 in0.0 mm 0.00 in0.0 mm 0.00 in0.0 mm
03:16 AM 47.3°F8.5°C 7.2°F-13.8°C 19% 0.7 mph WNW1.1 kmh WNW 1.1 mph1.8 kmh 29.65 in1004.1 mb 0.00 in0.0 mm 0.00 in0.0 mm 0.00 in0.0 mm
03:17 AM 47.3°F8.5°C 8.3°F-13.2°C 20% 0.7 mph WNW1.1 kmh WNW 1.1 mph1.8 kmh 29.65 in1004.1 mb 0.00 in0.0 mm 0.00 in0.0 mm 0.00 in0.0 mm
03:18 AM 47.3°F8.5°C 7.2°F-13.8°C 19% 2.2 mph W3.5 kmh W 2.2 mph3.5 kmh 29.65 in1004.1 mb 0.00 in0.0 mm 0.00 in0.0 mm 0.00 in0.0 mm
03:19 AM 47.3°F8.5°C 7.2°F-13.8°C 19% 2.2 mph W3.5 kmh W 3.4 mph5.5 kmh 29.64 in1003.7 mb 0.00 in0.0 mm 0.00 in0.0 mm 0.00 in0.0 mm
03:20 AM 47.5°F8.6°C 7.3°F-13.7°C 19% 1.3 mph W2.1 kmh W 2.2 mph3.5 kmh 29.65 in1004.1 mb 0.00 in0.0 mm 0.00 in0.0 mm 0.00 in0.0 mm
03:21 AM 47.5°F8.6°C 8.5°F-13.1°C 20% 0.9 mph W1.4 kmh W 1.1 mph1.8 kmh 29.64 in1003.7 mb 0.00 in0.0 mm 0.00 in0.0 mm 0.00 in0.0 mm
03:22 AM 47.5°F8.6°C 7.3°F-13.7°C 19% 2.7 mph WNW4.3 kmh WNW 3.4 mph5.5 kmh 29.64 in1003.7 mb 0.00 in0.0 mm 0.00 in0.0 mm 0.00 in0.0 mm
03:23 AM 47.5°F8.6°C 7.3°F-13.7°C 19% 1.8 mph NW2.9 kmh NW 2.2 mph3.5 kmh 29.65 in1004.1 mb 0.00 in0.0 mm 0.00 in0.0 mm 0.00 in0.0 mm
03:24 AM 47.5°F8.6°C 7.3°F-13.7°C 19% 0.4 mph NW0.6 kmh NW 1.1 mph1.8 kmh 29.65 in1004.1 mb 0.00 in0.0 mm 0.00 in0.0 mm 0.00 in0.0 mm
03:25 AM 47.5°F8.6°C 8.5°F-13.1°C 20% 0.2 mph NW0.3 kmh NW 1.1 mph1.8 kmh 29.64 in1003.7 mb 0.00 in0.0 mm 0.00 in0.0 mm 0.00 in0.0 mm
03:26 AM 47.5°F8.6°C 8.5°F-13.1°C 20% Calm Calm -- 29.65 in1004.1 mb 0.00 in0.0 mm 0.00 in0.0 mm 0.00 in0.0 mm
03:27 AM 47.3°F8.5°C 8.3°F-13.2°C 20% Calm Calm -- 29.64 in1003.7 mb 0.00 in0.0 mm 0.00 in0.0 mm 0.00 in0.0 mm
03:28 AM 47.1°F8.4°C 9.2°F-12.7°C 21% Calm Calm -- 29.65 in1004.1 mb 0.00 in0.0 mm 0.00 in0.0 mm 0.00 in0.0 mm
03:29 AM 46.9°F8.3°C 9.0°F-12.8°C 21% Calm Calm -- 29.64 in1003.7 mb 0.00 in0.0 mm 0.00 in0.0 mm 0.00 in0.0 mm
03:30 AM 46.6°F8.1°C 7.7°F-13.5°C 20% Calm Calm -- 29.64 in1003.7 mb 0.00 in0.0 mm 0.00 in0.0 mm 0.00 in0.0 mm
03:31 AM 46.2°F7.9°C 8.5°F-13.1°C 21% 0.9 mph NW1.4 kmh NW 1.1 mph1.8 kmh 29.65 in1004.1 mb 0.00 in0.0 mm 0.00 in0.0 mm 0.00 in0.0 mm
03:32 AM 46.2°F7.9°C 8.5°F-13.1°C 21% Calm Calm -- 29.64 in1003.7 mb 0.00 in0.0 mm 0.00 in0.0 mm 0.00 in0.0 mm
03:33 AM 46.2°F7.9°C 9.5°F-12.5°C 22% Calm Calm -- 29.64 in1003.7 mb 0.00 in0.0 mm 0.00 in0.0 mm 0.00 in0.0 mm
03:34 AM 46.0°F7.8°C 9.3°F-12.6°C 22% Calm Calm -- 29.65 in1004.1 mb 0.00 in0.0 mm 0.00 in0.0 mm 0.00 in0.0 mm
03:35 AM 45.9°F7.7°C 8.2°F-13.2°C 21% Calm Calm -- 29.64 in1003.7 mb 0.00 in0.0 mm 0.00 in0.0 mm 0.00 in0.0 mm
03:36 AM 45.9°F7.7°C 8.2°F-13.2°C 21% Calm Calm -- 29.63 in1003.4 mb 0.00 in0.0 mm 0.00 in0.0 mm 0.00 in0.0 mm
03:37 AM 45.7°F7.6°C 8.0°F-13.3°C 21% Calm Calm -- 29.64 in1003.7 mb 0.00 in0.0 mm 0.00 in0.0 mm 0.00 in0.0 mm
03:38 AM 45.7°F7.6°C 9.1°F-12.7°C 22% Calm Calm -- 29.64 in1003.7 mb 0.00 in0.0 mm 0.00 in0.0 mm 0.00 in0.0 mm
03:39 AM 45.5°F7.5°C 8.9°F-12.8°C 22% Calm Calm -- 29.63 in1003.4 mb 0.00 in0.0 mm 0.00 in0.0 mm 0.00 in0.0 mm
03:40 AM 45.3°F7.4°C 7.7°F-13.5°C 21% Calm Calm -- 29.64 in1003.7 mb 0.00 in0.0 mm 0.00 in0.0 mm 0.00 in0.0 mm
03:41 AM 45.3°F7.4°C 7.7°F-13.5°C 21% Calm Calm -- 29.65 in1004.1 mb 0.00 in0.0 mm 0.00 in0.0 mm 0.00 in0.0 mm
03:42 AM 45.3°F7.4°C 7.7°F-13.5°C 21% 0.2 mph NW0.3 kmh NW 1.1 mph1.8 kmh 29.64 in1003.7 mb 0.00 in0.0 mm 0.00 in0.0 mm 0.00 in0.0 mm
03:43 AM 45.3°F7.4°C 6.6°F-14.1°C 20% Calm Calm -- 29.64 in1003.7 mb 0.00 in0.0 mm 0.00 in0.0 mm 0.00 in0.0 mm
03:44 AM 45.3°F7.4°C 7.7°F-13.5°C 21% Calm Calm -- 29.63 in1003.4 mb 0.00 in0.0 mm 0.00 in0.0 mm 0.00 in0.0 mm
03:45 AM 45.3°F7.4°C 7.7°F-13.5°C 21% Calm Calm -- 29.64 in1003.7 mb 0.00 in0.0 mm 0.00 in0.0 mm 0.00 in0.0 mm
03:46 AM 45.1°F7.3°C 7.5°F-13.6°C 21% Calm Calm -- 29.64 in1003.7 mb 0.00 in0.0 mm 0.00 in0.0 mm 0.00 in0.0 mm
03:47 AM 45.1°F7.3°C 7.5°F-13.6°C 21% Calm Calm -- 29.64 in1003.7 mb 0.00 in0.0 mm 0.00 in0.0 mm 0.00 in0.0 mm
03:48 AM 45.1°F7.3°C 7.5°F-13.6°C 21% Calm Calm -- 29.63 in1003.4 mb 0.00 in0.0 mm 0.00 in0.0 mm 0.00 in0.0 mm
03:49 AM 45.1°F7.3°C 6.5°F-14.2°C 20% Calm Calm -- 29.64 in1003.7 mb 0.00 in0.0 mm 0.00 in0.0 mm 0.00 in0.0 mm
03:50 AM 45.1°F7.3°C 6.5°F-14.2°C 20% Calm Calm -- 29.64 in1003.7 mb 0.00 in0.0 mm 0.00 in0.0 mm 0.00 in0.0 mm
03:51 AM 45.1°F7.3°C 7.5°F-13.6°C 21% Calm Calm -- 29.64 in1003.7 mb 0.00 in0.0 mm 0.00 in0.0 mm 0.00 in0.0 mm
03:52 AM 45.3°F7.4°C 6.6°F-14.1°C 20% 1.1 mph NW1.8 kmh NW 1.1 mph1.8 kmh 29.64 in1003.7 mb 0.00 in0.0 mm 0.00 in0.0 mm 0.00 in0.0 mm
03:53 AM 45.3°F7.4°C 6.6°F-14.1°C 20% 0.7 mph NW1.1 kmh NW 1.1 mph1.8 kmh 29.64 in1003.7 mb 0.00 in0.0 mm 0.00 in0.0 mm 0.00 in0.0 mm
03:54 AM 46.0°F7.8°C 8.3°F-13.2°C 21% 0.2 mph NW0.3 kmh NW 1.1 mph1.8 kmh 29.64 in1003.7 mb 0.00 in0.0 mm 0.00 in0.0 mm 0.00 in0.0 mm
03:55 AM 46.0°F7.8°C 6.1°F-14.4°C 19% 1.3 mph NW2.1 kmh NW 2.2 mph3.5 kmh 29.64 in1003.7 mb 0.00 in0.0 mm 0.00 in0.0 mm 0.00 in0.0 mm
03:56 AM 46.0°F7.8°C 7.2°F-13.8°C 20% Calm Calm -- 29.64 in1003.7 mb 0.00 in0.0 mm 0.00 in0.0 mm 0.00 in0.0 mm
03:57 AM 46.2°F7.9°C 7.4°F-13.7°C 20% 1.1 mph NW1.8 kmh NW 1.1 mph1.8 kmh 29.64 in1003.7 mb 0.00 in0.0 mm 0.00 in0.0 mm 0.00 in0.0 mm
03:58 AM 46.4°F8.0°C 7.5°F-13.6°C 20% 0.2 mph NW0.3 kmh NW 1.1 mph1.8 kmh 29.64 in1003.7 mb 0.00 in0.0 mm 0.00 in0.0 mm 0.00 in0.0 mm
03:59 AM 46.2°F7.9°C 7.4°F-13.7°C 20% 0.7 mph NW1.1 kmh NW 1.1 mph1.8 kmh 29.63 in1003.4 mb 0.00 in0.0 mm 0.00 in0.0 mm 0.00 in0.0 mm
04:00 AM 46.0°F7.8°C 6.1°F-14.4°C 19% 2.2 mph NW3.5 kmh NW 3.4 mph5.5 kmh 29.64 in1003.7 mb 0.00 in0.0 mm 0.00 in0.0 mm 0.00 in0.0 mm
04:01 AM 46.0°F7.8°C 6.1°F-14.4°C 19% 2.5 mph NW4.0 kmh NW 3.4 mph5.5 kmh 29.64 in1003.7 mb 0.00 in0.0 mm 0.00 in0.0 mm 0.00 in0.0 mm
04:02 AM 46.2°F7.9°C 5.1°F-14.9°C 18% 0.4 mph NW0.6 kmh NW 1.1 mph1.8 kmh 29.65 in1004.1 mb 0.00 in0.0 mm 0.00 in0.0 mm 0.00 in0.0 mm
04:03 AM 46.8°F8.2°C 5.6°F-14.7°C 18% 1.1 mph NW1.8 kmh NW 1.1 mph1.8 kmh 29.64 in1003.7 mb 0.00 in0.0 mm 0.00 in0.0 mm 0.00 in0.0 mm
04:04 AM 46.9°F8.3°C 5.6°F-14.7°C 18% 1.3 mph NW2.1 kmh NW 2.2 mph3.5 kmh 29.64 in1003.7 mb 0.00 in0.0 mm 0.00 in0.0 mm 0.00 in0.0 mm
04:05 AM 47.1°F8.4°C 5.8°F-14.6°C 18% 2.9 mph NW4.7 kmh NW 3.4 mph5.5 kmh 29.64 in1003.7 mb 0.00 in0.0 mm 0.00 in0.0 mm 0.00 in0.0 mm
04:06 AM 47.1°F8.4°C 5.8°F-14.6°C 18% 0.9 mph NW1.4 kmh NW 1.1 mph1.8 kmh 29.64 in1003.7 mb 0.00 in0.0 mm 0.00 in0.0 mm 0.00 in0.0 mm
04:07 AM 46.8°F8.2°C 5.6°F-14.7°C 18% 0.7 mph NW1.1 kmh NW 1.1 mph1.8 kmh 29.64 in1003.7 mb 0.00 in0.0 mm 0.00 in0.0 mm 0.00 in0.0 mm
04:08 AM 46.8°F8.2°C 5.6°F-14.7°C 18% 1.1 mph NW1.8 kmh NW 2.2 mph3.5 kmh 29.64 in1003.7 mb 0.00 in0.0 mm 0.00 in0.0 mm 0.00 in0.0 mm
04:09 AM 46.9°F8.3°C 5.6°F-14.7°C 18% 0.9 mph NW1.4 kmh NW 2.2 mph3.5 kmh 29.64 in1003.7 mb 0.00 in0.0 mm 0.00 in0.0 mm 0.00 in0.0 mm
04:10 AM 46.9°F8.3°C 5.6°F-14.7°C 18% 1.8 mph NW2.9 kmh NW 2.2 mph3.5 kmh 29.63 in1003.4 mb 0.00 in0.0 mm 0.00 in0.0 mm 0.00 in0.0 mm
04:11 AM 46.9°F8.3°C 5.6°F-14.7°C 18% 1.8 mph NW2.9 kmh NW 2.2 mph3.5 kmh 29.64 in1003.7 mb 0.00 in0.0 mm 0.00 in0.0 mm 0.00 in0.0 mm
04:12 AM 46.9°F8.3°C 5.6°F-14.7°C 18% 2.7 mph NW4.3 kmh NW 3.4 mph5.5 kmh 29.64 in1003.7 mb 0.00 in0.0 mm 0.00 in0.0 mm 0.00 in0.0 mm
04:13 AM 46.9°F8.3°C 5.6°F-14.7°C 18% 1.3 mph NW2.1 kmh NW 2.2 mph3.5 kmh 29.64 in1003.7 mb 0.00 in0.0 mm 0.00 in0.0 mm 0.00 in0.0 mm
04:14 AM 47.1°F8.4°C 5.8°F-14.6°C 18% 2.9 mph NW4.7 kmh NW 3.4 mph5.5 kmh 29.64 in1003.7 mb 0.00 in0.0 mm 0.00 in0.0 mm 0.00 in0.0 mm
04:15 AM 47.1°F8.4°C 5.8°F-14.6°C 18% 2.2 mph NNW3.5 kmh NNW 3.4 mph5.5 kmh 29.64 in1003.7 mb 0.00 in0.0 mm 0.00 in0.0 mm 0.00 in0.0 mm
04:16 AM 47.1°F8.4°C 5.8°F-14.6°C 18% 1.8 mph NNW2.9 kmh NNW 2.2 mph3.5 kmh 29.64 in1003.7 mb 0.00 in0.0 mm 0.00 in0.0 mm 0.00 in0.0 mm
04:17 AM 47.1°F8.4°C 5.8°F-14.6°C 18% 1.1 mph NNW1.8 kmh NNW 2.2 mph3.5 kmh 29.64 in1003.7 mb 0.00 in0.0 mm 0.00 in0.0 mm 0.00 in0.0 mm
04:18 AM 46.9°F8.3°C 6.8°F-14.0°C 19% 0.9 mph NNW1.4 kmh NNW 1.1 mph1.8 kmh 29.64 in1003.7 mb 0.00 in0.0 mm 0.00 in0.0 mm 0.00 in0.0 mm
04:19 AM 46.8°F8.2°C 5.6°F-14.7°C 18% Calm Calm -- 29.64 in1003.7 mb 0.00 in0.0 mm 0.00 in0.0 mm 0.00 in0.0 mm
04:20 AM 46.8°F8.2°C 5.6°F-14.7°C 18% Calm Calm -- 29.63 in1003.4 mb 0.00 in0.0 mm 0.00 in0.0 mm 0.00 in0.0 mm
04:21 AM 46.8°F8.2°C 5.6°F-14.7°C 18% Calm Calm -- 29.64 in1003.7 mb 0.00 in0.0 mm 0.00 in0.0 mm 0.00 in0.0 mm
04:22 AM 46.8°F8.2°C 5.6°F-14.7°C 18% 0.2 mph NNW0.3 kmh NNW 1.1 mph1.8 kmh 29.64 in1003.7 mb 0.00 in0.0 mm 0.00 in0.0 mm 0.00 in0.0 mm
04:23 AM 46.8°F8.2°C 5.6°F-14.7°C 18% Calm Calm -- 29.65 in1004.1 mb 0.00 in0.0 mm 0.00 in0.0 mm 0.00 in0.0 mm
04:24 AM 46.6°F8.1°C 6.6°F-14.1°C 19% Calm Calm -- 29.64 in1003.7 mb 0.00 in0.0 mm 0.00 in0.0 mm 0.00 in0.0 mm
04:25 AM 46.6°F8.1°C 6.6°F-14.1°C 19% Calm Calm -- 29.64 in1003.7 mb 0.00 in0.0 mm 0.00 in0.0 mm 0.00 in0.0 mm
04:26 AM 46.2°F7.9°C 7.4°F-13.7°C 20% Calm Calm -- 29.64 in1003.7 mb 0.00 in0.0 mm 0.00 in0.0 mm 0.00 in0.0 mm
04:27 AM 46.0°F7.8°C 7.2°F-13.8°C 20% 0.2 mph NNW0.3 kmh NNW 1.1 mph1.8 kmh 29.64 in1003.7 mb 0.00 in0.0 mm 0.00 in0.0 mm 0.00 in0.0 mm
04:28 AM 45.9°F7.7°C 7.1°F-13.8°C 20% Calm Calm -- 29.65 in1004.1 mb 0.00 in0.0 mm 0.00 in0.0 mm 0.00 in0.0 mm
04:29 AM 45.7°F7.6°C 7.0°F-13.9°C 20% Calm Calm -- 29.64 in1003.7 mb 0.00 in0.0 mm 0.00 in0.0 mm 0.00 in0.0 mm
04:30 AM 45.7°F7.6°C 8.0°F-13.3°C 21% Calm Calm -- 29.64 in1003.7 mb 0.00 in0.0 mm 0.00 in0.0 mm 0.00 in0.0 mm
04:31 AM 45.5°F7.5°C 6.8°F-14.0°C 20% 0.2 mph N0.3 kmh N 1.1 mph1.8 kmh 29.65 in1004.1 mb 0.00 in0.0 mm 0.00 in0.0 mm 0.00 in0.0 mm
04:32 AM 45.5°F7.5°C 7.9°F-13.4°C 21% 0.2 mph N0.3 kmh N 1.1 mph1.8 kmh 29.64 in1003.7 mb 0.00 in0.0 mm 0.00 in0.0 mm 0.00 in0.0 mm
04:33 AM 45.5°F7.5°C 6.8°F-14.0°C 20% Calm Calm -- 29.64 in1003.7 mb 0.00 in0.0 mm 0.00 in0.0 mm 0.00 in0.0 mm
04:34 AM 45.3°F7.4°C 6.6°F-14.1°C 20% 0.4 mph N0.6 kmh N 1.1 mph1.8 kmh 29.64 in1003.7 mb 0.00 in0.0 mm 0.00 in0.0 mm 0.00 in0.0 mm
04:35 AM 45.3°F7.4°C 4.3°F-15.4°C 18% 1.8 mph NW2.9 kmh NW 2.2 mph3.5 kmh 29.64 in1003.7 mb 0.00 in0.0 mm 0.00 in0.0 mm 0.00 in0.0 mm
04:36 AM 45.7°F7.6°C 4.7°F-15.2°C 18% 1.3 mph NNW2.1 kmh NNW 2.2 mph3.5 kmh 29.64 in1003.7 mb 0.00 in0.0 mm 0.00 in0.0 mm 0.00 in0.0 mm
04:37 AM 46.2°F7.9°C 6.2°F-14.3°C 19% 1.3 mph NNW2.1 kmh NNW 2.2 mph3.5 kmh 29.64 in1003.7 mb 0.00 in0.0 mm 0.00 in0.0 mm 0.00 in0.0 mm
04:38 AM 46.2°F7.9°C 8.5°F-13.1°C 21% Calm Calm -- 29.64 in1003.7 mb 0.00 in0.0 mm 0.00 in0.0 mm 0.00 in0.0 mm
04:39 AM 46.0°F7.8°C 6.1°F-14.4°C 19% 1.3 mph NNW2.1 kmh NNW 2.2 mph3.5 kmh 29.64 in1003.7 mb 0.00 in0.0 mm 0.00 in0.0 mm 0.00 in0.0 mm
04:40 AM 45.9°F7.7°C 6.0°F-14.4°C 19% 0.9 mph NNW1.4 kmh NNW 1.1 mph1.8 kmh 29.64 in1003.7 mb 0.00 in0.0 mm 0.00 in0.0 mm 0.00 in0.0 mm
04:41 AM 45.7°F7.6°C 5.8°F-14.6°C 19% 0.9 mph NNW1.4 kmh NNW 1.1 mph1.8 kmh 29.64 in1003.7 mb 0.00 in0.0 mm 0.00 in0.0 mm 0.00 in0.0 mm
04:42 AM 45.7°F7.6°C 5.8°F-14.6°C 19% Calm Calm -- 29.64 in1003.7 mb 0.00 in0.0 mm 0.00 in0.0 mm 0.00 in0.0 mm
04:43 AM 45.9°F7.7°C 6.0°F-14.4°C 19% 0.2 mph NNW0.3 kmh NNW 1.1 mph1.8 kmh 29.65 in1004.1 mb 0.00 in0.0 mm 0.00 in0.0 mm 0.00 in0.0 mm
04:44 AM 45.9°F7.7°C 4.8°F-15.1°C 18% 0.9 mph NNW1.4 kmh NNW 1.1 mph1.8 kmh 29.64 in1003.7 mb 0.00 in0.0 mm 0.00 in0.0 mm 0.00 in0.0 mm
04:45 AM 45.9°F7.7°C 4.8°F-15.1°C 18% 0.9 mph NNW1.4 kmh NNW 1.1 mph1.8 kmh 29.64 in1003.7 mb 0.00 in0.0 mm 0.00 in0.0 mm 0.00 in0.0 mm
04:46 AM 45.9°F7.7°C 4.8°F-15.1°C 18% Calm Calm -- 29.64 in1003.7 mb 0.00 in0.0 mm 0.00 in0.0 mm 0.00 in0.0 mm
04:47 AM 45.9°F7.7°C 6.0°F-14.4°C 19% 0.4 mph NNW0.6 kmh NNW 1.1 mph1.8 kmh 29.64 in1003.7 mb 0.00 in0.0 mm 0.00 in0.0 mm 0.00 in0.0 mm
04:48 AM 45.9°F7.7°C 6.0°F-14.4°C 19% Calm Calm -- 29.64 in1003.7 mb 0.00 in0.0 mm 0.00 in0.0 mm 0.00 in0.0 mm
04:49 AM 45.9°F7.7°C 6.0°F-14.4°C 19% 0.7 mph NNW1.1 kmh NNW 1.1 mph1.8 kmh 29.64 in1003.7 mb 0.00 in0.0 mm 0.00 in0.0 mm 0.00 in0.0 mm
04:50 AM 45.7°F7.6°C 5.8°F-14.6°C 19% 0.9 mph NNW1.4 kmh NNW 1.1 mph1.8 kmh 29.64 in1003.7 mb 0.00 in0.0 mm 0.00 in0.0 mm 0.00 in0.0 mm
04:51 AM 45.7°F7.6°C 5.8°F-14.6°C 19% 1.3 mph NNW2.1 kmh NNW 2.2 mph3.5 kmh 29.64 in1003.7 mb 0.00 in0.0 mm 0.00 in0.0 mm 0.00 in0.0 mm
04:52 AM 45.7°F7.6°C 4.7°F-15.2°C 18% 2.2 mph NW3.5 kmh NW 2.2 mph3.5 kmh 29.64 in1003.7 mb 0.00 in0.0 mm 0.00 in0.0 mm 0.00 in0.0 mm
04:53 AM 45.7°F7.6°C 4.7°F-15.2°C 18% 2.2 mph WNW3.5 kmh WNW 3.4 mph5.5 kmh 29.64 in1003.7 mb 0.00 in0.0 mm 0.00 in0.0 mm 0.00 in0.0 mm
04:54 AM 45.7°F7.6°C 4.7°F-15.2°C 18% 2.0 mph NW3.2 kmh NW 2.2 mph3.5 kmh 29.64 in1003.7 mb 0.00 in0.0 mm 0.00 in0.0 mm 0.00 in0.0 mm
04:55 AM 45.9°F7.7°C 4.8°F-15.1°C 18% 3.8 mph NW6.1 kmh NW 4.5 mph7.2 kmh 29.65 in1004.1 mb 0.00 in0.0 mm 0.00 in0.0 mm 0.00 in0.0 mm
04:56 AM 45.9°F7.7°C 4.8°F-15.1°C 18% 1.8 mph NNW2.9 kmh NNW 2.2 mph3.5 kmh 29.64 in1003.7 mb 0.00 in0.0 mm 0.00 in0.0 mm 0.00 in0.0 mm
04:57 AM 45.9°F7.7°C 4.8°F-15.1°C 18% 2.7 mph NNW4.3 kmh NNW 3.4 mph5.5 kmh 29.64 in1003.7 mb 0.00 in0.0 mm 0.00 in0.0 mm 0.00 in0.0 mm
04:58 AM 45.9°F7.7°C 4.8°F-15.1°C 18% 2.2 mph NNW3.5 kmh NNW 3.4 mph5.5 kmh 29.65 in1004.1 mb 0.00 in0.0 mm 0.00 in0.0 mm 0.00 in0.0 mm
04:59 AM 45.9°F7.7°C 4.8°F-15.1°C 18% 2.0 mph NNW3.2 kmh NNW 2.2 mph3.5 kmh 29.65 in1004.1 mb 0.00 in0.0 mm 0.00 in0.0 mm 0.00 in0.0 mm
05:00 AM 45.7°F7.6°C 4.7°F-15.2°C 18% 2.0 mph NNW3.2 kmh NNW 3.4 mph5.5 kmh 29.64 in1003.7 mb 0.00 in0.0 mm 0.00 in0.0 mm 0.00 in0.0 mm
05:01 AM 45.7°F7.6°C 5.8°F-14.6°C 19% 2.0 mph NNW3.2 kmh NNW 2.2 mph3.5 kmh 29.64 in1003.7 mb 0.00 in0.0 mm 0.00 in0.0 mm 0.00 in0.0 mm
05:02 AM 45.7°F7.6°C 4.7°F-15.2°C 18% 2.2 mph NNW3.5 kmh NNW 2.2 mph3.5 kmh 29.63 in1003.4 mb 0.00 in0.0 mm 0.00 in0.0 mm 0.00 in0.0 mm
05:03 AM 45.7°F7.6°C 4.7°F-15.2°C 18% 1.8 mph NNW2.9 kmh NNW 2.2 mph3.5 kmh 29.65 in1004.1 mb 0.00 in0.0 mm 0.00 in0.0 mm 0.00 in0.0 mm
05:04 AM 45.7°F7.6°C 4.7°F-15.2°C 18% 0.9 mph NNW1.4 kmh NNW 1.1 mph1.8 kmh 29.65 in1004.1 mb 0.00 in0.0 mm 0.00 in0.0 mm 0.00 in0.0 mm
05:05 AM 45.7°F7.6°C 4.7°F-15.2°C 18% 0.9 mph NNW1.4 kmh NNW 1.1 mph1.8 kmh 29.65 in1004.1 mb 0.00 in0.0 mm 0.00 in0.0 mm 0.00 in0.0 mm
05:06 AM 45.7°F7.6°C 4.7°F-15.2°C 18% Calm Calm -- 29.65 in1004.1 mb 0.00 in0.0 mm 0.00 in0.0 mm 0.00 in0.0 mm
05:07 AM 45.9°F7.7°C 4.8°F-15.1°C 18% Calm Calm -- 29.64 in1003.7 mb 0.00 in0.0 mm 0.00 in0.0 mm 0.00 in0.0 mm
05:08 AM 45.7°F7.6°C 4.7°F-15.2°C 18% 0.9 mph NNW1.4 kmh NNW 1.1 mph1.8 kmh 29.65 in1004.1 mb 0.00 in0.0 mm 0.00 in0.0 mm 0.00 in0.0 mm
05:09 AM 45.7°F7.6°C 4.7°F-15.2°C 18% 0.7 mph NNW1.1 kmh NNW 1.1 mph1.8 kmh 29.65 in1004.1 mb 0.00 in0.0 mm 0.00 in0.0 mm 0.00 in0.0 mm
05:10 AM 45.7°F7.6°C 4.7°F-15.2°C 18% 1.1 mph NNW1.8 kmh NNW 1.1 mph1.8 kmh 29.65 in1004.1 mb 0.00 in0.0 mm 0.00 in0.0 mm 0.00 in0.0 mm
05:11 AM 45.5°F7.5°C 4.5°F-15.3°C 18% 0.9 mph NNW1.4 kmh NNW 2.2 mph3.5 kmh 29.65 in1004.1 mb 0.00 in0.0 mm 0.00 in0.0 mm 0.00 in0.0 mm
05:12 AM 45.5°F7.5°C 4.5°F-15.3°C 18% 0.2 mph NNW0.3 kmh NNW 1.1 mph1.8 kmh 29.65 in1004.1 mb 0.00 in0.0 mm 0.00 in0.0 mm 0.00 in0.0 mm
05:13 AM 45.5°F7.5°C 4.5°F-15.3°C 18% 0.7 mph NNW1.1 kmh NNW 1.1 mph1.8 kmh 29.65 in1004.1 mb 0.00 in0.0 mm 0.00 in0.0 mm 0.00 in0.0 mm
05:14 AM 45.5°F7.5°C 4.5°F-15.3°C 18% 0.9 mph NNW1.4 kmh NNW 1.1 mph1.8 kmh 29.65 in1004.1 mb 0.00 in0.0 mm 0.00 in0.0 mm 0.00 in0.0 mm
05:15 AM 45.7°F7.6°C 4.7°F-15.2°C 18% 0.4 mph NNW0.6 kmh NNW 1.1 mph1.8 kmh 29.65 in1004.1 mb 0.00 in0.0 mm 0.00 in0.0 mm 0.00 in0.0 mm
05:16 AM 45.7°F7.6°C 4.7°F-15.2°C 18% 0.4 mph NNW0.6 kmh NNW 1.1 mph1.8 kmh 29.65 in1004.1 mb 0.00 in0.0 mm 0.00 in0.0 mm 0.00 in0.0 mm
05:17 AM 45.5°F7.5°C 4.5°F-15.3°C 18% 1.3 mph NNW2.1 kmh NNW 2.2 mph3.5 kmh 29.65 in1004.1 mb 0.00 in0.0 mm 0.00 in0.0 mm 0.00 in0.0 mm
05:18 AM 45.5°F7.5°C 4.5°F-15.3°C 18% 1.1 mph NNW1.8 kmh NNW 2.2 mph3.5 kmh 29.64 in1003.7 mb 0.00 in0.0 mm 0.00 in0.0 mm 0.00 in0.0 mm
05:19 AM 45.5°F7.5°C 4.5°F-15.3°C 18% 2.2 mph WNW3.5 kmh WNW 3.4 mph5.5 kmh 29.65 in1004.1 mb 0.00 in0.0 mm 0.00 in0.0 mm 0.00 in0.0 mm
05:20 AM 45.5°F7.5°C 4.5°F-15.3°C 18% 3.6 mph NW5.8 kmh NW 4.5 mph7.2 kmh 29.64 in1003.7 mb 0.00 in0.0 mm 0.00 in0.0 mm 0.00 in0.0 mm
05:21 AM 45.7°F7.6°C 4.7°F-15.2°C 18% 1.1 mph NW1.8 kmh NW 1.1 mph1.8 kmh 29.65 in1004.1 mb 0.00 in0.0 mm 0.00 in0.0 mm 0.00 in0.0 mm
05:22 AM 45.7°F7.6°C 4.7°F-15.2°C 18% 1.8 mph NW2.9 kmh NW 2.2 mph3.5 kmh 29.65 in1004.1 mb 0.00 in0.0 mm 0.00 in0.0 mm 0.00 in0.0 mm
05:23 AM 45.7°F7.6°C 4.7°F-15.2°C 18% 3.8 mph SW6.1 kmh SW 5.8 mph9.3 kmh 29.64 in1003.7 mb 0.00 in0.0 mm 0.00 in0.0 mm 0.00 in0.0 mm
05:24 AM 45.3°F7.4°C 4.3°F-15.4°C 18% 2.0 mph NW3.2 kmh NW 4.5 mph7.2 kmh 29.64 in1003.7 mb 0.00 in0.0 mm 0.00 in0.0 mm 0.00 in0.0 mm
05:25 AM 45.3°F7.4°C 4.3°F-15.4°C 18% 0.9 mph NW1.4 kmh NW 1.1 mph1.8 kmh 29.65 in1004.1 mb 0.00 in0.0 mm 0.00 in0.0 mm 0.00 in0.0 mm
05:26 AM 45.1°F7.3°C 4.2°F-15.4°C 18% 1.8 mph NW2.9 kmh NW 3.4 mph5.5 kmh 29.65 in1004.1 mb 0.00 in0.0 mm 0.00 in0.0 mm 0.00 in0.0 mm
05:27 AM 45.1°F7.3°C 4.2°F-15.4°C 18% 2.2 mph NNW3.5 kmh NNW 3.4 mph5.5 kmh 29.64 in1003.7 mb 0.00 in0.0 mm 0.00 in0.0 mm 0.00 in0.0 mm
05:28 AM 45.3°F7.4°C 4.3°F-15.4°C 18% 2.9 mph NW4.7 kmh NW 3.4 mph5.5 kmh 29.65 in1004.1 mb 0.00 in0.0 mm 0.00 in0.0 mm 0.00 in0.0 mm
05:29 AM 45.3°F7.4°C 4.3°F-15.4°C 18% 2.9 mph NW4.7 kmh NW 4.5 mph7.2 kmh 29.65 in1004.1 mb 0.00 in0.0 mm 0.00 in0.0 mm 0.00 in0.0 mm
05:30 AM 45.3°F7.4°C 4.3°F-15.4°C 18% 2.2 mph NW3.5 kmh NW 2.2 mph3.5 kmh 29.64 in1003.7 mb 0.00 in0.0 mm 0.00 in0.0 mm 0.00 in0.0 mm
05:31 AM 45.3°F7.4°C 4.3°F-15.4°C 18% 0.9 mph NW1.4 kmh NW 1.1 mph1.8 kmh 29.64 in1003.7 mb 0.00 in0.0 mm 0.00 in0.0 mm 0.00 in0.0 mm
05:32 AM 45.3°F7.4°C 4.3°F-15.4°C 18% 2.2 mph NW3.5 kmh NW 2.2 mph3.5 kmh 29.65 in1004.1 mb 0.00 in0.0 mm 0.00 in0.0 mm 0.00 in0.0 mm
05:33 AM 45.3°F7.4°C 4.3°F-15.4°C 18% 0.9 mph NW1.4 kmh NW 1.1 mph1.8 kmh 29.64 in1003.7 mb 0.00 in0.0 mm 0.00 in0.0 mm 0.00 in0.0 mm
05:34 AM 45.3°F7.4°C 4.3°F-15.4°C 18% 2.5 mph WNW4.0 kmh WNW 3.4 mph5.5 kmh 29.65 in1004.1 mb 0.00 in0.0 mm 0.00 in0.0 mm 0.00 in0.0 mm
05:35 AM 45.3°F7.4°C 4.3°F-15.4°C 18% 1.8 mph W2.9 kmh W 2.2 mph3.5 kmh 29.65 in1004.1 mb 0.00 in0.0 mm 0.00 in0.0 mm 0.00 in0.0 mm
05:36 AM 45.3°F7.4°C 4.3°F-15.4°C 18% 1.3 mph W2.1 kmh W 2.2 mph3.5 kmh 29.65 in1004.1 mb 0.00 in0.0 mm 0.00 in0.0 mm 0.00 in0.0 mm
05:37 AM 45.3°F7.4°C 4.3°F-15.4°C 18% 0.7 mph W1.1 kmh W 2.2 mph3.5 kmh 29.65 in1004.1 mb 0.00 in0.0 mm 0.00 in0.0 mm 0.00 in0.0 mm
05:38 AM 45.1°F7.3°C 4.2°F-15.4°C 18% 1.1 mph W1.8 kmh W 1.1 mph1.8 kmh 29.65 in1004.1 mb 0.00 in0.0 mm 0.00 in0.0 mm 0.00 in0.0 mm
05:39 AM 45.1°F7.3°C 4.2°F-15.4°C 18% 0.2 mph W0.3 kmh W 1.1 mph1.8 kmh 29.65 in1004.1 mb 0.00 in0.0 mm 0.00 in0.0 mm 0.00 in0.0 mm
05:40 AM 45.1°F7.3°C 4.2°F-15.4°C 18% 0.9 mph W1.4 kmh W 1.1 mph1.8 kmh 29.65 in1004.1 mb 0.00 in0.0 mm 0.00 in0.0 mm 0.00 in0.0 mm
05:41 AM 45.1°F7.3°C 4.2°F-15.4°C 18% 0.4 mph W0.6 kmh W 1.1 mph1.8 kmh 29.65 in1004.1 mb 0.00 in0.0 mm 0.00 in0.0 mm 0.00 in0.0 mm
05:42 AM 45.1°F7.3°C 4.2°F-15.4°C 18% Calm Calm -- 29.64 in1003.7 mb 0.00 in0.0 mm 0.00 in0.0 mm 0.00 in0.0 mm
05:43 AM 45.1°F7.3°C 5.3°F-14.8°C 19% Calm Calm -- 29.65 in1004.1 mb 0.00 in0.0 mm 0.00 in0.0 mm 0.00 in0.0 mm
05:44 AM 45.0°F7.2°C 5.3°F-14.8°C 19% Calm Calm -- 29.64 in1003.7 mb 0.00 in0.0 mm 0.00 in0.0 mm 0.00 in0.0 mm
05:45 AM 44.8°F7.1°C 3.9°F-15.6°C 18% 0.9 mph W1.4 kmh W 1.1 mph1.8 kmh 29.65 in1004.1 mb 0.00 in0.0 mm 0.00 in0.0 mm 0.00 in0.0 mm
05:46 AM 44.8°F7.1°C 3.9°F-15.6°C 18% 0.7 mph W1.1 kmh W 1.1 mph1.8 kmh 29.65 in1004.1 mb 0.00 in0.0 mm 0.00 in0.0 mm 0.00 in0.0 mm
05:47 AM 44.8°F7.1°C 3.9°F-15.6°C 18% Calm Calm -- 29.65 in1004.1 mb 0.00 in0.0 mm 0.00 in0.0 mm 0.00 in0.0 mm
05:48 AM 45.0°F7.2°C 4.1°F-15.5°C 18% Calm Calm -- 29.65 in1004.1 mb 0.00 in0.0 mm 0.00 in0.0 mm 0.00 in0.0 mm
05:49 AM 45.0°F7.2°C 4.1°F-15.5°C 18% 0.2 mph W0.3 kmh W 1.1 mph1.8 kmh 29.65 in1004.1 mb 0.00 in0.0 mm 0.00 in0.0 mm 0.00 in0.0 mm
05:50 AM 45.0°F7.2°C 4.1°F-15.5°C 18% Calm Calm -- 29.65 in1004.1 mb 0.00 in0.0 mm 0.00 in0.0 mm 0.00 in0.0 mm
05:51 AM 45.0°F7.2°C 5.3°F-14.8°C 19% 0.2 mph W0.3 kmh W 1.1 mph1.8 kmh 29.65 in1004.1 mb 0.00 in0.0 mm 0.00 in0.0 mm 0.00 in0.0 mm
05:52 AM 45.0°F7.2°C 5.3°F-14.8°C 19% Calm Calm -- 29.65 in1004.1 mb 0.00 in0.0 mm 0.00 in0.0 mm 0.00 in0.0 mm
05:53 AM 45.0°F7.2°C 4.1°F-15.5°C 18% 0.2 mph W0.3 kmh W 1.1 mph1.8 kmh 29.65 in1004.1 mb 0.00 in0.0 mm 0.00 in0.0 mm 0.00 in0.0 mm
05:54 AM 44.8°F7.1°C 3.9°F-15.6°C 18% 1.1 mph W1.8 kmh W 1.1 mph1.8 kmh 29.64 in1003.7 mb 0.00 in0.0 mm 0.00 in0.0 mm 0.00 in0.0 mm
05:55 AM 44.8°F7.1°C 3.9°F-15.6°C 18% 0.9 mph W1.4 kmh W 1.1 mph1.8 kmh 29.65 in1004.1 mb 0.00 in0.0 mm 0.00 in0.0 mm 0.00 in0.0 mm
05:56 AM 45.0°F7.2°C 4.1°F-15.5°C 18% 1.6 mph W2.6 kmh W 2.2 mph3.5 kmh 29.64 in1003.7 mb 0.00 in0.0 mm 0.00 in0.0 mm 0.00 in0.0 mm
05:57 AM 45.0°F7.2°C 4.1°F-15.5°C 18% 0.9 mph W1.4 kmh W 1.1 mph1.8 kmh 29.64 in1003.7 mb 0.00 in0.0 mm 0.00 in0.0 mm 0.00 in0.0 mm
05:58 AM 45.3°F7.4°C 4.3°F-15.4°C 18% 0.2 mph W0.3 kmh W 1.1 mph1.8 kmh 29.65 in1004.1 mb 0.00 in0.0 mm 0.00 in0.0 mm 0.00 in0.0 mm
05:59 AM 45.3°F7.4°C 4.3°F-15.4°C 18% 0.9 mph W1.4 kmh W 1.1 mph1.8 kmh 29.65 in1004.1 mb 0.00 in0.0 mm 0.00 in0.0 mm 0.00 in0.0 mm
06:00 AM 45.3°F7.4°C 4.3°F-15.4°C 18% 1.3 mph W2.1 kmh W 2.2 mph3.5 kmh 29.65 in1004.1 mb 0.00 in0.0 mm 0.00 in0.0 mm 0.00 in0.0 mm
06:01 AM 45.3°F7.4°C 4.3°F-15.4°C 18% 1.6 mph W2.6 kmh W 2.2 mph3.5 kmh 29.65 in1004.1 mb 0.00 in0.0 mm 0.00 in0.0 mm 0.00 in0.0 mm
06:02 AM 45.5°F7.5°C 3.3°F-15.9°C 17% 2.2 mph WNW3.5 kmh WNW 2.2 mph3.5 kmh 29.65 in1004.1 mb 0.00 in0.0 mm 0.00 in0.0 mm 0.00 in0.0 mm
06:03 AM 45.5°F7.5°C 3.3°F-15.9°C 17% 2.2 mph NW3.5 kmh NW 2.2 mph3.5 kmh 29.65 in1004.1 mb 0.00 in0.0 mm 0.00 in0.0 mm 0.00 in0.0 mm
06:04 AM 45.7°F7.6°C 3.4°F-15.9°C 17% 1.3 mph NW2.1 kmh NW 2.2 mph3.5 kmh 29.65 in1004.1 mb 0.00 in0.0 mm 0.00 in0.0 mm 0.00 in0.0 mm
06:05 AM 45.7°F7.6°C 3.4°F-15.9°C 17% 2.5 mph NW4.0 kmh NW 3.4 mph5.5 kmh 29.65 in1004.1 mb 0.00 in0.0 mm 0.00 in0.0 mm 0.00 in0.0 mm
06:06 AM 45.7°F7.6°C 3.4°F-15.9°C 17% 2.0 mph WNW3.2 kmh WNW 2.2 mph3.5 kmh 29.65 in1004.1 mb 0.00 in0.0 mm 0.00 in0.0 mm 0.00 in0.0 mm
06:07 AM 45.9°F7.7°C 3.6°F-15.8°C 17% Calm Calm -- 29.65 in1004.1 mb 0.00 in0.0 mm 0.00 in0.0 mm 0.00 in0.0 mm
06:08 AM 45.9°F7.7°C 3.6°F-15.8°C 17% 1.1 mph NW1.8 kmh NW 1.1 mph1.8 kmh 29.65 in1004.1 mb 0.00 in0.0 mm 0.00 in0.0 mm 0.00 in0.0 mm
06:09 AM 45.7°F7.6°C 3.4°F-15.9°C 17% 0.2 mph NW0.3 kmh NW 1.1 mph1.8 kmh 29.65 in1004.1 mb 0.00 in0.0 mm 0.00 in0.0 mm 0.00 in0.0 mm
06:10 AM 45.5°F7.5°C 4.5°F-15.3°C 18% 0.2 mph NW0.3 kmh NW 1.1 mph1.8 kmh 29.65 in1004.1 mb 0.00 in0.0 mm 0.00 in0.0 mm 0.00 in0.0 mm
06:11 AM 45.5°F7.5°C 4.5°F-15.3°C 18% Calm Calm -- 29.66 in1004.4 mb 0.00 in0.0 mm 0.00 in0.0 mm 0.00 in0.0 mm
06:12 AM 45.1°F7.3°C 4.2°F-15.4°C 18% Calm Calm -- 29.65 in1004.1 mb 0.00 in0.0 mm 0.00 in0.0 mm 0.00 in0.0 mm
06:13 AM 45.1°F7.3°C 4.2°F-15.4°C 18% Calm Calm -- 29.65 in1004.1 mb 0.00 in0.0 mm 0.00 in0.0 mm 0.00 in0.0 mm
06:14 AM 44.8°F7.1°C 3.9°F-15.6°C 18% 0.2 mph NW0.3 kmh NW 1.1 mph1.8 kmh 29.66 in1004.4 mb 0.00 in0.0 mm 0.00 in0.0 mm 0.00 in0.0 mm
06:15 AM 44.8°F7.1°C 5.1°F-14.9°C 19% Calm Calm -- 29.65 in1004.1 mb 0.00 in0.0 mm 0.00 in0.0 mm 0.00 in0.0 mm
06:16 AM 44.6°F7.0°C 7.1°F-13.8°C 21% 0.2 mph NW0.3 kmh NW 1.1 mph1.8 kmh 29.65 in1004.1 mb 0.00 in0.0 mm 0.00 in0.0 mm 0.00 in0.0 mm
06:17 AM 44.2°F6.8°C 6.8°F-14.0°C 21% 0.2 mph NW0.3 kmh NW 1.1 mph1.8 kmh 29.65 in1004.1 mb 0.00 in0.0 mm 0.00 in0.0 mm 0.00 in0.0 mm
06:18 AM 44.2°F6.8°C 4.6°F-15.2°C 19% Calm Calm -- 29.66 in1004.4 mb 0.00 in0.0 mm 0.00 in0.0 mm 0.00 in0.0 mm
06:19 AM 44.1°F6.7°C 5.6°F-14.7°C 20% Calm Calm -- 29.65 in1004.1 mb 0.00 in0.0 mm 0.00 in0.0 mm 0.00 in0.0 mm
06:20 AM 44.1°F6.7°C 5.6°F-14.7°C 20% Calm Calm -- 29.65 in1004.1 mb 0.00 in0.0 mm 0.00 in0.0 mm 0.00 in0.0 mm
06:21 AM 43.9°F6.6°C 6.5°F-14.2°C 21% Calm Calm -- 29.65 in1004.1 mb 0.00 in0.0 mm 0.00 in0.0 mm 0.00 in0.0 mm
06:22 AM 43.9°F6.6°C 3.2°F-16.0°C 18% 1.3 mph NNW2.1 kmh NNW 2.2 mph3.5 kmh 29.65 in1004.1 mb 0.00 in0.0 mm 0.00 in0.0 mm 0.00 in0.0 mm
06:23 AM 44.1°F6.7°C 3.3°F-15.9°C 18% 1.3 mph NNW2.1 kmh NNW 2.2 mph3.5 kmh 29.65 in1004.1 mb 0.00 in0.0 mm 0.00 in0.0 mm 0.00 in0.0 mm
06:24 AM 44.4°F6.9°C 3.6°F-15.8°C 18% Calm Calm -- 29.65 in1004.1 mb 0.00 in0.0 mm 0.00 in0.0 mm 0.00 in0.0 mm
06:25 AM 44.4°F6.9°C 3.6°F-15.8°C 18% 2.0 mph NNW3.2 kmh NNW 2.2 mph3.5 kmh 29.66 in1004.4 mb 0.00 in0.0 mm 0.00 in0.0 mm 0.00 in0.0 mm
06:26 AM 44.6°F7.0°C 2.5°F-16.4°C 17% 1.3 mph NNW2.1 kmh NNW 2.2 mph3.5 kmh 29.66 in1004.4 mb 0.00 in0.0 mm 0.00 in0.0 mm 0.00 in0.0 mm
06:27 AM 45.0°F7.2°C 2.8°F-16.2°C 17% 1.1 mph NNW1.8 kmh NNW 2.2 mph3.5 kmh 29.65 in1004.1 mb 0.00 in0.0 mm 0.00 in0.0 mm 0.00 in0.0 mm
06:28 AM 45.3°F7.4°C 3.1°F-16.1°C 17% 2.5 mph NNW4.0 kmh NNW 3.4 mph5.5 kmh 29.65 in1004.1 mb 0.00 in0.0 mm 0.00 in0.0 mm 0.00 in0.0 mm
06:29 AM 45.3°F7.4°C 3.1°F-16.1°C 17% 3.1 mph NNW5.0 kmh NNW 3.4 mph5.5 kmh 29.65 in1004.1 mb 0.00 in0.0 mm 0.00 in0.0 mm 0.00 in0.0 mm
06:30 AM 45.3°F7.4°C 3.1°F-16.1°C 17% 1.6 mph NNW2.6 kmh NNW 2.2 mph3.5 kmh 29.65 in1004.1 mb 0.00 in0.0 mm 0.00 in0.0 mm 0.00 in0.0 mm
06:31 AM 45.5°F7.5°C 3.3°F-15.9°C 17% 1.3 mph NNW2.1 kmh NNW 2.2 mph3.5 kmh 29.66 in1004.4 mb 0.00 in0.0 mm 0.00 in0.0 mm 0.00 in0.0 mm
06:32 AM 45.5°F7.5°C 3.3°F-15.9°C 17% Calm Calm -- 29.65 in1004.1 mb 0.00 in0.0 mm 0.00 in0.0 mm 0.00 in0.0 mm
06:33 AM 45.3°F7.4°C 3.1°F-16.1°C 17% Calm Calm -- 29.66 in1004.4 mb 0.00 in0.0 mm 0.00 in0.0 mm 0.00 in0.0 mm
06:34 AM 45.3°F7.4°C 3.1°F-16.1°C 17% 0.4 mph N0.6 kmh N 1.1 mph1.8 kmh 29.65 in1004.1 mb 0.00 in0.0 mm 0.00 in0.0 mm 0.00 in0.0 mm
06:35 AM 45.3°F7.4°C 3.1°F-16.1°C 17% Calm Calm -- 29.66 in1004.4 mb 0.00 in0.0 mm 0.00 in0.0 mm 0.00 in0.0 mm
06:36 AM 45.1°F7.3°C 4.2°F-15.4°C 18% 0.2 mph N0.3 kmh N 1.1 mph1.8 kmh 29.65 in1004.1 mb 0.00 in0.0 mm 0.00 in0.0 mm 0.00 in0.0 mm
06:37 AM 45.1°F7.3°C 2.9°F-16.2°C 17% Calm Calm -- 29.65 in1004.1 mb 0.00 in0.0 mm 0.00 in0.0 mm 0.00 in0.0 mm
06:38 AM 45.0°F7.2°C 4.1°F-15.5°C 18% Calm Calm -- 29.65 in1004.1 mb 0.00 in0.0 mm 0.00 in0.0 mm 0.00 in0.0 mm
06:39 AM 45.0°F7.2°C 4.1°F-15.5°C 18% 0.2 mph N0.3 kmh N 1.1 mph1.8 kmh 29.65 in1004.1 mb 0.00 in0.0 mm 0.00 in0.0 mm 0.00 in0.0 mm
06:40 AM 44.8°F7.1°C 3.9°F-15.6°C 18% 1.1 mph N1.8 kmh N 1.1 mph1.8 kmh 29.65 in1004.1 mb 0.00 in0.0 mm 0.00 in0.0 mm 0.00 in0.0 mm
06:41 AM 44.8°F7.1°C 3.9°F-15.6°C 18% 0.7 mph N1.1 kmh N 1.1 mph1.8 kmh 29.65 in1004.1 mb 0.00 in0.0 mm 0.00 in0.0 mm 0.00 in0.0 mm
06:42 AM 44.8°F7.1°C 2.7°F-16.3°C 17% Calm Calm -- 29.65 in1004.1 mb 0.00 in0.0 mm 0.00 in0.0 mm 0.00 in0.0 mm
06:43 AM 44.8°F7.1°C 2.7°F-16.3°C 17% 1.3 mph N2.1 kmh N 2.2 mph3.5 kmh 29.65 in1004.1 mb 0.00 in0.0 mm 0.00 in0.0 mm 0.00 in0.0 mm
06:44 AM 44.8°F7.1°C 2.7°F-16.3°C 17% 1.3 mph N2.1 kmh N 2.2 mph3.5 kmh 29.65 in1004.1 mb 0.00 in0.0 mm 0.00 in0.0 mm 0.00 in0.0 mm
06:45 AM 45.0°F7.2°C 2.8°F-16.2°C 17% 1.3 mph N2.1 kmh N 2.2 mph3.5 kmh 29.65 in1004.1 mb 0.00 in0.0 mm 0.00 in0.0 mm 0.00 in0.0 mm
06:46 AM 45.1°F7.3°C 2.9°F-16.2°C 17% 0.2 mph N0.3 kmh N 1.1 mph1.8 kmh 29.65 in1004.1 mb 0.00 in0.0 mm 0.00 in0.0 mm 0.00 in0.0 mm
06:47 AM 45.1°F7.3°C 2.9°F-16.2°C 17% Calm Calm -- 29.66 in1004.4 mb 0.00 in0.0 mm 0.00 in0.0 mm 0.00 in0.0 mm
06:48 AM 45.1°F7.3°C 2.9°F-16.2°C 17% 0.2 mph N0.3 kmh N 1.1 mph1.8 kmh 29.65 in1004.1 mb 0.00 in0.0 mm 0.00 in0.0 mm 0.00 in0.0 mm
06:49 AM 45.0°F7.2°C 2.8°F-16.2°C 17% 0.4 mph N0.6 kmh N 1.1 mph1.8 kmh 29.65 in1004.1 mb 0.00 in0.0 mm 0.00 in0.0 mm 0.00 in0.0 mm
06:50 AM 45.0°F7.2°C 2.8°F-16.2°C 17% 0.2 mph N0.3 kmh N 1.1 mph1.8 kmh 29.65 in1004.1 mb 0.00 in0.0 mm 0.00 in0.0 mm 0.00 in0.0 mm
06:51 AM 45.0°F7.2°C 2.8°F-16.2°C 17% 1.1 mph N1.8 kmh N 2.2 mph3.5 kmh 29.65 in1004.1 mb 0.00 in0.0 mm 0.00 in0.0 mm 0.00 in0.0 mm
06:52 AM 45.0°F7.2°C 4.1°F-15.5°C 18% 0.7 mph N1.1 kmh N 2.2 mph3.5 kmh 29.65 in1004.1 mb 0.00 in0.0 mm 0.00 in0.0 mm 0.00 in0.0 mm
06:53 AM 45.0°F7.2°C 2.8°F-16.2°C 17% 1.8 mph N2.9 kmh N 2.2 mph3.5 kmh 29.66 in1004.4 mb 0.00 in0.0 mm 0.00 in0.0 mm 0.00 in0.0 mm
06:54 AM 45.0°F7.2°C 2.8°F-16.2°C 17% 1.8 mph N2.9 kmh N 2.2 mph3.5 kmh 29.66 in1004.4 mb 0.00 in0.0 mm 0.00 in0.0 mm 0.00 in0.0 mm
06:55 AM 45.0°F7.2°C 2.8°F-16.2°C 17% Calm Calm -- 29.66 in1004.4 mb 0.00 in0.0 mm 0.00 in0.0 mm 0.00 in0.0 mm
06:56 AM 45.0°F7.2°C 2.8°F-16.2°C 17% 0.4 mph N0.6 kmh N 1.1 mph1.8 kmh 29.65 in1004.1 mb 0.00 in0.0 mm 0.00 in0.0 mm 0.00 in0.0 mm
06:57 AM 45.0°F7.2°C 2.8°F-16.2°C 17% 1.1 mph N1.8 kmh N 2.2 mph3.5 kmh 29.66 in1004.4 mb 0.00 in0.0 mm 0.00 in0.0 mm 0.00 in0.0 mm
06:58 AM 45.1°F7.3°C 2.9°F-16.2°C 17% Calm Calm -- 29.66 in1004.4 mb 0.00 in0.0 mm 0.00 in0.0 mm 0.00 in0.0 mm
06:59 AM 45.1°F7.3°C 2.9°F-16.2°C 17% 2.2 mph N3.5 kmh N 3.4 mph5.5 kmh 29.66 in1004.4 mb 0.00 in0.0 mm 0.00 in0.0 mm 0.00 in0.0 mm
07:00 AM 45.1°F7.3°C 2.9°F-16.2°C 17% 0.9 mph N1.4 kmh N 1.1 mph1.8 kmh 29.66 in1004.4 mb 0.00 in0.0 mm 0.00 in0.0 mm 0.00 in0.0 mm
07:01 AM 45.3°F7.4°C 3.1°F-16.1°C 17% 1.8 mph N2.9 kmh N 2.2 mph3.5 kmh 29.66 in1004.4 mb 0.00 in0.0 mm 0.00 in0.0 mm 0.00 in0.0 mm
07:02 AM 45.3°F7.4°C 3.1°F-16.1°C 17% 0.7 mph N1.1 kmh N 1.1 mph1.8 kmh 29.66 in1004.4 mb 0.00 in0.0 mm 0.00 in0.0 mm 0.00 in0.0 mm
07:03 AM 45.5°F7.5°C 3.3°F-15.9°C 17% 2.5 mph N4.0 kmh N 3.4 mph5.5 kmh 29.66 in1004.4 mb 0.00 in0.0 mm 0.00 in0.0 mm 0.00 in0.0 mm
07:04 AM 45.5°F7.5°C 3.3°F-15.9°C 17% 0.9 mph N1.4 kmh N 1.1 mph1.8 kmh 29.66 in1004.4 mb 0.00 in0.0 mm 0.00 in0.0 mm 0.00 in0.0 mm
07:05 AM 45.5°F7.5°C 3.3°F-15.9°C 17% 0.2 mph N0.3 kmh N 1.1 mph1.8 kmh 29.66 in1004.4 mb 0.00 in0.0 mm 0.00 in0.0 mm 0.00 in0.0 mm
07:06 AM 45.3°F7.4°C 3.1°F-16.1°C 17% 2.9 mph NNW4.7 kmh NNW 4.5 mph7.2 kmh 29.66 in1004.4 mb 0.00 in0.0 mm 0.00 in0.0 mm 0.00 in0.0 mm
07:07 AM 45.3°F7.4°C 3.1°F-16.1°C 17% 2.2 mph N3.5 kmh N 3.4 mph5.5 kmh 29.66 in1004.4 mb 0.00 in0.0 mm 0.00 in0.0 mm 0.00 in0.0 mm
07:08 AM 45.5°F7.5°C 4.5°F-15.3°C 18% 1.3 mph N2.1 kmh N 2.2 mph3.5 kmh 29.66 in1004.4 mb 0.00 in0.0 mm 0.00 in0.0 mm 0.00 in0.0 mm
07:09 AM 45.5°F7.5°C 3.3°F-15.9°C 17% 2.0 mph N3.2 kmh N 2.2 mph3.5 kmh 29.66 in1004.4 mb 0.00 in0.0 mm 0.00 in0.0 mm 0.00 in0.0 mm
07:10 AM 45.3°F7.4°C 3.1°F-16.1°C 17% 0.9 mph N1.4 kmh N 1.1 mph1.8 kmh 29.66 in1004.4 mb 0.00 in0.0 mm 0.00 in0.0 mm 0.00 in0.0 mm
07:11 AM 45.3°F7.4°C 3.1°F-16.1°C 17% Calm Calm -- 29.67 in1004.7 mb 0.00 in0.0 mm 0.00 in0.0 mm 0.00 in0.0 mm
07:12 AM 45.1°F7.3°C 4.2°F-15.4°C 18% 0.9 mph N1.4 kmh N 1.1 mph1.8 kmh 29.66 in1004.4 mb 0.00 in0.0 mm 0.00 in0.0 mm 0.00 in0.0 mm
07:13 AM 45.1°F7.3°C 2.9°F-16.2°C 17% 2.5 mph N4.0 kmh N 3.4 mph5.5 kmh 29.66 in1004.4 mb 0.00 in0.0 mm 0.00 in0.0 mm 0.00 in0.0 mm
07:14 AM 45.1°F7.3°C 2.9°F-16.2°C 17% 0.9 mph N1.4 kmh N 1.1 mph1.8 kmh 29.66 in1004.4 mb 0.00 in0.0 mm 0.00 in0.0 mm 0.00 in0.0 mm
07:15 AM 45.3°F7.4°C 3.1°F-16.1°C 17% 0.7 mph N1.1 kmh N 1.1 mph1.8 kmh 29.66 in1004.4 mb 0.00 in0.0 mm 0.00 in0.0 mm 0.00 in0.0 mm
07:16 AM 45.3°F7.4°C 3.1°F-16.1°C 17% 0.2 mph N0.3 kmh N 1.1 mph1.8 kmh 29.67 in1004.7 mb 0.00 in0.0 mm 0.00 in0.0 mm 0.00 in0.0 mm
07:17 AM 45.3°F7.4°C 3.1°F-16.1°C 17% 0.4 mph N0.6 kmh N 1.1 mph1.8 kmh 29.66 in1004.4 mb 0.00 in0.0 mm 0.00 in0.0 mm 0.00 in0.0 mm
07:18 AM 45.3°F7.4°C 3.1°F-16.1°C 17% Calm Calm -- 29.66 in1004.4 mb 0.00 in0.0 mm 0.00 in0.0 mm 0.00 in0.0 mm
07:19 AM 45.3°F7.4°C 3.1°F-16.1°C 17% Calm Calm -- 29.66 in1004.4 mb 0.00 in0.0 mm 0.00 in0.0 mm 0.00 in0.0 mm
07:20 AM 45.1°F7.3°C 2.9°F-16.2°C 17% Calm Calm -- 29.67 in1004.7 mb 0.00 in0.0 mm 0.00 in0.0 mm 0.00 in0.0 mm
07:21 AM 45.1°F7.3°C 4.2°F-15.4°C 18% Calm Calm -- 29.66 in1004.4 mb 0.00 in0.0 mm 0.00 in0.0 mm 0.00 in0.0 mm
07:22 AM 45.0°F7.2°C 4.1°F-15.5°C 18% Calm Calm -- 29.67 in1004.7 mb 0.00 in0.0 mm 0.00 in0.0 mm 0.00 in0.0 mm
07:23 AM 45.0°F7.2°C 4.1°F-15.5°C 18% 0.9 mph NNW1.4 kmh NNW 2.2 mph3.5 kmh 29.66 in1004.4 mb 0.00 in0.0 mm 0.00 in0.0 mm 0.00 in0.0 mm
07:24 AM 44.8°F7.1°C 2.7°F-16.3°C 17% 1.6 mph NNW2.6 kmh NNW 2.2 mph3.5 kmh 29.66 in1004.4 mb 0.00 in0.0 mm 0.00 in0.0 mm 0.00 in0.0 mm
07:25 AM 45.0°F7.2°C 4.1°F-15.5°C 18% 0.7 mph NNW1.1 kmh NNW 1.1 mph1.8 kmh 29.66 in1004.4 mb 0.00 in0.0 mm 0.00 in0.0 mm 0.00 in0.0 mm
07:26 AM 45.3°F7.4°C 4.3°F-15.4°C 18% 1.1 mph N1.8 kmh N 1.1 mph1.8 kmh 29.66 in1004.4 mb 0.00 in0.0 mm 0.00 in0.0 mm 0.00 in0.0 mm
07:27 AM 45.3°F7.4°C 4.3°F-15.4°C 18% Calm Calm -- 29.66 in1004.4 mb 0.00 in0.0 mm 0.00 in0.0 mm 0.00 in0.0 mm
07:28 AM 45.5°F7.5°C 3.3°F-15.9°C 17% Calm Calm -- 29.66 in1004.4 mb 0.00 in0.0 mm 0.00 in0.0 mm 0.00 in0.0 mm
07:29 AM 45.5°F7.5°C 3.3°F-15.9°C 17% 1.6 mph N2.6 kmh N 2.2 mph3.5 kmh 29.66 in1004.4 mb 0.00 in0.0 mm 0.00 in0.0 mm 0.00 in0.0 mm
07:30 AM 45.5°F7.5°C 3.3°F-15.9°C 17% 0.9 mph N1.4 kmh N 1.1 mph1.8 kmh 29.67 in1004.7 mb 0.00 in0.0 mm 0.00 in0.0 mm 0.00 in0.0 mm
07:31 AM 45.7°F7.6°C 3.4°F-15.9°C 17% Calm Calm -- 29.66 in1004.4 mb 0.00 in0.0 mm 0.00 in0.0 mm 0.00 in0.0 mm
07:32 AM 45.7°F7.6°C 3.4°F-15.9°C 17% 0.2 mph N0.3 kmh N 1.1 mph1.8 kmh 29.65 in1004.1 mb 0.00 in0.0 mm 0.00 in0.0 mm 0.00 in0.0 mm
07:33 AM 45.7°F7.6°C 3.4°F-15.9°C 17% 0.2 mph N0.3 kmh N 1.1 mph1.8 kmh 29.67 in1004.7 mb 0.00 in0.0 mm 0.00 in0.0 mm 0.00 in0.0 mm
07:34 AM 45.7°F7.6°C 3.4°F-15.9°C 17% 1.3 mph N2.1 kmh N 2.2 mph3.5 kmh 29.66 in1004.4 mb 0.00 in0.0 mm 0.00 in0.0 mm 0.00 in0.0 mm
07:35 AM 46.0°F7.8°C 3.7°F-15.7°C 17% Calm Calm -- 29.66 in1004.4 mb 0.00 in0.0 mm 0.00 in0.0 mm 0.00 in0.0 mm
07:36 AM 46.2°F7.9°C 3.8°F-15.7°C 17% Calm Calm -- 29.66 in1004.4 mb 0.00 in0.0 mm 0.00 in0.0 mm 0.00 in0.0 mm
07:37 AM 46.2°F7.9°C 3.8°F-15.7°C 17% Calm Calm -- 29.66 in1004.4 mb 0.00 in0.0 mm 0.00 in0.0 mm 0.00 in0.0 mm
07:38 AM 46.2°F7.9°C 3.8°F-15.7°C 17% Calm Calm -- 29.66 in1004.4 mb 0.00 in0.0 mm 0.00 in0.0 mm 0.00 in0.0 mm
07:39 AM 46.0°F7.8°C 6.1°F-14.4°C 19% Calm Calm -- 29.66 in1004.4 mb 0.00 in0.0 mm 0.00 in0.0 mm 0.00 in0.0 mm
07:40 AM 46.0°F7.8°C 6.1°F-14.4°C 19% Calm Calm -- 29.67 in1004.7 mb 0.00 in0.0 mm 0.00 in0.0 mm 0.00 in0.0 mm
07:41 AM 45.9°F7.7°C 6.0°F-14.4°C 19% Calm Calm -- 29.66 in1004.4 mb 0.00 in0.0 mm 0.00 in0.0 mm 0.00 in0.0 mm
07:42 AM 45.9°F7.7°C 4.8°F-15.1°C 18% Calm Calm -- 29.67 in1004.7 mb 0.00 in0.0 mm 0.00 in0.0 mm 0.00 in0.0 mm
07:43 AM 45.9°F7.7°C 6.0°F-14.4°C 19% Calm Calm -- 29.66 in1004.4 mb 0.00 in0.0 mm 0.00 in0.0 mm 0.00 in0.0 mm
07:44 AM 45.9°F7.7°C 3.6°F-15.8°C 17% 0.2 mph N0.3 kmh N 1.1 mph1.8 kmh 29.66 in1004.4 mb 0.00 in0.0 mm 0.00 in0.0 mm 0.00 in0.0 mm
07:45 AM 45.9°F7.7°C 2.3°F-16.5°C 16% 0.7 mph N1.1 kmh N 1.1 mph1.8 kmh 29.66 in1004.4 mb 0.00 in0.0 mm 0.00 in0.0 mm 0.00 in0.0 mm
07:46 AM 46.0°F7.8°C 3.7°F-15.7°C 17% Calm Calm -- 29.66 in1004.4 mb 0.00 in0.0 mm 0.00 in0.0 mm 0.00 in0.0 mm
07:47 AM 46.4°F8.0°C 4.0°F-15.6°C 17% Calm Calm -- 29.65 in1004.1 mb 0.00 in0.0 mm 0.00 in0.0 mm 0.00 in0.0 mm
07:48 AM 46.4°F8.0°C 2.7°F-16.3°C 16% 0.9 mph N1.4 kmh N 1.1 mph1.8 kmh 29.66 in1004.4 mb 0.00 in0.0 mm 0.00 in0.0 mm 0.00 in0.0 mm
07:49 AM 46.4°F8.0°C 2.7°F-16.3°C 16% 1.1 mph N1.8 kmh N 2.2 mph3.5 kmh 29.66 in1004.4 mb 0.00 in0.0 mm 0.00 in0.0 mm 0.00 in0.0 mm
07:50 AM 46.9°F8.3°C 3.1°F-16.1°C 16% 1.8 mph NW2.9 kmh NW 2.2 mph3.5 kmh 29.66 in1004.4 mb 0.00 in0.0 mm 0.00 in0.0 mm 0.00 in0.0 mm
07:51 AM 47.5°F8.6°C 3.6°F-15.8°C 16% 0.7 mph NW1.1 kmh NW 1.1 mph1.8 kmh 29.66 in1004.4 mb 0.00 in0.0 mm 0.00 in0.0 mm 0.00 in0.0 mm
07:52 AM 47.7°F8.7°C 3.7°F-15.7°C 16% 0.7 mph NW1.1 kmh NW 1.1 mph1.8 kmh 29.66 in1004.4 mb 0.00 in0.0 mm 0.00 in0.0 mm 0.00 in0.0 mm
07:53 AM 47.7°F8.7°C 3.7°F-15.7°C 16% Calm Calm -- 29.66 in1004.4 mb 0.00 in0.0 mm 0.00 in0.0 mm 0.00 in0.0 mm
07:54 AM 47.8°F8.8°C 3.8°F-15.7°C 16% 0.7 mph NW1.1 kmh NW 1.1 mph1.8 kmh 29.66 in1004.4 mb 0.00 in0.0 mm 0.00 in0.0 mm 0.00 in0.0 mm
07:55 AM 47.8°F8.8°C 3.8°F-15.7°C 16% 3.4 mph W5.5 kmh W 4.5 mph7.2 kmh 29.65 in1004.1 mb 0.00 in0.0 mm 0.00 in0.0 mm 0.00 in0.0 mm
07:56 AM 48.0°F8.9°C 2.6°F-16.3°C 15% 2.0 mph WSW3.2 kmh WSW 3.4 mph5.5 kmh 29.66 in1004.4 mb 0.00 in0.0 mm 0.00 in0.0 mm 0.00 in0.0 mm
07:57 AM 48.4°F9.1°C 2.9°F-16.2°C 15% 3.4 mph WSW5.5 kmh WSW 4.5 mph7.2 kmh 29.66 in1004.4 mb 0.00 in0.0 mm 0.00 in0.0 mm 0.00 in0.0 mm
07:58 AM 48.6°F9.2°C 3.1°F-16.1°C 15% 0.9 mph SSE1.4 kmh SSE 2.2 mph3.5 kmh 29.66 in1004.4 mb 0.00 in0.0 mm 0.00 in0.0 mm 0.00 in0.0 mm
07:59 AM 48.9°F9.4°C 3.3°F-15.9°C 15% 2.0 mph W3.2 kmh W 2.2 mph3.5 kmh 29.66 in1004.4 mb 0.00 in0.0 mm 0.00 in0.0 mm 0.00 in0.0 mm
08:00 AM 48.9°F9.4°C 3.3°F-15.9°C 15% 1.8 mph W2.9 kmh W 3.4 mph5.5 kmh 29.66 in1004.4 mb 0.00 in0.0 mm 0.00 in0.0 mm 0.00 in0.0 mm
08:01 AM 48.9°F9.4°C 3.3°F-15.9°C 15% 1.6 mph SW2.6 kmh SW 2.2 mph3.5 kmh 29.66 in1004.4 mb 0.00 in0.0 mm 0.00 in0.0 mm 0.00 in0.0 mm
08:02 AM 48.9°F9.4°C 3.3°F-15.9°C 15% 0.7 mph SSW1.1 kmh SSW 2.2 mph3.5 kmh 29.66 in1004.4 mb 0.00 in0.0 mm 0.00 in0.0 mm 0.00 in0.0 mm
08:03 AM 48.9°F9.4°C 3.3°F-15.9°C 15% 3.4 mph W5.5 kmh W 5.8 mph9.3 kmh 29.66 in1004.4 mb 0.00 in0.0 mm 0.00 in0.0 mm 0.00 in0.0 mm
08:04 AM 48.9°F9.4°C 3.3°F-15.9°C 15% 2.2 mph W3.5 kmh W 4.5 mph7.2 kmh 29.66 in1004.4 mb 0.00 in0.0 mm 0.00 in0.0 mm 0.00 in0.0 mm
08:05 AM 48.9°F9.4°C 3.3°F-15.9°C 15% 2.7 mph W4.3 kmh W 3.4 mph5.5 kmh 29.66 in1004.4 mb 0.00 in0.0 mm 0.00 in0.0 mm 0.00 in0.0 mm
08:06 AM 48.9°F9.4°C 4.7°F-15.2°C 16% 1.6 mph WNW2.6 kmh WNW 2.2 mph3.5 kmh 29.67 in1004.7 mb 0.00 in0.0 mm 0.00 in0.0 mm 0.00 in0.0 mm
08:07 AM 49.1°F9.5°C 3.5°F-15.8°C 15% 0.2 mph W0.3 kmh W 1.1 mph1.8 kmh 29.66 in1004.4 mb 0.00 in0.0 mm 0.00 in0.0 mm 0.00 in0.0 mm
08:08 AM 49.1°F9.5°C 3.5°F-15.8°C 15% 0.7 mph W1.1 kmh W 1.1 mph1.8 kmh 29.66 in1004.4 mb 0.00 in0.0 mm 0.00 in0.0 mm 0.00 in0.0 mm
08:09 AM 49.1°F9.5°C 3.5°F-15.8°C 15% 0.9 mph W1.4 kmh W 1.1 mph1.8 kmh 29.67 in1004.7 mb 0.00 in0.0 mm 0.00 in0.0 mm 0.00 in0.0 mm
08:10 AM 49.3°F9.6°C 3.6°F-15.8°C 15% 0.9 mph W1.4 kmh W 1.1 mph1.8 kmh 29.66 in1004.4 mb 0.00 in0.0 mm 0.00 in0.0 mm 0.00 in0.0 mm
08:11 AM 49.3°F9.6°C 5.0°F-15.0°C 16% 0.2 mph W0.3 kmh W 1.1 mph1.8 kmh 29.66 in1004.4 mb 0.00 in0.0 mm 0.00 in0.0 mm 0.00 in0.0 mm
08:12 AM 49.5°F9.7°C 3.8°F-15.7°C 15% 0.7 mph W1.1 kmh W 1.1 mph1.8 kmh 29.67 in1004.7 mb 0.00 in0.0 mm 0.00 in0.0 mm 0.00 in0.0 mm
08:13 AM 49.5°F9.7°C 3.8°F-15.7°C 15% 1.8 mph WSW2.9 kmh WSW 3.4 mph5.5 kmh 29.66 in1004.4 mb 0.00 in0.0 mm 0.00 in0.0 mm 0.00 in0.0 mm
08:14 AM 49.5°F9.7°C 3.8°F-15.7°C 15% 2.2 mph WSW3.5 kmh WSW 3.4 mph5.5 kmh 29.66 in1004.4 mb 0.00 in0.0 mm 0.00 in0.0 mm 0.00 in0.0 mm
08:15 AM 49.6°F9.8°C 3.9°F-15.6°C 15% Calm Calm -- 29.66 in1004.4 mb 0.00 in0.0 mm 0.00 in0.0 mm 0.00 in0.0 mm
08:16 AM 49.6°F9.8°C 3.9°F-15.6°C 15% 1.3 mph WSW2.1 kmh WSW 2.2 mph3.5 kmh 29.67 in1004.7 mb 0.00 in0.0 mm 0.00 in0.0 mm 0.00 in0.0 mm
08:17 AM 49.8°F9.9°C 4.0°F-15.6°C 15% Calm Calm -- 29.67 in1004.7 mb 0.00 in0.0 mm 0.00 in0.0 mm 0.00 in0.0 mm
08:18 AM 49.8°F9.9°C 5.4°F-14.8°C 16% Calm Calm -- 29.66 in1004.4 mb 0.00 in0.0 mm 0.00 in0.0 mm 0.00 in0.0 mm
08:19 AM 49.8°F9.9°C 4.0°F-15.6°C 15% Calm Calm -- 29.67 in1004.7 mb 0.00 in0.0 mm 0.00 in0.0 mm 0.00 in0.0 mm
08:20 AM 49.8°F9.9°C 4.0°F-15.6°C 15% 2.2 mph WSW3.5 kmh WSW 2.2 mph3.5 kmh 29.67 in1004.7 mb 0.00 in0.0 mm 0.00 in0.0 mm 0.00 in0.0 mm
08:21 AM 49.8°F9.9°C 4.0°F-15.6°C 15% 2.2 mph W3.5 kmh W 2.2 mph3.5 kmh 29.67 in1004.7 mb 0.00 in0.0 mm 0.00 in0.0 mm 0.00 in0.0 mm
08:22 AM 50.0°F10.0°C 4.2°F-15.4°C 15% 2.0 mph W3.2 kmh W 2.2 mph3.5 kmh 29.67 in1004.7 mb 0.00 in0.0 mm 0.00 in0.0 mm 0.00 in0.0 mm
08:23 AM 50.4°F10.2°C 4.5°F-15.3°C 15% 1.6 mph W2.6 kmh W 2.2 mph3.5 kmh 29.66 in1004.4 mb 0.00 in0.0 mm 0.00 in0.0 mm 0.00 in0.0 mm
08:24 AM 50.5°F10.3°C 3.1°F-16.1°C 14% 2.2 mph NW3.5 kmh NW 2.2 mph3.5 kmh 29.67 in1004.7 mb 0.00 in0.0 mm 0.00 in0.0 mm 0.00 in0.0 mm
08:25 AM 50.5°F10.3°C 4.6°F-15.2°C 15% Calm Calm -- 29.66 in1004.4 mb 0.00 in0.0 mm 0.00 in0.0 mm 0.00 in0.0 mm
08:26 AM 50.7°F10.4°C 4.8°F-15.1°C 15% Calm Calm -- 29.66 in1004.4 mb 0.00 in0.0 mm 0.00 in0.0 mm 0.00 in0.0 mm
08:27 AM 50.5°F10.3°C 4.6°F-15.2°C 15% 1.8 mph NW2.9 kmh NW 2.2 mph3.5 kmh 29.66 in1004.4 mb 0.00 in0.0 mm 0.00 in0.0 mm 0.00 in0.0 mm
08:28 AM 50.5°F10.3°C 3.1°F-16.1°C 14% 1.3 mph ENE2.1 kmh ENE 2.2 mph3.5 kmh 29.67 in1004.7 mb 0.00 in0.0 mm 0.00 in0.0 mm 0.00 in0.0 mm
08:29 AM 50.7°F10.4°C 3.3°F-15.9°C 14% 2.5 mph WSW4.0 kmh WSW 4.5 mph7.2 kmh 29.67 in1004.7 mb 0.00 in0.0 mm 0.00 in0.0 mm 0.00 in0.0 mm
08:30 AM 50.9°F10.5°C 3.4°F-15.9°C 14% 2.5 mph W4.0 kmh W 3.4 mph5.5 kmh 29.67 in1004.7 mb 0.00 in0.0 mm 0.00 in0.0 mm 0.00 in0.0 mm
08:31 AM 51.1°F10.6°C 5.1°F-14.9°C 15% Calm Calm -- 29.66 in1004.4 mb 0.00 in0.0 mm 0.00 in0.0 mm 0.00 in0.0 mm
08:32 AM 51.1°F10.6°C 3.6°F-15.8°C 14% Calm Calm -- 29.66 in1004.4 mb 0.00 in0.0 mm 0.00 in0.0 mm 0.00 in0.0 mm
08:33 AM 51.1°F10.6°C 3.6°F-15.8°C 14% 1.6 mph W2.6 kmh W 2.2 mph3.5 kmh 29.66 in1004.4 mb 0.00 in0.0 mm 0.00 in0.0 mm 0.00 in0.0 mm
08:34 AM 51.1°F10.6°C 3.6°F-15.8°C 14% 2.0 mph WSW3.2 kmh WSW 4.5 mph7.2 kmh 29.67 in1004.7 mb 0.00 in0.0 mm 0.00 in0.0 mm 0.00 in0.0 mm
08:35 AM 51.1°F10.6°C 3.6°F-15.8°C 14% 1.8 mph WSW2.9 kmh WSW 2.2 mph3.5 kmh 29.66 in1004.4 mb 0.00 in0.0 mm 0.00 in0.0 mm 0.00 in0.0 mm
08:36 AM 51.1°F10.6°C 5.1°F-14.9°C 15% 2.2 mph WSW3.5 kmh WSW 2.2 mph3.5 kmh 29.65 in1004.1 mb 0.00 in0.0 mm 0.00 in0.0 mm 0.00 in0.0 mm
08:37 AM 51.3°F10.7°C 3.8°F-15.7°C 14% 2.2 mph W3.5 kmh W 3.4 mph5.5 kmh 29.66 in1004.4 mb 0.00 in0.0 mm 0.00 in0.0 mm 0.00 in0.0 mm
08:38 AM 51.3°F10.7°C 5.3°F-14.8°C 15% 3.8 mph NW6.1 kmh NW 4.5 mph7.2 kmh 29.66 in1004.4 mb 0.00 in0.0 mm 0.00 in0.0 mm 0.00 in0.0 mm
08:39 AM 51.4°F10.8°C 3.8°F-15.7°C 14% 4.7 mph W7.6 kmh W 5.8 mph9.3 kmh 29.66 in1004.4 mb 0.00 in0.0 mm 0.00 in0.0 mm 0.00 in0.0 mm
08:40 AM 51.6°F10.9°C 4.0°F-15.6°C 14% 4.9 mph W7.9 kmh W 6.9 mph11.1 kmh 29.65 in1004.1 mb 0.00 in0.0 mm 0.00 in0.0 mm 0.00 in0.0 mm
08:41 AM 51.6°F10.9°C 4.0°F-15.6°C 14% 4.9 mph W7.9 kmh W 6.9 mph11.1 kmh 29.66 in1004.4 mb 0.00 in0.0 mm 0.00 in0.0 mm 0.00 in0.0 mm
08:42 AM 51.8°F11.0°C 4.2°F-15.4°C 14% 3.4 mph NW5.5 kmh NW 4.5 mph7.2 kmh 29.66 in1004.4 mb 0.00 in0.0 mm 0.00 in0.0 mm 0.00 in0.0 mm
08:43 AM 51.8°F11.0°C 4.2°F-15.4°C 14% 3.4 mph NW5.5 kmh NW 4.5 mph7.2 kmh 29.66 in1004.4 mb 0.00 in0.0 mm 0.00 in0.0 mm 0.00 in0.0 mm
08:44 AM 52.0°F11.1°C 4.3°F-15.4°C 14% 2.9 mph NNW4.7 kmh NNW 5.8 mph9.3 kmh 29.66 in1004.4 mb 0.00 in0.0 mm 0.00 in0.0 mm 0.00 in0.0 mm
08:45 AM 52.0°F11.1°C 4.3°F-15.4°C 14% 2.9 mph NW4.7 kmh NW 4.5 mph7.2 kmh 29.66 in1004.4 mb 0.00 in0.0 mm 0.00 in0.0 mm 0.00 in0.0 mm
08:46 AM 52.0°F11.1°C 4.3°F-15.4°C 14% 0.4 mph NW0.6 kmh NW 1.1 mph1.8 kmh 29.66 in1004.4 mb 0.00 in0.0 mm 0.00 in0.0 mm 0.00 in0.0 mm
08:47 AM 52.2°F11.2°C 4.5°F-15.3°C 14% Calm Calm -- 29.67 in1004.7 mb 0.00 in0.0 mm 0.00 in0.0 mm 0.00 in0.0 mm
08:48 AM 52.3°F11.3°C 4.6°F-15.2°C 14% 3.4 mph W5.5 kmh W 4.5 mph7.2 kmh 29.66 in1004.4 mb 0.00 in0.0 mm 0.00 in0.0 mm 0.00 in0.0 mm
08:49 AM 52.3°F11.3°C 6.1°F-14.4°C 15% Calm Calm -- 29.66 in1004.4 mb 0.00 in0.0 mm 0.00 in0.0 mm 0.00 in0.0 mm
08:50 AM 52.3°F11.3°C 6.1°F-14.4°C 15% 0.7 mph W1.1 kmh W 1.1 mph1.8 kmh 29.66 in1004.4 mb 0.00 in0.0 mm 0.00 in0.0 mm 0.00 in0.0 mm
08:51 AM 52.3°F11.3°C 6.1°F-14.4°C 15% 0.2 mph W0.3 kmh W 1.1 mph1.8 kmh 29.67 in1004.7 mb 0.00 in0.0 mm 0.00 in0.0 mm 0.00 in0.0 mm
08:52 AM 52.3°F11.3°C 6.1°F-14.4°C 15% Calm Calm -- 29.66 in1004.4 mb 0.00 in0.0 mm 0.00 in0.0 mm 0.00 in0.0 mm
08:53 AM 52.3°F11.3°C 4.6°F-15.2°C 14% 2.2 mph WSW3.5 kmh WSW 3.4 mph5.5 kmh 29.66 in1004.4 mb 0.00 in0.0 mm 0.00 in0.0 mm 0.00 in0.0 mm
08:54 AM 52.3°F11.3°C 4.6°F-15.2°C 14% 0.4 mph SW0.6 kmh SW 2.2 mph3.5 kmh 29.66 in1004.4 mb 0.00 in0.0 mm 0.00 in0.0 mm 0.00 in0.0 mm
08:55 AM 52.5°F11.4°C 4.7°F-15.2°C 14% 0.2 mph E0.3 kmh E 1.1 mph1.8 kmh 29.66 in1004.4 mb 0.00 in0.0 mm 0.00 in0.0 mm 0.00 in0.0 mm
08:56 AM 52.5°F11.4°C 4.7°F-15.2°C 14% 8.5 mph W13.7 kmh W 10.3 mph16.6 kmh 29.66 in1004.4 mb 0.00 in0.0 mm 0.00 in0.0 mm 0.00 in0.0 mm
08:57 AM 52.7°F11.5°C 3.3°F-15.9°C 13% 3.6 mph W5.8 kmh W 4.5 mph7.2 kmh 29.66 in1004.4 mb 0.00 in0.0 mm 0.00 in0.0 mm 0.00 in0.0 mm
08:58 AM 53.1°F11.7°C 5.2°F-14.9°C 14% 1.3 mph WSW2.1 kmh WSW 2.2 mph3.5 kmh 29.66 in1004.4 mb 0.00 in0.0 mm 0.00 in0.0 mm 0.00 in0.0 mm
08:59 AM 53.2°F11.8°C 5.3°F-14.8°C 14% 1.3 mph W2.1 kmh W 2.2 mph3.5 kmh 29.66 in1004.4 mb 0.00 in0.0 mm 0.00 in0.0 mm 0.00 in0.0 mm
09:00 AM 53.2°F11.8°C 3.7°F-15.7°C 13% 2.9 mph WSW4.7 kmh WSW 4.5 mph7.2 kmh 29.66 in1004.4 mb 0.00 in0.0 mm 0.00 in0.0 mm 0.00 in0.0 mm
09:01 AM 53.4°F11.9°C 3.8°F-15.7°C 13% 2.0 mph SW3.2 kmh SW 3.4 mph5.5 kmh 29.66 in1004.4 mb 0.00 in0.0 mm 0.00 in0.0 mm 0.00 in0.0 mm
09:02 AM 53.6°F12.0°C 4.0°F-15.6°C 13% 2.5 mph NNW4.0 kmh NNW 3.4 mph5.5 kmh 29.66 in1004.4 mb 0.00 in0.0 mm 0.00 in0.0 mm 0.00 in0.0 mm
09:03 AM 53.8°F12.1°C 4.1°F-15.5°C 13% 3.4 mph WSW5.5 kmh WSW 4.5 mph7.2 kmh 29.66 in1004.4 mb 0.00 in0.0 mm 0.00 in0.0 mm 0.00 in0.0 mm
09:04 AM 53.8°F12.1°C 5.7°F-14.6°C 14% 0.9 mph W1.4 kmh W 1.1 mph1.8 kmh 29.65 in1004.1 mb 0.00 in0.0 mm 0.00 in0.0 mm 0.00 in0.0 mm
09:05 AM 54.0°F12.2°C 5.9°F-14.5°C 14% 0.2 mph W0.3 kmh W 1.1 mph1.8 kmh 29.66 in1004.4 mb 0.00 in0.0 mm 0.00 in0.0 mm 0.00 in0.0 mm
09:06 AM 54.1°F12.3°C 6.0°F-14.4°C 14% 1.6 mph W2.6 kmh W 2.2 mph3.5 kmh 29.66 in1004.4 mb 0.00 in0.0 mm 0.00 in0.0 mm 0.00 in0.0 mm
09:07 AM 54.3°F12.4°C 6.1°F-14.4°C 14% 1.1 mph W1.8 kmh W 2.2 mph3.5 kmh 29.67 in1004.7 mb 0.00 in0.0 mm 0.00 in0.0 mm 0.00 in0.0 mm
09:08 AM 54.5°F12.5°C 4.7°F-15.2°C 13% 0.7 mph W1.1 kmh W 2.2 mph3.5 kmh 29.66 in1004.4 mb 0.00 in0.0 mm 0.00 in0.0 mm 0.00 in0.0 mm
09:09 AM 54.7°F12.6°C 4.8°F-15.1°C 13% 0.9 mph W1.4 kmh W 1.1 mph1.8 kmh 29.66 in1004.4 mb 0.00 in0.0 mm 0.00 in0.0 mm 0.00 in0.0 mm
09:10 AM 54.9°F12.7°C 6.6°F-14.1°C 14% 0.2 mph W0.3 kmh W 1.1 mph1.8 kmh 29.66 in1004.4 mb 0.00 in0.0 mm 0.00 in0.0 mm 0.00 in0.0 mm
09:11 AM 55.0°F12.8°C 6.7°F-14.1°C 14% 2.9 mph W4.7 kmh W 4.5 mph7.2 kmh 29.66 in1004.4 mb 0.00 in0.0 mm 0.00 in0.0 mm 0.00 in0.0 mm
09:12 AM 55.0°F12.8°C 5.1°F-14.9°C 13% 3.4 mph W5.5 kmh W 4.5 mph7.2 kmh 29.66 in1004.4 mb 0.00 in0.0 mm 0.00 in0.0 mm 0.00 in0.0 mm
09:13 AM 55.2°F12.9°C 5.2°F-14.9°C 13% 3.6 mph W5.8 kmh W 5.8 mph9.3 kmh 29.67 in1004.7 mb 0.00 in0.0 mm 0.00 in0.0 mm 0.00 in0.0 mm
09:14 AM 55.4°F13.0°C 5.4°F-14.8°C 13% 2.5 mph W4.0 kmh W 3.4 mph5.5 kmh 29.66 in1004.4 mb 0.00 in0.0 mm 0.00 in0.0 mm 0.00 in0.0 mm
09:15 AM 55.4°F13.0°C 5.4°F-14.8°C 13% 0.4 mph W0.6 kmh W 1.1 mph1.8 kmh 29.66 in1004.4 mb 0.00 in0.0 mm 0.00 in0.0 mm 0.00 in0.0 mm
09:16 AM 55.6°F13.1°C 7.2°F-13.8°C 14% 0.7 mph W1.1 kmh W 1.1 mph1.8 kmh 29.65 in1004.1 mb 0.00 in0.0 mm 0.00 in0.0 mm 0.00 in0.0 mm
09:17 AM 55.8°F13.2°C 7.3°F-13.7°C 14% 0.4 mph W0.6 kmh W 1.1 mph1.8 kmh 29.65 in1004.1 mb 0.00 in0.0 mm 0.00 in0.0 mm 0.00 in0.0 mm
09:18 AM 55.8°F13.2°C 7.3°F-13.7°C 14% 0.2 mph W0.3 kmh W 1.1 mph1.8 kmh 29.66 in1004.4 mb 0.00 in0.0 mm 0.00 in0.0 mm 0.00 in0.0 mm
09:19 AM 55.8°F13.2°C 5.7°F-14.6°C 13% 3.6 mph WSW5.8 kmh WSW 5.8 mph9.3 kmh 29.66 in1004.4 mb 0.00 in0.0 mm 0.00 in0.0 mm 0.00 in0.0 mm
09:20 AM 55.8°F13.2°C 5.7°F-14.6°C 13% 2.2 mph W3.5 kmh W 3.4 mph5.5 kmh 29.66 in1004.4 mb 0.00 in0.0 mm 0.00 in0.0 mm 0.00 in0.0 mm
09:21 AM 55.9°F13.3°C 5.8°F-14.6°C 13% 1.6 mph W2.6 kmh W 2.2 mph3.5 kmh 29.66 in1004.4 mb 0.00 in0.0 mm 0.00 in0.0 mm 0.00 in0.0 mm
09:22 AM 56.1°F13.4°C 6.0°F-14.4°C 13% Calm Calm -- 29.66 in1004.4 mb 0.00 in0.0 mm 0.00 in0.0 mm 0.00 in0.0 mm
09:23 AM 56.5°F13.6°C 6.3°F-14.3°C 13% 2.5 mph NW4.0 kmh NW 4.5 mph7.2 kmh 29.66 in1004.4 mb 0.00 in0.0 mm 0.00 in0.0 mm 0.00 in0.0 mm
09:24 AM 56.5°F13.6°C 6.3°F-14.3°C 13% 1.1 mph NW1.8 kmh NW 2.2 mph3.5 kmh 29.65 in1004.1 mb 0.00 in0.0 mm 0.00 in0.0 mm 0.00 in0.0 mm
09:25 AM 56.5°F13.6°C 4.5°F-15.3°C 12% 3.4 mph W5.5 kmh W 4.5 mph7.2 kmh 29.65 in1004.1 mb 0.00 in0.0 mm 0.00 in0.0 mm 0.00 in0.0 mm
09:26 AM 56.7°F13.7°C 4.7°F-15.2°C 12% 1.6 mph NNW2.6 kmh NNW 2.2 mph3.5 kmh 29.65 in1004.1 mb 0.00 in0.0 mm 0.00 in0.0 mm 0.00 in0.0 mm
09:27 AM 56.7°F13.7°C 4.7°F-15.2°C 12% 1.8 mph N2.9 kmh N 3.4 mph5.5 kmh 29.66 in1004.4 mb 0.00 in0.0 mm 0.00 in0.0 mm 0.00 in0.0 mm
09:28 AM 56.8°F13.8°C 4.8°F-15.1°C 12% 3.4 mph WNW5.5 kmh WNW 4.5 mph7.2 kmh 29.66 in1004.4 mb 0.00 in0.0 mm 0.00 in0.0 mm 0.00 in0.0 mm
09:29 AM 56.8°F13.8°C 4.8°F-15.1°C 12% 0.9 mph WSW1.4 kmh WSW 2.2 mph3.5 kmh 29.66 in1004.4 mb 0.00 in0.0 mm 0.00 in0.0 mm 0.00 in0.0 mm
09:30 AM 57.0°F13.9°C 4.9°F-15.1°C 12% 2.7 mph WSW4.3 kmh WSW 3.4 mph5.5 kmh 29.66 in1004.4 mb 0.00 in0.0 mm 0.00 in0.0 mm 0.00 in0.0 mm
09:31 AM 57.2°F14.0°C 5.1°F-14.9°C 12% 1.3 mph SSW2.1 kmh SSW 2.2 mph3.5 kmh 29.66 in1004.4 mb 0.00 in0.0 mm 0.00 in0.0 mm 0.00 in0.0 mm
09:32 AM 57.4°F14.1°C 5.2°F-14.9°C 12% 1.6 mph NNE2.6 kmh NNE 2.2 mph3.5 kmh 29.66 in1004.4 mb 0.00 in0.0 mm 0.00 in0.0 mm 0.00 in0.0 mm
09:33 AM 57.6°F14.2°C 5.4°F-14.8°C 12% 2.5 mph NNW4.0 kmh NNW 3.4 mph5.5 kmh 29.66 in1004.4 mb 0.00 in0.0 mm 0.00 in0.0 mm 0.00 in0.0 mm
09:34 AM 57.7°F14.3°C 5.5°F-14.7°C 12% 4.0 mph SW6.4 kmh SW 4.5 mph7.2 kmh 29.65 in1004.1 mb 0.00 in0.0 mm 0.00 in0.0 mm 0.00 in0.0 mm
09:35 AM 57.7°F14.3°C 5.5°F-14.7°C 12% 3.4 mph WSW5.5 kmh WSW 4.5 mph7.2 kmh 29.66 in1004.4 mb 0.00 in0.0 mm 0.00 in0.0 mm 0.00 in0.0 mm
09:36 AM 57.9°F14.4°C 5.6°F-14.7°C 12% 1.8 mph NW2.9 kmh NW 2.2 mph3.5 kmh 29.65 in1004.1 mb 0.00 in0.0 mm 0.00 in0.0 mm 0.00 in0.0 mm
09:37 AM 58.1°F14.5°C 5.8°F-14.6°C 12% 0.2 mph NW0.3 kmh NW 1.1 mph1.8 kmh 29.65 in1004.1 mb 0.00 in0.0 mm 0.00 in0.0 mm 0.00 in0.0 mm
09:38 AM 58.3°F14.6°C 5.9°F-14.5°C 12% 1.8 mph NW2.9 kmh NW 2.2 mph3.5 kmh 29.65 in1004.1 mb 0.00 in0.0 mm 0.00 in0.0 mm 0.00 in0.0 mm
09:39 AM 58.5°F14.7°C 6.1°F-14.4°C 12% 2.5 mph NW4.0 kmh NW 3.4 mph5.5 kmh 29.66 in1004.4 mb 0.00 in0.0 mm 0.00 in0.0 mm 0.00 in0.0 mm
09:40 AM 58.6°F14.8°C 4.3°F-15.4°C 11% 5.6 mph W9.0 kmh W 8.1 mph13.0 kmh 29.65 in1004.1 mb 0.00 in0.0 mm 0.00 in0.0 mm 0.00 in0.0 mm
09:41 AM 58.6°F14.8°C 4.3°F-15.4°C 11% 3.1 mph NW5.0 kmh NW 4.5 mph7.2 kmh 29.65 in1004.1 mb 0.00 in0.0 mm 0.00 in0.0 mm 0.00 in0.0 mm
09:42 AM 58.6°F14.8°C 6.2°F-14.3°C 12% 1.3 mph NW2.1 kmh NW 2.2 mph3.5 kmh 29.65 in1004.1 mb 0.00 in0.0 mm 0.00 in0.0 mm 0.00 in0.0 mm
09:43 AM 58.6°F14.8°C 4.3°F-15.4°C 11% 2.0 mph W3.2 kmh W 2.2 mph3.5 kmh 29.65 in1004.1 mb 0.00 in0.0 mm 0.00 in0.0 mm 0.00 in0.0 mm
09:44 AM 58.8°F14.9°C 6.3°F-14.3°C 12% 0.2 mph NE0.3 kmh NE 1.1 mph1.8 kmh 29.66 in1004.4 mb 0.00 in0.0 mm 0.00 in0.0 mm 0.00 in0.0 mm
09:45 AM 58.8°F14.9°C 4.4°F-15.3°C 11% Calm Calm -- 29.66 in1004.4 mb 0.00 in0.0 mm 0.00 in0.0 mm 0.00 in0.0 mm
09:46 AM 59.4°F15.2°C 4.9°F-15.1°C 11% 1.3 mph NE2.1 kmh NE 2.2 mph3.5 kmh 29.65 in1004.1 mb 0.00 in0.0 mm 0.00 in0.0 mm 0.00 in0.0 mm
09:47 AM 59.7°F15.4°C 5.1°F-14.9°C 11% Calm Calm -- 29.65 in1004.1 mb 0.00 in0.0 mm 0.00 in0.0 mm 0.00 in0.0 mm
09:48 AM 60.1°F15.6°C 5.4°F-14.8°C 11% 0.7 mph NE1.1 kmh NE 1.1 mph1.8 kmh 29.65 in1004.1 mb 0.00 in0.0 mm 0.00 in0.0 mm 0.00 in0.0 mm
09:49 AM 60.3°F15.7°C 5.6°F-14.7°C 11% Calm Calm -- 29.65 in1004.1 mb 0.00 in0.0 mm 0.00 in0.0 mm 0.00 in0.0 mm
09:50 AM 60.6°F15.9°C 5.8°F-14.6°C 11% 0.7 mph ENE1.1 kmh ENE 1.1 mph1.8 kmh 29.65 in1004.1 mb 0.00 in0.0 mm 0.00 in0.0 mm 0.00 in0.0 mm
09:51 AM 61.0°F16.1°C 6.1°F-14.4°C 11% Calm Calm -- 29.65 in1004.1 mb 0.00 in0.0 mm 0.00 in0.0 mm 0.00 in0.0 mm
09:52 AM 61.2°F16.2°C 6.3°F-14.3°C 11% 0.9 mph ENE1.4 kmh ENE 1.1 mph1.8 kmh 29.66 in1004.4 mb 0.00 in0.0 mm 0.00 in0.0 mm 0.00 in0.0 mm
09:53 AM 61.5°F16.4°C 6.5°F-14.2°C 11% 1.8 mph N2.9 kmh N 2.2 mph3.5 kmh 29.65 in1004.1 mb 0.00 in0.0 mm 0.00 in0.0 mm 0.00 in0.0 mm
09:54 AM 61.5°F16.4°C 6.5°F-14.2°C 11% 2.9 mph W4.7 kmh W 4.5 mph7.2 kmh 29.65 in1004.1 mb 0.00 in0.0 mm 0.00 in0.0 mm 0.00 in0.0 mm
09:55 AM 61.3°F16.3°C 6.4°F-14.2°C 11% 0.2 mph SW0.3 kmh SW 1.1 mph1.8 kmh 29.65 in1004.1 mb 0.00 in0.0 mm 0.00 in0.0 mm 0.00 in0.0 mm
09:56 AM 61.3°F16.3°C 6.4°F-14.2°C 11% 0.2 mph SW0.3 kmh SW 1.1 mph1.8 kmh 29.65 in1004.1 mb 0.00 in0.0 mm 0.00 in0.0 mm 0.00 in0.0 mm
09:57 AM 61.5°F16.4°C 6.5°F-14.2°C 11% 0.9 mph SW1.4 kmh SW 1.1 mph1.8 kmh 29.65 in1004.1 mb 0.00 in0.0 mm 0.00 in0.0 mm 0.00 in0.0 mm
09:58 AM 61.9°F16.6°C 6.8°F-14.0°C 11% 0.2 mph SE0.3 kmh SE 1.1 mph1.8 kmh 29.65 in1004.1 mb 0.00 in0.0 mm 0.00 in0.0 mm 0.00 in0.0 mm
09:59 AM 62.2°F16.8°C 5.0°F-15.0°C 10% Calm Calm -- 29.65 in1004.1 mb 0.00 in0.0 mm 0.00 in0.0 mm 0.00 in0.0 mm
10:00 AM 62.4°F16.9°C 5.1°F-14.9°C 10% 1.8 mph ESE2.9 kmh ESE 2.2 mph3.5 kmh 29.65 in1004.1 mb 0.00 in0.0 mm 0.00 in0.0 mm 0.00 in0.0 mm
10:01 AM 62.6°F17.0°C 5.3°F-14.8°C 10% 0.2 mph SE0.3 kmh SE 1.1 mph1.8 kmh 29.65 in1004.1 mb 0.00 in0.0 mm 0.00 in0.0 mm 0.00 in0.0 mm
10:02 AM 63.0°F17.2°C 5.6°F-14.7°C 10% Calm Calm -- 29.65 in1004.1 mb 0.00 in0.0 mm 0.00 in0.0 mm 0.00 in0.0 mm
10:03 AM 63.1°F17.3°C 5.7°F-14.6°C 10% Calm Calm -- 29.65 in1004.1 mb 0.00 in0.0 mm 0.00 in0.0 mm 0.00 in0.0 mm
10:04 AM 63.5°F17.5°C 6.0°F-14.4°C 10% 0.2 mph SE0.3 kmh SE 1.1 mph1.8 kmh 29.65 in1004.1 mb 0.00 in0.0 mm 0.00 in0.0 mm 0.00 in0.0 mm
10:05 AM 63.7°F17.6°C 8.2°F-13.2°C 11% Calm Calm -- 29.65 in1004.1 mb 0.00 in0.0 mm 0.00 in0.0 mm 0.00 in0.0 mm
10:06 AM 64.0°F17.8°C 6.4°F-14.2°C 10% 1.1 mph SE1.8 kmh SE 1.1 mph1.8 kmh 29.65 in1004.1 mb 0.00 in0.0 mm 0.00 in0.0 mm 0.00 in0.0 mm
10:07 AM 64.0°F17.8°C 6.4°F-14.2°C 10% Calm Calm -- 29.65 in1004.1 mb 0.00 in0.0 mm 0.00 in0.0 mm 0.00 in0.0 mm
10:08 AM 64.2°F17.9°C 6.5°F-14.2°C 10% Calm Calm -- 29.65 in1004.1 mb 0.00 in0.0 mm 0.00 in0.0 mm 0.00 in0.0 mm
10:09 AM 64.8°F18.2°C 7.0°F-13.9°C 10% Calm Calm -- 29.65 in1004.1 mb 0.00 in0.0 mm 0.00 in0.0 mm 0.00 in0.0 mm
10:10 AM 64.9°F18.3°C 7.0°F-13.9°C 10% Calm Calm -- 29.65 in1004.1 mb 0.00 in0.0 mm 0.00 in0.0 mm 0.00 in0.0 mm
10:11 AM 65.5°F18.6°C 7.5°F-13.6°C 10% 0.9 mph SE1.4 kmh SE 2.2 mph3.5 kmh 29.64 in1003.7 mb 0.00 in0.0 mm 0.00 in0.0 mm 0.00 in0.0 mm
10:12 AM 65.5°F18.6°C 7.5°F-13.6°C 10% 1.1 mph ESE1.8 kmh ESE 1.1 mph1.8 kmh 29.65 in1004.1 mb 0.00 in0.0 mm 0.00 in0.0 mm 0.00 in0.0 mm
10:13 AM 65.1°F18.4°C 7.2°F-13.8°C 10% 0.2 mph ESE0.3 kmh ESE 1.1 mph1.8 kmh 29.64 in1003.7 mb 0.00 in0.0 mm 0.00 in0.0 mm 0.00 in0.0 mm
10:14 AM 64.8°F18.2°C 7.0°F-13.9°C 10% 1.1 mph ESE1.8 kmh ESE 1.1 mph1.8 kmh 29.64 in1003.7 mb 0.00 in0.0 mm 0.00 in0.0 mm 0.00 in0.0 mm
10:15 AM 64.4°F18.0°C 6.7°F-14.1°C 10% 0.4 mph ESE0.6 kmh ESE 1.1 mph1.8 kmh 29.64 in1003.7 mb 0.00 in0.0 mm 0.00 in0.0 mm 0.00 in0.0 mm
10:16 AM 64.4°F18.0°C 6.7°F-14.1°C 10% 1.3 mph ESE2.1 kmh ESE 2.2 mph3.5 kmh 29.65 in1004.1 mb 0.00 in0.0 mm 0.00 in0.0 mm 0.00 in0.0 mm
10:17 AM 64.4°F18.0°C 6.7°F-14.1°C 10% 0.9 mph ESE1.4 kmh ESE 1.1 mph1.8 kmh 29.64 in1003.7 mb 0.00 in0.0 mm 0.00 in0.0 mm 0.00 in0.0 mm
10:18 AM 64.2°F17.9°C 6.5°F-14.2°C 10% 1.3 mph ESE2.1 kmh ESE 2.2 mph3.5 kmh 29.65 in1004.1 mb 0.00 in0.0 mm 0.00 in0.0 mm 0.00 in0.0 mm
10:19 AM 64.0°F17.8°C 6.4°F-14.2°C 10% 1.6 mph ESE2.6 kmh ESE 2.2 mph3.5 kmh 29.64 in1003.7 mb 0.00 in0.0 mm 0.00 in0.0 mm 0.00 in0.0 mm
10:20 AM 63.7°F17.6°C 6.1°F-14.4°C 10% 0.9 mph ESE1.4 kmh ESE 1.1 mph1.8 kmh 29.64 in1003.7 mb 0.00 in0.0 mm 0.00 in0.0 mm 0.00 in0.0 mm
10:21 AM 63.7°F17.6°C 6.1°F-14.4°C 10% 0.9 mph ESE1.4 kmh ESE 1.1 mph1.8 kmh 29.65 in1004.1 mb 0.00 in0.0 mm 0.00 in0.0 mm 0.00 in0.0 mm
10:22 AM 63.9°F17.7°C 6.3°F-14.3°C 10% Calm Calm -- 29.64 in1003.7 mb 0.00 in0.0 mm 0.00 in0.0 mm 0.00 in0.0 mm
10:23 AM 63.9°F17.7°C 6.3°F-14.3°C 10% 1.3 mph ESE2.1 kmh ESE 2.2 mph3.5 kmh 29.64 in1003.7 mb 0.00 in0.0 mm 0.00 in0.0 mm 0.00 in0.0 mm
10:24 AM 64.2°F17.9°C 6.5°F-14.2°C 10% Calm Calm -- 29.65 in1004.1 mb 0.00 in0.0 mm 0.00 in0.0 mm 0.00 in0.0 mm
10:25 AM 64.4°F18.0°C 8.8°F-12.9°C 11% 0.4 mph ESE0.6 kmh ESE 1.1 mph1.8 kmh 29.64 in1003.7 mb 0.00 in0.0 mm 0.00 in0.0 mm 0.00 in0.0 mm
10:26 AM 64.8°F18.2°C 7.0°F-13.9°C 10% 1.3 mph ESE2.1 kmh ESE 2.2 mph3.5 kmh 29.64 in1003.7 mb 0.00 in0.0 mm 0.00 in0.0 mm 0.00 in0.0 mm
10:27 AM 64.8°F18.2°C 9.1°F-12.7°C 11% 1.6 mph ESE2.6 kmh ESE 2.2 mph3.5 kmh 29.64 in1003.7 mb 0.00 in0.0 mm 0.00 in0.0 mm 0.00 in0.0 mm
10:28 AM 64.6°F18.1°C 6.8°F-14.0°C 10% 1.3 mph ESE2.1 kmh ESE 2.2 mph3.5 kmh 29.65 in1004.1 mb 0.00 in0.0 mm 0.00 in0.0 mm 0.00 in0.0 mm
10:29 AM 64.2°F17.9°C 6.5°F-14.2°C 10% 0.4 mph ESE0.6 kmh ESE 1.1 mph1.8 kmh 29.64 in1003.7 mb 0.00 in0.0 mm 0.00 in0.0 mm 0.00 in0.0 mm
10:30 AM 64.2°F17.9°C 6.5°F-14.2°C 10% 0.4 mph ESE0.6 kmh ESE 1.1 mph1.8 kmh 29.63 in1003.4 mb 0.00 in0.0 mm 0.00 in0.0 mm 0.00 in0.0 mm
10:31 AM 64.0°F17.8°C 6.4°F-14.2°C 10% Calm Calm -- 29.64 in1003.7 mb 0.00 in0.0 mm 0.00 in0.0 mm 0.00 in0.0 mm
10:32 AM 64.0°F17.8°C 6.4°F-14.2°C 10% Calm Calm -- 29.64 in1003.7 mb 0.00 in0.0 mm 0.00 in0.0 mm 0.00 in0.0 mm
10:33 AM 64.2°F17.9°C 6.5°F-14.2°C 10% 1.3 mph ESE2.1 kmh ESE 2.2 mph3.5 kmh 29.63 in1003.4 mb 0.00 in0.0 mm 0.00 in0.0 mm 0.00 in0.0 mm
10:34 AM 64.4°F18.0°C 6.7°F-14.1°C 10% 0.2 mph SE0.3 kmh SE 1.1 mph1.8 kmh 29.64 in1003.7 mb 0.00 in0.0 mm 0.00 in0.0 mm 0.00 in0.0 mm
10:35 AM 64.6°F18.1°C 6.8°F-14.0°C 10% Calm Calm -- 29.64 in1003.7 mb 0.00 in0.0 mm 0.00 in0.0 mm 0.00 in0.0 mm
10:36 AM 65.5°F18.6°C 7.5°F-13.6°C 10% 0.9 mph SE1.4 kmh SE 1.1 mph1.8 kmh 29.63 in1003.4 mb 0.00 in0.0 mm 0.00 in0.0 mm 0.00 in0.0 mm
10:37 AM 65.8°F18.8°C 7.7°F-13.5°C 10% 0.2 mph SE0.3 kmh SE 1.1 mph1.8 kmh 29.63 in1003.4 mb 0.00 in0.0 mm 0.00 in0.0 mm 0.00 in0.0 mm
10:38 AM 65.8°F18.8°C 7.7°F-13.5°C 10% 1.3 mph SE2.1 kmh SE 2.2 mph3.5 kmh 29.64 in1003.7 mb 0.00 in0.0 mm 0.00 in0.0 mm 0.00 in0.0 mm
10:39 AM 65.3°F18.5°C 7.4°F-13.7°C 10% 1.1 mph SE1.8 kmh SE 1.1 mph1.8 kmh 29.64 in1003.7 mb 0.00 in0.0 mm 0.00 in0.0 mm 0.00 in0.0 mm
10:40 AM 64.2°F17.9°C 6.5°F-14.2°C 10% 1.1 mph ESE1.8 kmh ESE 1.1 mph1.8 kmh 29.63 in1003.4 mb 0.00 in0.0 mm 0.00 in0.0 mm 0.00 in0.0 mm
10:41 AM 63.9°F17.7°C 6.3°F-14.3°C 10% Calm Calm -- 29.63 in1003.4 mb 0.00 in0.0 mm 0.00 in0.0 mm 0.00 in0.0 mm
10:42 AM 63.9°F17.7°C 6.3°F-14.3°C 10% Calm Calm -- 29.63 in1003.4 mb 0.00 in0.0 mm 0.00 in0.0 mm 0.00 in0.0 mm
10:43 AM 64.2°F17.9°C 6.5°F-14.2°C 10% Calm Calm -- 29.63 in1003.4 mb 0.00 in0.0 mm 0.00 in0.0 mm 0.00 in0.0 mm
10:44 AM 66.0°F18.9°C 10.0°F-12.2°C 11% Calm Calm -- 29.63 in1003.4 mb 0.00 in0.0 mm 0.00 in0.0 mm 0.00 in0.0 mm
10:45 AM 66.2°F19.0°C 8.0°F-13.3°C 10% 0.9 mph ESE1.4 kmh ESE 1.1 mph1.8 kmh 29.63 in1003.4 mb 0.00 in0.0 mm 0.00 in0.0 mm 0.00 in0.0 mm
10:46 AM 66.4°F19.1°C 8.2°F-13.2°C 10% 0.2 mph ESE0.3 kmh ESE 1.1 mph1.8 kmh 29.63 in1003.4 mb 0.00 in0.0 mm 0.00 in0.0 mm 0.00 in0.0 mm
10:47 AM 66.4°F19.1°C 8.2°F-13.2°C 10% Calm Calm -- 29.63 in1003.4 mb 0.00 in0.0 mm 0.00 in0.0 mm 0.00 in0.0 mm
10:48 AM 66.4°F19.1°C 8.2°F-13.2°C 10% Calm Calm -- 29.63 in1003.4 mb 0.00 in0.0 mm 0.00 in0.0 mm 0.00 in0.0 mm
10:49 AM 66.4°F19.1°C 8.2°F-13.2°C 10% 1.1 mph ESE1.8 kmh ESE 1.1 mph1.8 kmh 29.63 in1003.4 mb 0.00 in0.0 mm 0.00 in0.0 mm 0.00 in0.0 mm
10:50 AM 66.7°F19.3°C 8.4°F-13.1°C 10% Calm Calm -- 29.63 in1003.4 mb 0.00 in0.0 mm 0.00 in0.0 mm 0.00 in0.0 mm
10:51 AM 66.9°F19.4°C 8.6°F-13.0°C 10% Calm Calm -- 29.63 in1003.4 mb 0.00 in0.0 mm 0.00 in0.0 mm 0.00 in0.0 mm
10:52 AM 67.1°F19.5°C 8.7°F-12.9°C 10% 0.9 mph ESE1.4 kmh ESE 1.1 mph1.8 kmh 29.63 in1003.4 mb 0.00 in0.0 mm 0.00 in0.0 mm 0.00 in0.0 mm
10:53 AM 67.1°F19.5°C 8.7°F-12.9°C 10% Calm Calm -- 29.63 in1003.4 mb 0.00 in0.0 mm 0.00 in0.0 mm 0.00 in0.0 mm
10:54 AM 67.1°F19.5°C 8.7°F-12.9°C 10% Calm Calm -- 29.62 in1003.0 mb 0.00 in0.0 mm 0.00 in0.0 mm 0.00 in0.0 mm
10:55 AM 66.9°F19.4°C 8.6°F-13.0°C 10% Calm Calm -- 29.63 in1003.4 mb 0.00 in0.0 mm 0.00 in0.0 mm 0.00 in0.0 mm
10:56 AM 66.9°F19.4°C 8.6°F-13.0°C 10% 0.4 mph E0.6 kmh E 1.1 mph1.8 kmh 29.63 in1003.4 mb 0.00 in0.0 mm 0.00 in0.0 mm 0.00 in0.0 mm
10:57 AM 66.9°F19.4°C 8.6°F-13.0°C 10% 0.2 mph E0.3 kmh E 1.1 mph1.8 kmh 29.63 in1003.4 mb 0.00 in0.0 mm 0.00 in0.0 mm 0.00 in0.0 mm
10:58 AM 66.9°F19.4°C 8.6°F-13.0°C 10% 0.2 mph E0.3 kmh E 1.1 mph1.8 kmh 29.62 in1003.0 mb 0.00 in0.0 mm 0.00 in0.0 mm 0.00 in0.0 mm
10:59 AM 66.9°F19.4°C 8.6°F-13.0°C 10% Calm Calm -- 29.63 in1003.4 mb 0.00 in0.0 mm 0.00 in0.0 mm 0.00 in0.0 mm
11:00 AM 66.7°F19.3°C 8.4°F-13.1°C 10% Calm Calm -- 29.63 in1003.4 mb 0.00 in0.0 mm 0.00 in0.0 mm 0.00 in0.0 mm
11:01 AM 67.1°F19.5°C 8.7°F-12.9°C 10% Calm Calm -- 29.62 in1003.0 mb 0.00 in0.0 mm 0.00 in0.0 mm 0.00 in0.0 mm
11:02 AM 67.5°F19.7°C 9.0°F-12.8°C 10% 0.4 mph E0.6 kmh E 1.1 mph1.8 kmh 29.63 in1003.4 mb 0.00 in0.0 mm 0.00 in0.0 mm 0.00 in0.0 mm
11:03 AM 67.5°F19.7°C 9.0°F-12.8°C 10% Calm Calm -- 29.62 in1003.0 mb 0.00 in0.0 mm 0.00 in0.0 mm 0.00 in0.0 mm
11:04 AM 67.5°F19.7°C 9.0°F-12.8°C 10% 0.9 mph E1.4 kmh E 1.1 mph1.8 kmh 29.63 in1003.4 mb 0.00 in0.0 mm 0.00 in0.0 mm 0.00 in0.0 mm
11:05 AM 67.3°F19.6°C 8.9°F-12.8°C 10% Calm Calm -- 29.63 in1003.4 mb 0.00 in0.0 mm 0.00 in0.0 mm 0.00 in0.0 mm
11:06 AM 67.3°F19.6°C 8.9°F-12.8°C 10% Calm Calm -- 29.63 in1003.4 mb 0.00 in0.0 mm 0.00 in0.0 mm 0.00 in0.0 mm
11:07 AM 67.3°F19.6°C 8.9°F-12.8°C 10% Calm Calm -- 29.62 in1003.0 mb 0.00 in0.0 mm 0.00 in0.0 mm 0.00 in0.0 mm
11:08 AM 67.8°F19.9°C 9.3°F-12.6°C 10% 0.2 mph E0.3 kmh E 1.1 mph1.8 kmh 29.63 in1003.4 mb 0.00 in0.0 mm 0.00 in0.0 mm 0.00 in0.0 mm
11:09 AM 68.0°F20.0°C 9.4°F-12.6°C 10% 1.1 mph E1.8 kmh E 1.1 mph1.8 kmh 29.62 in1003.0 mb 0.00 in0.0 mm 0.00 in0.0 mm 0.00 in0.0 mm
11:10 AM 68.0°F20.0°C 9.4°F-12.6°C 10% Calm Calm -- 29.62 in1003.0 mb 0.00 in0.0 mm 0.00 in0.0 mm 0.00 in0.0 mm
11:11 AM 67.5°F19.7°C 9.0°F-12.8°C 10% Calm Calm -- 29.63 in1003.4 mb 0.00 in0.0 mm 0.00 in0.0 mm 0.00 in0.0 mm
11:12 AM 67.3°F19.6°C 8.9°F-12.8°C 10% Calm Calm -- 29.62 in1003.0 mb 0.00 in0.0 mm 0.00 in0.0 mm 0.00 in0.0 mm
11:13 AM 67.5°F19.7°C 13.1°F-10.5°C 12% 0.2 mph E0.3 kmh E 1.1 mph1.8 kmh 29.62 in1003.0 mb 0.00 in0.0 mm 0.00 in0.0 mm 0.00 in0.0 mm
11:14 AM 67.6°F19.8°C 11.2°F-11.6°C 11% Calm Calm -- 29.61 in1002.7 mb 0.00 in0.0 mm 0.00 in0.0 mm 0.00 in0.0 mm
11:15 AM 67.8°F19.9°C 9.3°F-12.6°C 10% 0.2 mph E0.3 kmh E 1.1 mph1.8 kmh 29.62 in1003.0 mb 0.00 in0.0 mm 0.00 in0.0 mm 0.00 in0.0 mm
11:16 AM 68.4°F20.2°C 9.7°F-12.4°C 10% 0.2 mph E0.3 kmh E 1.1 mph1.8 kmh 29.62 in1003.0 mb 0.00 in0.0 mm 0.00 in0.0 mm 0.00 in0.0 mm
11:17 AM 68.4°F20.2°C 11.9°F-11.2°C 11% 0.2 mph E0.3 kmh E 1.1 mph1.8 kmh 29.62 in1003.0 mb 0.00 in0.0 mm 0.00 in0.0 mm 0.00 in0.0 mm
11:18 AM 68.4°F20.2°C 9.7°F-12.4°C 10% 0.2 mph E0.3 kmh E 1.1 mph1.8 kmh 29.62 in1003.0 mb 0.00 in0.0 mm 0.00 in0.0 mm 0.00 in0.0 mm
11:19 AM 68.4°F20.2°C 9.7°F-12.4°C 10% Calm Calm -- 29.62 in1003.0 mb 0.00 in0.0 mm 0.00 in0.0 mm 0.00 in0.0 mm
11:20 AM 69.1°F20.6°C 10.3°F-12.1°C 10% 0.2 mph E0.3 kmh E 1.1 mph1.8 kmh 29.62 in1003.0 mb 0.00 in0.0 mm 0.00 in0.0 mm 0.00 in0.0 mm
11:21 AM 69.3°F20.7°C 10.4°F-12.0°C 10% 0.9 mph E1.4 kmh E 1.1 mph1.8 kmh 29.62 in1003.0 mb 0.00 in0.0 mm 0.00 in0.0 mm 0.00 in0.0 mm
11:22 AM 69.1°F20.6°C 10.3°F-12.1°C 10% Calm Calm -- 29.61 in1002.7 mb 0.00 in0.0 mm 0.00 in0.0 mm 0.00 in0.0 mm
11:23 AM 68.5°F20.3°C 9.8°F-12.3°C 10% 0.9 mph E1.4 kmh E 1.1 mph1.8 kmh 29.62 in1003.0 mb 0.00 in0.0 mm 0.00 in0.0 mm 0.00 in0.0 mm
11:24 AM 67.8°F19.9°C 9.3°F-12.6°C 10% 0.2 mph E0.3 kmh E 1.1 mph1.8 kmh 29.62 in1003.0 mb 0.00 in0.0 mm 0.00 in0.0 mm 0.00 in0.0 mm
11:25 AM 67.6°F19.8°C 11.2°F-11.6°C 11% Calm Calm -- 29.62 in1003.0 mb 0.00 in0.0 mm 0.00 in0.0 mm 0.00 in0.0 mm
11:26 AM 67.6°F19.8°C 9.1°F-12.7°C 10% 0.9 mph E1.4 kmh E 1.1 mph1.8 kmh 29.61 in1002.7 mb 0.00 in0.0 mm 0.00 in0.0 mm 0.00 in0.0 mm
11:27 AM 67.6°F19.8°C 9.1°F-12.7°C 10% Calm Calm -- 29.61 in1002.7 mb 0.00 in0.0 mm 0.00 in0.0 mm 0.00 in0.0 mm
11:28 AM 67.6°F19.8°C 9.1°F-12.7°C 10% Calm Calm -- 29.61 in1002.7 mb 0.00 in0.0 mm 0.00 in0.0 mm 0.00 in0.0 mm
11:29 AM 68.4°F20.2°C 9.7°F-12.4°C 10% Calm Calm -- 29.61 in1002.7 mb 0.00 in0.0 mm 0.00 in0.0 mm 0.00 in0.0 mm
11:30 AM 68.7°F20.4°C 10.0°F-12.2°C 10% Calm Calm -- 29.61 in1002.7 mb 0.00 in0.0 mm 0.00 in0.0 mm 0.00 in0.0 mm
11:31 AM 69.4°F20.8°C 10.5°F-11.9°C 10% Calm Calm -- 29.61 in1002.7 mb 0.00 in0.0 mm 0.00 in0.0 mm 0.00 in0.0 mm
11:32 AM 69.8°F21.0°C 10.8°F-11.8°C 10% 0.2 mph E0.3 kmh E 1.1 mph1.8 kmh 29.61 in1002.7 mb 0.00 in0.0 mm 0.00 in0.0 mm 0.00 in0.0 mm
11:33 AM 69.8°F21.0°C 10.8°F-11.8°C 10% 0.7 mph E1.1 kmh E 1.1 mph1.8 kmh 29.61 in1002.7 mb 0.00 in0.0 mm 0.00 in0.0 mm 0.00 in0.0 mm
11:34 AM 69.8°F21.0°C 10.8°F-11.8°C 10% 0.2 mph E0.3 kmh E 1.1 mph1.8 kmh 29.61 in1002.7 mb 0.00 in0.0 mm 0.00 in0.0 mm 0.00 in0.0 mm
11:35 AM 69.6°F20.9°C 10.6°F-11.9°C 10% 0.4 mph E0.6 kmh E 1.1 mph1.8 kmh 29.61 in1002.7 mb 0.00 in0.0 mm 0.00 in0.0 mm 0.00 in0.0 mm
11:36 AM 69.6°F20.9°C 10.6°F-11.9°C 10% 0.7 mph E1.1 kmh E 1.1 mph1.8 kmh 29.61 in1002.7 mb 0.00 in0.0 mm 0.00 in0.0 mm 0.00 in0.0 mm
11:37 AM 69.1°F20.6°C 10.3°F-12.1°C 10% 0.2 mph E0.3 kmh E 1.1 mph1.8 kmh 29.60 in1002.4 mb 0.00 in0.0 mm 0.00 in0.0 mm 0.00 in0.0 mm
11:38 AM 68.7°F20.4°C 10.0°F-12.2°C 10% 1.8 mph E2.9 kmh E 2.2 mph3.5 kmh 29.60 in1002.4 mb 0.00 in0.0 mm 0.00 in0.0 mm 0.00 in0.0 mm
11:39 AM 68.5°F20.3°C 9.8°F-12.3°C 10% 0.7 mph E1.1 kmh E 1.1 mph1.8 kmh 29.61 in1002.7 mb 0.00 in0.0 mm 0.00 in0.0 mm 0.00 in0.0 mm
11:40 AM 68.4°F20.2°C 9.7°F-12.4°C 10% Calm Calm -- 29.60 in1002.4 mb 0.00 in0.0 mm 0.00 in0.0 mm 0.00 in0.0 mm
11:41 AM 68.4°F20.2°C 9.7°F-12.4°C 10% 0.7 mph E1.1 kmh E 1.1 mph1.8 kmh 29.61 in1002.7 mb 0.00 in0.0 mm 0.00 in0.0 mm 0.00 in0.0 mm
11:42 AM 68.7°F20.4°C 10.0°F-12.2°C 10% 0.2 mph E0.3 kmh E 1.1 mph1.8 kmh 29.61 in1002.7 mb 0.00 in0.0 mm 0.00 in0.0 mm 0.00 in0.0 mm
11:43 AM 68.9°F20.5°C 10.1°F-12.2°C 10% 0.7 mph E1.1 kmh E 1.1 mph1.8 kmh 29.60 in1002.4 mb 0.00 in0.0 mm 0.00 in0.0 mm 0.00 in0.0 mm
11:44 AM 68.7°F20.4°C 10.0°F-12.2°C 10% 1.8 mph E2.9 kmh E 2.2 mph3.5 kmh 29.60 in1002.4 mb 0.00 in0.0 mm 0.00 in0.0 mm 0.00 in0.0 mm
11:45 AM 68.5°F20.3°C 9.8°F-12.3°C 10% 0.7 mph E1.1 kmh E 1.1 mph1.8 kmh 29.61 in1002.7 mb 0.00 in0.0 mm 0.00 in0.0 mm 0.00 in0.0 mm
11:46 AM 68.2°F20.1°C 9.6°F-12.4°C 10% 1.1 mph E1.8 kmh E 1.1 mph1.8 kmh 29.61 in1002.7 mb 0.00 in0.0 mm 0.00 in0.0 mm 0.00 in0.0 mm
11:47 AM 68.0°F20.0°C 9.4°F-12.6°C 10% Calm Calm -- 29.60 in1002.4 mb 0.00 in0.0 mm 0.00 in0.0 mm 0.00 in0.0 mm
11:48 AM 67.8°F19.9°C 9.3°F-12.6°C 10% Calm Calm -- 29.61 in1002.7 mb 0.00 in0.0 mm 0.00 in0.0 mm 0.00 in0.0 mm
11:49 AM 67.8°F19.9°C 9.3°F-12.6°C 10% 0.7 mph E1.1 kmh E 1.1 mph1.8 kmh 29.60 in1002.4 mb 0.00 in0.0 mm 0.00 in0.0 mm 0.00 in0.0 mm
11:50 AM 67.8°F19.9°C 9.3°F-12.6°C 10% Calm Calm -- 29.60 in1002.4 mb 0.00 in0.0 mm 0.00 in0.0 mm 0.00 in0.0 mm
11:51 AM 68.0°F20.0°C 9.4°F-12.6°C 10% 0.2 mph E0.3 kmh E 1.1 mph1.8 kmh 29.60 in1002.4 mb 0.00 in0.0 mm 0.00 in0.0 mm 0.00 in0.0 mm
11:52 AM 68.4°F20.2°C 9.7°F-12.4°C 10% Calm Calm -- 29.60 in1002.4 mb 0.00 in0.0 mm 0.00 in0.0 mm 0.00 in0.0 mm
11:53 AM 68.4°F20.2°C 9.7°F-12.4°C 10% Calm Calm -- 29.60 in1002.4 mb 0.00 in0.0 mm 0.00 in0.0 mm 0.00 in0.0 mm
11:54 AM 68.4°F20.2°C 9.7°F-12.4°C 10% 0.2 mph E0.3 kmh E 1.1 mph1.8 kmh 29.60 in1002.4 mb 0.00 in0.0 mm 0.00 in0.0 mm 0.00 in0.0 mm
11:55 AM 68.5°F20.3°C 9.8°F-12.3°C 10% 0.2 mph E0.3 kmh E 1.1 mph1.8 kmh 29.61 in1002.7 mb 0.00 in0.0 mm 0.00 in0.0 mm 0.00 in0.0 mm
11:56 AM 68.5°F20.3°C 9.8°F-12.3°C 10% 1.3 mph E2.1 kmh E 2.2 mph3.5 kmh 29.60 in1002.4 mb 0.00 in0.0 mm 0.00 in0.0 mm 0.00 in0.0 mm
11:57 AM 68.5°F20.3°C 9.8°F-12.3°C 10% Calm Calm -- 29.61 in1002.7 mb 0.00 in0.0 mm 0.00 in0.0 mm 0.00 in0.0 mm
11:58 AM 68.5°F20.3°C 9.8°F-12.3°C 10% 0.9 mph E1.4 kmh E 1.1 mph1.8 kmh 29.60 in1002.4 mb 0.00 in0.0 mm 0.00 in0.0 mm 0.00 in0.0 mm
11:59 AM 68.5°F20.3°C 9.8°F-12.3°C 10% 0.2 mph E0.3 kmh E 1.1 mph1.8 kmh 29.60 in1002.4 mb 0.00 in0.0 mm 0.00 in0.0 mm 0.00 in0.0 mm
12:00 PM 68.9°F20.5°C 10.1°F-12.2°C 10% 0.2 mph E0.3 kmh E 1.1 mph1.8 kmh 29.60 in1002.4 mb 0.00 in0.0 mm 0.00 in0.0 mm 0.00 in0.0 mm
12:01 PM 69.1°F20.6°C 10.3°F-12.1°C 10% Calm Calm -- 29.60 in1002.4 mb 0.00 in0.0 mm 0.00 in0.0 mm 0.00 in0.0 mm
12:02 PM 69.3°F20.7°C 10.4°F-12.0°C 10% 0.7 mph E1.1 kmh E 1.1 mph1.8 kmh 29.59 in1002.0 mb 0.00 in0.0 mm 0.00 in0.0 mm 0.00 in0.0 mm
12:03 PM 69.3°F20.7°C 10.4°F-12.0°C 10% 0.9 mph E1.4 kmh E 1.1 mph1.8 kmh 29.60 in1002.4 mb 0.00 in0.0 mm 0.00 in0.0 mm 0.00 in0.0 mm
12:04 PM 69.1°F20.6°C 10.3°F-12.1°C 10% 0.2 mph ESE0.3 kmh ESE 1.1 mph1.8 kmh 29.60 in1002.4 mb 0.00 in0.0 mm 0.00 in0.0 mm 0.00 in0.0 mm
12:05 PM 69.1°F20.6°C 10.3°F-12.1°C 10% 0.4 mph ESE0.6 kmh ESE 1.1 mph1.8 kmh 29.60 in1002.4 mb 0.00 in0.0 mm 0.00 in0.0 mm 0.00 in0.0 mm
12:06 PM 69.1°F20.6°C 10.3°F-12.1°C 10% 0.7 mph ESE1.1 kmh ESE 1.1 mph1.8 kmh 29.60 in1002.4 mb 0.00 in0.0 mm 0.00 in0.0 mm 0.00 in0.0 mm
12:07 PM 69.1°F20.6°C 10.3°F-12.1°C 10% Calm Calm -- 29.59 in1002.0 mb 0.00 in0.0 mm 0.00 in0.0 mm 0.00 in0.0 mm
12:08 PM 68.9°F20.5°C 10.1°F-12.2°C 10% 0.7 mph E1.1 kmh E 1.1 mph1.8 kmh 29.60 in1002.4 mb 0.00 in0.0 mm 0.00 in0.0 mm 0.00 in0.0 mm
12:09 PM 68.9°F20.5°C 10.1°F-12.2°C 10% 0.9 mph ESE1.4 kmh ESE 1.1 mph1.8 kmh 29.59 in1002.0 mb 0.00 in0.0 mm 0.00 in0.0 mm 0.00 in0.0 mm
12:10 PM 68.9°F20.5°C 10.1°F-12.2°C 10% 1.3 mph ESE2.1 kmh ESE 2.2 mph3.5 kmh 29.59 in1002.0 mb 0.00 in0.0 mm 0.00 in0.0 mm 0.00 in0.0 mm
12:11 PM 68.9°F20.5°C 10.1°F-12.2°C 10% 0.7 mph ESE1.1 kmh ESE 1.1 mph1.8 kmh 29.60 in1002.4 mb 0.00 in0.0 mm 0.00 in0.0 mm 0.00 in0.0 mm
12:12 PM 68.9°F20.5°C 10.1°F-12.2°C 10% 0.7 mph ESE1.1 kmh ESE 1.1 mph1.8 kmh 29.60 in1002.4 mb 0.00 in0.0 mm 0.00 in0.0 mm 0.00 in0.0 mm
12:13 PM 69.1°F20.6°C 10.3°F-12.1°C 10% 0.4 mph ESE0.6 kmh ESE 1.1 mph1.8 kmh 29.60 in1002.4 mb 0.00 in0.0 mm 0.00 in0.0 mm 0.00 in0.0 mm
12:14 PM 69.1°F20.6°C 10.3°F-12.1°C 10% 0.7 mph SE1.1 kmh SE 1.1 mph1.8 kmh 29.59 in1002.0 mb 0.00 in0.0 mm 0.00 in0.0 mm 0.00 in0.0 mm
12:15 PM 69.1°F20.6°C 10.3°F-12.1°C 10% 0.2 mph SE0.3 kmh SE 1.1 mph1.8 kmh 29.59 in1002.0 mb 0.00 in0.0 mm 0.00 in0.0 mm 0.00 in0.0 mm
12:16 PM 69.1°F20.6°C 10.3°F-12.1°C 10% Calm Calm -- 29.60 in1002.4 mb 0.00 in0.0 mm 0.00 in0.0 mm 0.00 in0.0 mm
12:17 PM 69.3°F20.7°C 10.4°F-12.0°C 10% 0.7 mph SE1.1 kmh SE 1.1 mph1.8 kmh 29.59 in1002.0 mb 0.00 in0.0 mm 0.00 in0.0 mm 0.00 in0.0 mm
12:18 PM 69.3°F20.7°C 10.4°F-12.0°C 10% 0.2 mph ESE0.3 kmh ESE 1.1 mph1.8 kmh 29.59 in1002.0 mb 0.00 in0.0 mm 0.00 in0.0 mm 0.00 in0.0 mm
12:19 PM 69.3°F20.7°C 10.4°F-12.0°C 10% 0.2 mph ESE0.3 kmh ESE 1.1 mph1.8 kmh 29.59 in1002.0 mb 0.00 in0.0 mm 0.00 in0.0 mm 0.00 in0.0 mm
12:20 PM 69.3°F20.7°C 10.4°F-12.0°C 10% 0.2 mph ESE0.3 kmh ESE 1.1 mph1.8 kmh 29.59 in1002.0 mb 0.00 in0.0 mm 0.00 in0.0 mm 0.00 in0.0 mm
12:21 PM 69.4°F20.8°C 10.5°F-11.9°C 10% 1.6 mph ESE2.6 kmh ESE 2.2 mph3.5 kmh 29.59 in1002.0 mb 0.00 in0.0 mm 0.00 in0.0 mm 0.00 in0.0 mm
12:22 PM 69.4°F20.8°C 10.5°F-11.9°C 10% Calm Calm -- 29.60 in1002.4 mb 0.00 in0.0 mm 0.00 in0.0 mm 0.00 in0.0 mm
12:23 PM 69.4°F20.8°C 10.5°F-11.9°C 10% 0.7 mph E1.1 kmh E 1.1 mph1.8 kmh 29.58 in1001.7 mb 0.00 in0.0 mm 0.00 in0.0 mm 0.00 in0.0 mm
12:24 PM 69.4°F20.8°C 10.5°F-11.9°C 10% 0.7 mph E1.1 kmh E 2.2 mph3.5 kmh 29.59 in1002.0 mb 0.00 in0.0 mm 0.00 in0.0 mm 0.00 in0.0 mm
12:25 PM 69.4°F20.8°C 10.5°F-11.9°C 10% Calm Calm -- 29.58 in1001.7 mb 0.00 in0.0 mm 0.00 in0.0 mm 0.00 in0.0 mm
12:26 PM 69.3°F20.7°C 10.4°F-12.0°C 10% 1.3 mph ESE2.1 kmh ESE 2.2 mph3.5 kmh 29.59 in1002.0 mb 0.00 in0.0 mm 0.00 in0.0 mm 0.00 in0.0 mm
12:27 PM 69.3°F20.7°C 10.4°F-12.0°C 10% 1.3 mph S2.1 kmh S 2.2 mph3.5 kmh 29.58 in1001.7 mb 0.00 in0.0 mm 0.00 in0.0 mm 0.00 in0.0 mm
12:28 PM 69.3°F20.7°C 10.4°F-12.0°C 10% 0.9 mph S1.4 kmh S 2.2 mph3.5 kmh 29.59 in1002.0 mb 0.00 in0.0 mm 0.00 in0.0 mm 0.00 in0.0 mm
12:29 PM 69.4°F20.8°C 10.5°F-11.9°C 10% 0.9 mph SE1.4 kmh SE 1.1 mph1.8 kmh 29.59 in1002.0 mb 0.00 in0.0 mm 0.00 in0.0 mm 0.00 in0.0 mm
12:30 PM 69.4°F20.8°C 10.5°F-11.9°C 10% 0.7 mph SE1.1 kmh SE 1.1 mph1.8 kmh 29.59 in1002.0 mb 0.00 in0.0 mm 0.00 in0.0 mm 0.00 in0.0 mm
12:31 PM 69.4°F20.8°C 10.5°F-11.9°C 10% 2.7 mph SE4.3 kmh SE 3.4 mph5.5 kmh 29.58 in1001.7 mb 0.00 in0.0 mm 0.00 in0.0 mm 0.00 in0.0 mm
12:32 PM 69.6°F20.9°C 10.6°F-11.9°C 10% 1.1 mph SE1.8 kmh SE 1.1 mph1.8 kmh 29.58 in1001.7 mb 0.00 in0.0 mm 0.00 in0.0 mm 0.00 in0.0 mm
12:33 PM 69.6°F20.9°C 10.6°F-11.9°C 10% 0.7 mph SE1.1 kmh SE 1.1 mph1.8 kmh 29.59 in1002.0 mb 0.00 in0.0 mm 0.00 in0.0 mm 0.00 in0.0 mm
12:34 PM 69.8°F21.0°C 10.8°F-11.8°C 10% 0.9 mph E1.4 kmh E 2.2 mph3.5 kmh 29.59 in1002.0 mb 0.00 in0.0 mm 0.00 in0.0 mm 0.00 in0.0 mm
12:35 PM 69.8°F21.0°C 10.8°F-11.8°C 10% 0.4 mph E0.6 kmh E 1.1 mph1.8 kmh 29.59 in1002.0 mb 0.00 in0.0 mm 0.00 in0.0 mm 0.00 in0.0 mm
12:36 PM 69.8°F21.0°C 10.8°F-11.8°C 10% Calm Calm -- 29.58 in1001.7 mb 0.00 in0.0 mm 0.00 in0.0 mm 0.00 in0.0 mm
12:37 PM 69.8°F21.0°C 10.8°F-11.8°C 10% 1.3 mph E2.1 kmh E 2.2 mph3.5 kmh 29.58 in1001.7 mb 0.00 in0.0 mm 0.00 in0.0 mm 0.00 in0.0 mm
12:38 PM 69.8°F21.0°C 10.8°F-11.8°C 10% Calm Calm -- 29.59 in1002.0 mb 0.00 in0.0 mm 0.00 in0.0 mm 0.00 in0.0 mm
12:39 PM 69.8°F21.0°C 10.8°F-11.8°C 10% 2.9 mph NNE4.7 kmh NNE 3.4 mph5.5 kmh 29.58 in1001.7 mb 0.00 in0.0 mm 0.00 in0.0 mm 0.00 in0.0 mm
12:40 PM 69.6°F20.9°C 10.6°F-11.9°C 10% 2.0 mph ENE3.2 kmh ENE 3.4 mph5.5 kmh 29.58 in1001.7 mb 0.00 in0.0 mm 0.00 in0.0 mm 0.00 in0.0 mm
12:41 PM 69.6°F20.9°C 10.6°F-11.9°C 10% 1.8 mph E2.9 kmh E 2.2 mph3.5 kmh 29.59 in1002.0 mb 0.00 in0.0 mm 0.00 in0.0 mm 0.00 in0.0 mm
12:42 PM 69.6°F20.9°C 10.6°F-11.9°C 10% 1.8 mph S2.9 kmh S 2.2 mph3.5 kmh 29.59 in1002.0 mb 0.00 in0.0 mm 0.00 in0.0 mm 0.00 in0.0 mm
12:43 PM 69.6°F20.9°C 10.6°F-11.9°C 10% 0.7 mph S1.1 kmh S 1.1 mph1.8 kmh 29.58 in1001.7 mb 0.00 in0.0 mm 0.00 in0.0 mm 0.00 in0.0 mm
12:44 PM 69.3°F20.7°C 10.4°F-12.0°C 10% 0.2 mph S0.3 kmh S 1.1 mph1.8 kmh 29.58 in1001.7 mb 0.00 in0.0 mm 0.00 in0.0 mm 0.00 in0.0 mm
12:45 PM 69.3°F20.7°C 10.4°F-12.0°C 10% 0.2 mph SSE0.3 kmh SSE 1.1 mph1.8 kmh 29.58 in1001.7 mb 0.00 in0.0 mm 0.00 in0.0 mm 0.00 in0.0 mm
12:46 PM 69.3°F20.7°C 10.4°F-12.0°C 10% 0.9 mph ESE1.4 kmh ESE 1.1 mph1.8 kmh 29.58 in1001.7 mb 0.00 in0.0 mm 0.00 in0.0 mm 0.00 in0.0 mm
12:47 PM 69.4°F20.8°C 10.5°F-11.9°C 10% 1.8 mph SE2.9 kmh SE 2.2 mph3.5 kmh 29.58 in1001.7 mb 0.00 in0.0 mm 0.00 in0.0 mm 0.00 in0.0 mm
12:48 PM 69.4°F20.8°C 10.5°F-11.9°C 10% 1.8 mph SSE2.9 kmh SSE 3.4 mph5.5 kmh 29.58 in1001.7 mb 0.00 in0.0 mm 0.00 in0.0 mm 0.00 in0.0 mm
12:49 PM 69.4°F20.8°C 10.5°F-11.9°C 10% 0.7 mph SSE1.1 kmh SSE 1.1 mph1.8 kmh 29.58 in1001.7 mb 0.00 in0.0 mm 0.00 in0.0 mm 0.00 in0.0 mm
12:50 PM 69.3°F20.7°C 10.4°F-12.0°C 10% 1.6 mph E2.6 kmh E 2.2 mph3.5 kmh 29.58 in1001.7 mb 0.00 in0.0 mm 0.00 in0.0 mm 0.00 in0.0 mm
12:51 PM 69.3°F20.7°C 10.4°F-12.0°C 10% 0.9 mph E1.4 kmh E 1.1 mph1.8 kmh 29.58 in1001.7 mb 0.00 in0.0 mm 0.00 in0.0 mm 0.00 in0.0 mm
12:52 PM 69.4°F20.8°C 10.5°F-11.9°C 10% 1.3 mph ESE2.1 kmh ESE 2.2 mph3.5 kmh 29.58 in1001.7 mb 0.00 in0.0 mm 0.00 in0.0 mm 0.00 in0.0 mm
12:53 PM 69.6°F20.9°C 10.6°F-11.9°C 10% 0.2 mph ESE0.3 kmh ESE 1.1 mph1.8 kmh 29.58 in1001.7 mb 0.00 in0.0 mm 0.00 in0.0 mm 0.00 in0.0 mm
12:54 PM 69.6°F20.9°C 10.6°F-11.9°C 10% 1.3 mph SE2.1 kmh SE 2.2 mph3.5 kmh 29.58 in1001.7 mb 0.00 in0.0 mm 0.00 in0.0 mm 0.00 in0.0 mm
12:55 PM 69.8°F21.0°C 10.8°F-11.8°C 10% 0.9 mph SE1.4 kmh SE 1.1 mph1.8 kmh 29.58 in1001.7 mb 0.00 in0.0 mm 0.00 in0.0 mm 0.00 in0.0 mm
12:56 PM 69.8°F21.0°C 10.8°F-11.8°C 10% 2.2 mph S3.5 kmh S 3.4 mph5.5 kmh 29.57 in1001.4 mb 0.00 in0.0 mm 0.00 in0.0 mm 0.00 in0.0 mm
12:57 PM 69.6°F20.9°C 10.6°F-11.9°C 10% 0.7 mph SW1.1 kmh SW 1.1 mph1.8 kmh 29.58 in1001.7 mb 0.00 in0.0 mm 0.00 in0.0 mm 0.00 in0.0 mm
12:58 PM 69.6°F20.9°C 10.6°F-11.9°C 10% 1.8 mph S2.9 kmh S 2.2 mph3.5 kmh 29.58 in1001.7 mb 0.00 in0.0 mm 0.00 in0.0 mm 0.00 in0.0 mm
12:59 PM 69.4°F20.8°C 10.5°F-11.9°C 10% 0.9 mph SE1.4 kmh SE 1.1 mph1.8 kmh 29.58 in1001.7 mb 0.00 in0.0 mm 0.00 in0.0 mm 0.00 in0.0 mm
01:00 PM 69.6°F20.9°C 10.6°F-11.9°C 10% 0.2 mph SSE0.3 kmh SSE 1.1 mph1.8 kmh 29.58 in1001.7 mb 0.00 in0.0 mm 0.00 in0.0 mm 0.00 in0.0 mm
01:01 PM 69.6°F20.9°C 10.6°F-11.9°C 10% 0.2 mph SE0.3 kmh SE 1.1 mph1.8 kmh 29.58 in1001.7 mb 0.00 in0.0 mm 0.00 in0.0 mm 0.00 in0.0 mm
01:02 PM 69.6°F20.9°C 10.6°F-11.9°C 10% 0.2 mph SE0.3 kmh SE 1.1 mph1.8 kmh 29.58 in1001.7 mb 0.00 in0.0 mm 0.00 in0.0 mm 0.00 in0.0 mm
01:03 PM 69.8°F21.0°C 10.8°F-11.8°C 10% Calm Calm -- 29.58 in1001.7 mb 0.00 in0.0 mm 0.00 in0.0 mm 0.00 in0.0 mm
01:04 PM 69.8°F21.0°C 10.8°F-11.8°C 10% Calm Calm -- 29.58 in1001.7 mb 0.00 in0.0 mm 0.00 in0.0 mm 0.00 in0.0 mm
01:05 PM 70.0°F21.1°C 10.9°F-11.7°C 10% 0.4 mph SE0.6 kmh SE 1.1 mph1.8 kmh 29.57 in1001.4 mb 0.00 in0.0 mm 0.00 in0.0 mm 0.00 in0.0 mm
01:06 PM 70.0°F21.1°C 10.9°F-11.7°C 10% 1.3 mph SE2.1 kmh SE 2.2 mph3.5 kmh 29.58 in1001.7 mb 0.00 in0.0 mm 0.00 in0.0 mm 0.00 in0.0 mm
01:07 PM 70.0°F21.1°C 10.9°F-11.7°C 10% 2.5 mph S4.0 kmh S 3.4 mph5.5 kmh 29.57 in1001.4 mb 0.00 in0.0 mm 0.00 in0.0 mm 0.00 in0.0 mm
01:08 PM 70.0°F21.1°C 10.9°F-11.7°C 10% 1.8 mph S2.9 kmh S 2.2 mph3.5 kmh 29.58 in1001.7 mb 0.00 in0.0 mm 0.00 in0.0 mm 0.00 in0.0 mm
01:09 PM 70.0°F21.1°C 10.9°F-11.7°C 10% 1.6 mph S2.6 kmh S 2.2 mph3.5 kmh 29.58 in1001.7 mb 0.00 in0.0 mm 0.00 in0.0 mm 0.00 in0.0 mm
01:10 PM 70.0°F21.1°C 10.9°F-11.7°C 10% 1.1 mph S1.8 kmh S 1.1 mph1.8 kmh 29.58 in1001.7 mb 0.00 in0.0 mm 0.00 in0.0 mm 0.00 in0.0 mm
01:11 PM 70.0°F21.1°C 10.9°F-11.7°C 10% Calm Calm -- 29.58 in1001.7 mb 0.00 in0.0 mm 0.00 in0.0 mm 0.00 in0.0 mm
01:12 PM 70.0°F21.1°C 10.9°F-11.7°C 10% Calm Calm -- 29.57 in1001.4 mb 0.00 in0.0 mm 0.00 in0.0 mm 0.00 in0.0 mm
01:13 PM 70.0°F21.1°C 10.9°F-11.7°C 10% 3.1 mph WSW5.0 kmh WSW 4.5 mph7.2 kmh 29.57 in1001.4 mb 0.00 in0.0 mm 0.00 in0.0 mm 0.00 in0.0 mm
01:14 PM 70.0°F21.1°C 10.9°F-11.7°C 10% 2.0 mph S3.2 kmh S 2.2 mph3.5 kmh 29.57 in1001.4 mb 0.00 in0.0 mm 0.00 in0.0 mm 0.00 in0.0 mm
01:15 PM 69.6°F20.9°C 10.6°F-11.9°C 10% 0.9 mph SSE1.4 kmh SSE 2.2 mph3.5 kmh 29.57 in1001.4 mb 0.00 in0.0 mm 0.00 in0.0 mm 0.00 in0.0 mm
01:16 PM 69.6°F20.9°C 10.6°F-11.9°C 10% 0.7 mph SSE1.1 kmh SSE 1.1 mph1.8 kmh 29.58 in1001.7 mb 0.00 in0.0 mm 0.00 in0.0 mm 0.00 in0.0 mm
01:17 PM 69.6°F20.9°C 10.6°F-11.9°C 10% 1.3 mph SSE2.1 kmh SSE 2.2 mph3.5 kmh 29.57 in1001.4 mb 0.00 in0.0 mm 0.00 in0.0 mm 0.00 in0.0 mm
01:18 PM 69.6°F20.9°C 10.6°F-11.9°C 10% 0.7 mph SSE1.1 kmh SSE 1.1 mph1.8 kmh 29.57 in1001.4 mb 0.00 in0.0 mm 0.00 in0.0 mm 0.00 in0.0 mm
01:19 PM 69.6°F20.9°C 10.6°F-11.9°C 10% Calm Calm -- 29.57 in1001.4 mb 0.00 in0.0 mm 0.00 in0.0 mm 0.00 in0.0 mm
01:20 PM 69.6°F20.9°C 10.6°F-11.9°C 10% 2.0 mph S3.2 kmh S 2.2 mph3.5 kmh 29.57 in1001.4 mb 0.00 in0.0 mm 0.00 in0.0 mm 0.00 in0.0 mm
01:21 PM 69.6°F20.9°C 10.6°F-11.9°C 10% 2.2 mph S3.5 kmh S 2.2 mph3.5 kmh 29.57 in1001.4 mb 0.00 in0.0 mm 0.00 in0.0 mm 0.00 in0.0 mm
01:22 PM 69.6°F20.9°C 10.6°F-11.9°C 10% 0.9 mph S1.4 kmh S 1.1 mph1.8 kmh 29.57 in1001.4 mb 0.00 in0.0 mm 0.00 in0.0 mm 0.00 in0.0 mm
01:23 PM 69.6°F20.9°C 10.6°F-11.9°C 10% 1.6 mph SSW2.6 kmh SSW 2.2 mph3.5 kmh 29.56 in1001.0 mb 0.00 in0.0 mm 0.00 in0.0 mm 0.00 in0.0 mm
01:24 PM 69.4°F20.8°C 10.5°F-11.9°C 10% 0.7 mph WSW1.1 kmh WSW 1.1 mph1.8 kmh 29.57 in1001.4 mb 0.00 in0.0 mm 0.00 in0.0 mm 0.00 in0.0 mm
01:25 PM 69.4°F20.8°C 10.5°F-11.9°C 10% 0.2 mph WSW0.3 kmh WSW 1.1 mph1.8 kmh 29.57 in1001.4 mb 0.00 in0.0 mm 0.00 in0.0 mm 0.00 in0.0 mm
01:26 PM 69.4°F20.8°C 10.5°F-11.9°C 10% 0.2 mph ESE0.3 kmh ESE 1.1 mph1.8 kmh 29.56 in1001.0 mb 0.00 in0.0 mm 0.00 in0.0 mm 0.00 in0.0 mm
01:27 PM 69.6°F20.9°C 10.6°F-11.9°C 10% 0.7 mph ESE1.1 kmh ESE 1.1 mph1.8 kmh 29.57 in1001.4 mb 0.00 in0.0 mm 0.00 in0.0 mm 0.00 in0.0 mm
01:28 PM 70.0°F21.1°C 10.9°F-11.7°C 10% 0.2 mph ESE0.3 kmh ESE 1.1 mph1.8 kmh 29.57 in1001.4 mb 0.00 in0.0 mm 0.00 in0.0 mm 0.00 in0.0 mm
01:29 PM 70.0°F21.1°C 10.9°F-11.7°C 10% 1.3 mph S2.1 kmh S 2.2 mph3.5 kmh 29.57 in1001.4 mb 0.00 in0.0 mm 0.00 in0.0 mm 0.00 in0.0 mm
01:30 PM 70.0°F21.1°C 10.9°F-11.7°C 10% 0.2 mph S0.3 kmh S 1.1 mph1.8 kmh 29.57 in1001.4 mb 0.00 in0.0 mm 0.00 in0.0 mm 0.00 in0.0 mm
01:31 PM 70.0°F21.1°C 10.9°F-11.7°C 10% Calm Calm -- 29.57 in1001.4 mb 0.00 in0.0 mm 0.00 in0.0 mm 0.00 in0.0 mm
01:32 PM 70.0°F21.1°C 10.9°F-11.7°C 10% 0.2 mph S0.3 kmh S 1.1 mph1.8 kmh 29.57 in1001.4 mb 0.00 in0.0 mm 0.00 in0.0 mm 0.00 in0.0 mm
01:33 PM 70.0°F21.1°C 10.9°F-11.7°C 10% 0.2 mph S0.3 kmh S 1.1 mph1.8 kmh 29.57 in1001.4 mb 0.00 in0.0 mm 0.00 in0.0 mm 0.00 in0.0 mm
01:34 PM 70.2°F21.2°C 11.1°F-11.6°C 10% 3.1 mph ENE5.0 kmh ENE 4.5 mph7.2 kmh 29.57 in1001.4 mb 0.00 in0.0 mm 0.00 in0.0 mm 0.00 in0.0 mm
01:35 PM 70.2°F21.2°C 11.1°F-11.6°C 10% 0.9 mph E1.4 kmh E 1.1 mph1.8 kmh 29.57 in1001.4 mb 0.00 in0.0 mm 0.00 in0.0 mm 0.00 in0.0 mm
01:36 PM 70.0°F21.1°C 10.9°F-11.7°C 10% Calm Calm -- 29.57 in1001.4 mb 0.00 in0.0 mm 0.00 in0.0 mm 0.00 in0.0 mm
01:37 PM 70.0°F21.1°C 10.9°F-11.7°C 10% Calm Calm -- 29.57 in1001.4 mb 0.00 in0.0 mm 0.00 in0.0 mm 0.00 in0.0 mm
01:38 PM 70.0°F21.1°C 10.9°F-11.7°C 10% Calm Calm -- 29.57 in1001.4 mb 0.00 in0.0 mm 0.00 in0.0 mm 0.00 in0.0 mm
01:39 PM 70.0°F21.1°C 10.9°F-11.7°C 10% 1.3 mph E2.1 kmh E 2.2 mph3.5 kmh 29.57 in1001.4 mb 0.00 in0.0 mm 0.00 in0.0 mm 0.00 in0.0 mm
01:40 PM 70.0°F21.1°C 10.9°F-11.7°C 10% 0.7 mph E1.1 kmh E 1.1 mph1.8 kmh 29.57 in1001.4 mb 0.00 in0.0 mm 0.00 in0.0 mm 0.00 in0.0 mm
01:41 PM 70.0°F21.1°C 10.9°F-11.7°C 10% Calm Calm -- 29.56 in1001.0 mb 0.00 in0.0 mm 0.00 in0.0 mm 0.00 in0.0 mm
01:42 PM 70.2°F21.2°C 11.1°F-11.6°C 10% Calm Calm -- 29.57 in1001.4 mb 0.00 in0.0 mm 0.00 in0.0 mm 0.00 in0.0 mm
01:43 PM 70.2°F21.2°C 11.1°F-11.6°C 10% 0.9 mph E1.4 kmh E 1.1 mph1.8 kmh 29.57 in1001.4 mb 0.00 in0.0 mm 0.00 in0.0 mm 0.00 in0.0 mm
01:44 PM 70.2°F21.2°C 11.1°F-11.6°C 10% 0.2 mph E0.3 kmh E 1.1 mph1.8 kmh 29.57 in1001.4 mb 0.00 in0.0 mm 0.00 in0.0 mm 0.00 in0.0 mm
01:45 PM 70.2°F21.2°C 11.1°F-11.6°C 10% Calm Calm -- 29.57 in1001.4 mb 0.00 in0.0 mm 0.00 in0.0 mm 0.00 in0.0 mm
01:46 PM 70.0°F21.1°C 10.9°F-11.7°C 10% Calm Calm -- 29.56 in1001.0 mb 0.00 in0.0 mm 0.00 in0.0 mm 0.00 in0.0 mm
01:47 PM 70.0°F21.1°C 10.9°F-11.7°C 10% Calm Calm -- 29.57 in1001.4 mb 0.00 in0.0 mm 0.00 in0.0 mm 0.00 in0.0 mm
01:48 PM 70.0°F21.1°C 10.9°F-11.7°C 10% 1.1 mph E1.8 kmh E 2.2 mph3.5 kmh 29.56 in1001.0 mb 0.00 in0.0 mm 0.00 in0.0 mm 0.00 in0.0 mm
01:49 PM 70.0°F21.1°C 10.9°F-11.7°C 10% 0.4 mph E0.6 kmh E 1.1 mph1.8 kmh 29.57 in1001.4 mb 0.00 in0.0 mm 0.00 in0.0 mm 0.00 in0.0 mm
01:50 PM 70.0°F21.1°C 10.9°F-11.7°C 10% 1.8 mph SSE2.9 kmh SSE 3.4 mph5.5 kmh 29.56 in1001.0 mb 0.00 in0.0 mm 0.00 in0.0 mm 0.00 in0.0 mm
01:51 PM 70.0°F21.1°C 10.9°F-11.7°C 10% 1.1 mph SE1.8 kmh SE 1.1 mph1.8 kmh 29.57 in1001.4 mb 0.00 in0.0 mm 0.00 in0.0 mm 0.00 in0.0 mm
01:52 PM 70.0°F21.1°C 10.9°F-11.7°C 10% Calm Calm -- 29.56 in1001.0 mb 0.00 in0.0 mm 0.00 in0.0 mm 0.00 in0.0 mm
01:53 PM 70.0°F21.1°C 10.9°F-11.7°C 10% Calm Calm -- 29.56 in1001.0 mb 0.00 in0.0 mm 0.00 in0.0 mm 0.00 in0.0 mm
01:54 PM 70.0°F21.1°C 10.9°F-11.7°C 10% Calm Calm -- 29.56 in1001.0 mb 0.00 in0.0 mm 0.00 in0.0 mm 0.00 in0.0 mm
01:55 PM 70.0°F21.1°C 10.9°F-11.7°C 10% 0.7 mph E1.1 kmh E 1.1 mph1.8 kmh 29.55 in1000.7 mb 0.00 in0.0 mm 0.00 in0.0 mm 0.00 in0.0 mm
01:56 PM 70.0°F21.1°C 10.9°F-11.7°C 10% 0.9 mph E1.4 kmh E 1.1 mph1.8 kmh 29.56 in1001.0 mb 0.00 in0.0 mm 0.00 in0.0 mm 0.00 in0.0 mm
01:57 PM 70.0°F21.1°C 10.9°F-11.7°C 10% Calm Calm -- 29.56 in1001.0 mb 0.00 in0.0 mm 0.00 in0.0 mm 0.00 in0.0 mm
01:58 PM 70.0°F21.1°C 10.9°F-11.7°C 10% 0.4 mph E0.6 kmh E 1.1 mph1.8 kmh 29.56 in1001.0 mb 0.00 in0.0 mm 0.00 in0.0 mm 0.00 in0.0 mm
01:59 PM 70.0°F21.1°C 10.9°F-11.7°C 10% Calm Calm -- 29.56 in1001.0 mb 0.00 in0.0 mm 0.00 in0.0 mm 0.00 in0.0 mm
02:00 PM 70.0°F21.1°C 10.9°F-11.7°C 10% 0.2 mph E0.3 kmh E 1.1 mph1.8 kmh 29.56 in1001.0 mb 0.00 in0.0 mm 0.00 in0.0 mm 0.00 in0.0 mm
02:01 PM 70.0°F21.1°C 10.9°F-11.7°C 10% Calm Calm -- 29.56 in1001.0 mb 0.00 in0.0 mm 0.00 in0.0 mm 0.00 in0.0 mm
02:02 PM 70.0°F21.1°C 10.9°F-11.7°C 10% Calm Calm -- 29.56 in1001.0 mb 0.00 in0.0 mm 0.00 in0.0 mm 0.00 in0.0 mm
02:03 PM 70.2°F21.2°C 11.1°F-11.6°C 10% Calm Calm -- 29.56 in1001.0 mb 0.00 in0.0 mm 0.00 in0.0 mm 0.00 in0.0 mm
02:04 PM 70.3°F21.3°C 11.2°F-11.6°C 10% 0.2 mph E0.3 kmh E 1.1 mph1.8 kmh 29.56 in1001.0 mb 0.00 in0.0 mm 0.00 in0.0 mm 0.00 in0.0 mm
02:05 PM 70.3°F21.3°C 11.2°F-11.6°C 10% 0.7 mph E1.1 kmh E 1.1 mph1.8 kmh 29.57 in1001.4 mb 0.00 in0.0 mm 0.00 in0.0 mm 0.00 in0.0 mm
02:06 PM 70.2°F21.2°C 11.1°F-11.6°C 10% Calm Calm -- 29.56 in1001.0 mb 0.00 in0.0 mm 0.00 in0.0 mm 0.00 in0.0 mm
02:07 PM 70.2°F21.2°C 11.1°F-11.6°C 10% 0.7 mph E1.1 kmh E 1.1 mph1.8 kmh 29.56 in1001.0 mb 0.00 in0.0 mm 0.00 in0.0 mm 0.00 in0.0 mm
02:08 PM 70.2°F21.2°C 11.1°F-11.6°C 10% 0.2 mph E0.3 kmh E 1.1 mph1.8 kmh 29.56 in1001.0 mb 0.00 in0.0 mm 0.00 in0.0 mm 0.00 in0.0 mm
02:09 PM 70.0°F21.1°C 10.9°F-11.7°C 10% Calm Calm -- 29.56 in1001.0 mb 0.00 in0.0 mm 0.00 in0.0 mm 0.00 in0.0 mm
02:10 PM 70.0°F21.1°C 10.9°F-11.7°C 10% 0.7 mph E1.1 kmh E 1.1 mph1.8 kmh 29.55 in1000.7 mb 0.00 in0.0 mm 0.00 in0.0 mm 0.00 in0.0 mm
02:11 PM 69.8°F21.0°C 10.8°F-11.8°C 10% 0.7 mph E1.1 kmh E 1.1 mph1.8 kmh 29.56 in1001.0 mb 0.00 in0.0 mm 0.00 in0.0 mm 0.00 in0.0 mm
02:12 PM 69.8°F21.0°C 10.8°F-11.8°C 10% 0.2 mph E0.3 kmh E 1.1 mph1.8 kmh 29.56 in1001.0 mb 0.00 in0.0 mm 0.00 in0.0 mm 0.00 in0.0 mm
02:13 PM 69.8°F21.0°C 10.8°F-11.8°C 10% 0.7 mph E1.1 kmh E 1.1 mph1.8 kmh 29.55 in1000.7 mb 0.00 in0.0 mm 0.00 in0.0 mm 0.00 in0.0 mm
02:14 PM 69.8°F21.0°C 10.8°F-11.8°C 10% 1.3 mph E2.1 kmh E 2.2 mph3.5 kmh 29.56 in1001.0 mb 0.00 in0.0 mm 0.00 in0.0 mm 0.00 in0.0 mm
02:15 PM 69.8°F21.0°C 10.8°F-11.8°C 10% 1.1 mph ESE1.8 kmh ESE 1.1 mph1.8 kmh 29.55 in1000.7 mb 0.00 in0.0 mm 0.00 in0.0 mm 0.00 in0.0 mm
02:16 PM 69.6°F20.9°C 10.6°F-11.9°C 10% 0.2 mph ESE0.3 kmh ESE 1.1 mph1.8 kmh 29.55 in1000.7 mb 0.00 in0.0 mm 0.00 in0.0 mm 0.00 in0.0 mm
02:17 PM 69.6°F20.9°C 10.6°F-11.9°C 10% 0.2 mph ESE0.3 kmh ESE 1.1 mph1.8 kmh 29.56 in1001.0 mb 0.00 in0.0 mm 0.00 in0.0 mm 0.00 in0.0 mm
02:18 PM 69.6°F20.9°C 10.6°F-11.9°C 10% 1.3 mph ESE2.1 kmh ESE 2.2 mph3.5 kmh 29.56 in1001.0 mb 0.00 in0.0 mm 0.00 in0.0 mm 0.00 in0.0 mm
02:19 PM 69.6°F20.9°C 10.6°F-11.9°C 10% Calm Calm -- 29.56 in1001.0 mb 0.00 in0.0 mm 0.00 in0.0 mm 0.00 in0.0 mm
02:20 PM 69.8°F21.0°C 10.8°F-11.8°C 10% Calm Calm -- 29.56 in1001.0 mb 0.00 in0.0 mm 0.00 in0.0 mm 0.00 in0.0 mm
02:21 PM 69.8°F21.0°C 10.8°F-11.8°C 10% Calm Calm -- 29.56 in1001.0 mb 0.00 in0.0 mm 0.00 in0.0 mm 0.00 in0.0 mm
02:22 PM 69.8°F21.0°C 10.8°F-11.8°C 10% Calm Calm -- 29.56 in1001.0 mb 0.00 in0.0 mm 0.00 in0.0 mm 0.00 in0.0 mm
02:23 PM 70.0°F21.1°C 10.9°F-11.7°C 10% 0.2 mph E0.3 kmh E 1.1 mph1.8 kmh 29.56 in1001.0 mb 0.00 in0.0 mm 0.00 in0.0 mm 0.00 in0.0 mm
02:24 PM 70.0°F21.1°C 10.9°F-11.7°C 10% 1.1 mph E1.8 kmh E 2.2 mph3.5 kmh 29.55 in1000.7 mb 0.00 in0.0 mm 0.00 in0.0 mm 0.00 in0.0 mm
02:25 PM 70.0°F21.1°C 10.9°F-11.7°C 10% Calm Calm -- 29.55 in1000.7 mb 0.00 in0.0 mm 0.00 in0.0 mm 0.00 in0.0 mm
02:26 PM 70.0°F21.1°C 10.9°F-11.7°C 10% Calm Calm -- 29.56 in1001.0 mb 0.00 in0.0 mm 0.00 in0.0 mm 0.00 in0.0 mm
02:27 PM 70.0°F21.1°C 10.9°F-11.7°C 10% 0.2 mph E0.3 kmh E 1.1 mph1.8 kmh 29.56 in1001.0 mb 0.00 in0.0 mm 0.00 in0.0 mm 0.00 in0.0 mm
02:28 PM 70.0°F21.1°C 10.9°F-11.7°C 10% 0.4 mph E0.6 kmh E 1.1 mph1.8 kmh 29.56 in1001.0 mb 0.00 in0.0 mm 0.00 in0.0 mm 0.00 in0.0 mm
02:29 PM 70.2°F21.2°C 11.1°F-11.6°C 10% Calm Calm -- 29.56 in1001.0 mb 0.00 in0.0 mm 0.00 in0.0 mm 0.00 in0.0 mm
02:30 PM 70.2°F21.2°C 11.1°F-11.6°C 10% 0.2 mph E0.3 kmh E 1.1 mph1.8 kmh 29.55 in1000.7 mb 0.00 in0.0 mm 0.00 in0.0 mm 0.00 in0.0 mm
02:31 PM 70.2°F21.2°C 11.1°F-11.6°C 10% 1.8 mph ENE2.9 kmh ENE 3.4 mph5.5 kmh 29.55 in1000.7 mb 0.00 in0.0 mm 0.00 in0.0 mm 0.00 in0.0 mm
02:32 PM 70.2°F21.2°C 11.1°F-11.6°C 10% 1.3 mph E2.1 kmh E 2.2 mph3.5 kmh 29.56 in1001.0 mb 0.00 in0.0 mm 0.00 in0.0 mm 0.00 in0.0 mm
02:33 PM 70.0°F21.1°C 10.9°F-11.7°C 10% Calm Calm -- 29.56 in1001.0 mb 0.00 in0.0 mm 0.00 in0.0 mm 0.00 in0.0 mm
02:34 PM 70.0°F21.1°C 10.9°F-11.7°C 10% Calm Calm -- 29.56 in1001.0 mb 0.00 in0.0 mm 0.00 in0.0 mm 0.00 in0.0 mm
02:35 PM 70.0°F21.1°C 10.9°F-11.7°C 10% 0.2 mph E0.3 kmh E 1.1 mph1.8 kmh 29.56 in1001.0 mb 0.00 in0.0 mm 0.00 in0.0 mm 0.00 in0.0 mm
02:36 PM 70.0°F21.1°C 10.9°F-11.7°C 10% Calm Calm -- 29.55 in1000.7 mb 0.00 in0.0 mm 0.00 in0.0 mm 0.00 in0.0 mm
02:37 PM 70.0°F21.1°C 10.9°F-11.7°C 10% Calm Calm -- 29.55 in1000.7 mb 0.00 in0.0 mm 0.00 in0.0 mm 0.00 in0.0 mm
02:38 PM 70.0°F21.1°C 10.9°F-11.7°C 10% 0.7 mph E1.1 kmh E 1.1 mph1.8 kmh 29.56 in1001.0 mb 0.00 in0.0 mm 0.00 in0.0 mm 0.00 in0.0 mm
02:39 PM 70.0°F21.1°C 10.9°F-11.7°C 10% Calm Calm -- 29.55 in1000.7 mb 0.00 in0.0 mm 0.00 in0.0 mm 0.00 in0.0 mm
02:40 PM 69.8°F21.0°C 10.8°F-11.8°C 10% Calm Calm -- 29.56 in1001.0 mb 0.00 in0.0 mm 0.00 in0.0 mm 0.00 in0.0 mm
02:41 PM 69.8°F21.0°C 10.8°F-11.8°C 10% 0.2 mph E0.3 kmh E 1.1 mph1.8 kmh 29.56 in1001.0 mb 0.00 in0.0 mm 0.00 in0.0 mm 0.00 in0.0 mm
02:42 PM 69.8°F21.0°C 10.8°F-11.8°C 10% Calm Calm -- 29.55 in1000.7 mb 0.00 in0.0 mm 0.00 in0.0 mm 0.00 in0.0 mm
02:43 PM 69.8°F21.0°C 10.8°F-11.8°C 10% 0.2 mph E0.3 kmh E 1.1 mph1.8 kmh 29.55 in1000.7 mb 0.00 in0.0 mm 0.00 in0.0 mm 0.00 in0.0 mm
02:44 PM 69.6°F20.9°C 10.6°F-11.9°C 10% 0.7 mph E1.1 kmh E 1.1 mph1.8 kmh 29.55 in1000.7 mb 0.00 in0.0 mm 0.00 in0.0 mm 0.00 in0.0 mm
02:45 PM 69.6°F20.9°C 10.6°F-11.9°C 10% Calm Calm -- 29.55 in1000.7 mb 0.00 in0.0 mm 0.00 in0.0 mm 0.00 in0.0 mm
02:46 PM 69.6°F20.9°C 10.6°F-11.9°C 10% 0.7 mph E1.1 kmh E 1.1 mph1.8 kmh 29.55 in1000.7 mb 0.00 in0.0 mm 0.00 in0.0 mm 0.00 in0.0 mm
02:47 PM 69.4°F20.8°C 10.5°F-11.9°C 10% 0.7 mph E1.1 kmh E 1.1 mph1.8 kmh 29.55 in1000.7 mb 0.00 in0.0 mm 0.00 in0.0 mm 0.00 in0.0 mm
02:48 PM 69.4°F20.8°C 10.5°F-11.9°C 10% Calm Calm -- 29.56 in1001.0 mb 0.00 in0.0 mm 0.00 in0.0 mm 0.00 in0.0 mm
02:49 PM 69.3°F20.7°C 10.4°F-12.0°C 10% Calm Calm -- 29.56 in1001.0 mb 0.00 in0.0 mm 0.00 in0.0 mm 0.00 in0.0 mm
02:50 PM 69.1°F20.6°C 10.3°F-12.1°C 10% Calm Calm -- 29.55 in1000.7 mb 0.00 in0.0 mm 0.00 in0.0 mm 0.00 in0.0 mm
02:51 PM 69.1°F20.6°C 10.3°F-12.1°C 10% 0.4 mph E0.6 kmh E 1.1 mph1.8 kmh 29.55 in1000.7 mb 0.00 in0.0 mm 0.00 in0.0 mm 0.00 in0.0 mm
02:52 PM 68.9°F20.5°C 10.1°F-12.2°C 10% 0.2 mph E0.3 kmh E 1.1 mph1.8 kmh 29.56 in1001.0 mb 0.00 in0.0 mm 0.00 in0.0 mm 0.00 in0.0 mm
02:53 PM 68.7°F20.4°C 10.0°F-12.2°C 10% Calm Calm -- 29.55 in1000.7 mb 0.00 in0.0 mm 0.00 in0.0 mm 0.00 in0.0 mm
02:54 PM 68.7°F20.4°C 10.0°F-12.2°C 10% Calm Calm -- 29.55 in1000.7 mb 0.00 in0.0 mm 0.00 in0.0 mm 0.00 in0.0 mm
02:55 PM 68.5°F20.3°C 9.8°F-12.3°C 10% Calm Calm -- 29.55 in1000.7 mb 0.00 in0.0 mm 0.00 in0.0 mm 0.00 in0.0 mm
02:56 PM 68.4°F20.2°C 9.7°F-12.4°C 10% Calm Calm -- 29.56 in1001.0 mb 0.00 in0.0 mm 0.00 in0.0 mm 0.00 in0.0 mm
02:57 PM 68.4°F20.2°C 9.7°F-12.4°C 10% 0.7 mph E1.1 kmh E 1.1 mph1.8 kmh 29.56 in1001.0 mb 0.00 in0.0 mm 0.00 in0.0 mm 0.00 in0.0 mm
02:58 PM 68.2°F20.1°C 9.6°F-12.4°C 10% 0.9 mph E1.4 kmh E 1.1 mph1.8 kmh 29.55 in1000.7 mb 0.00 in0.0 mm 0.00 in0.0 mm 0.00 in0.0 mm
02:59 PM 68.2°F20.1°C 9.6°F-12.4°C 10% Calm Calm -- 29.55 in1000.7 mb 0.00 in0.0 mm 0.00 in0.0 mm 0.00 in0.0 mm
03:00 PM 68.2°F20.1°C 9.6°F-12.4°C 10% Calm Calm -- 29.55 in1000.7 mb 0.00 in0.0 mm 0.00 in0.0 mm 0.00 in0.0 mm
03:01 PM 68.0°F20.0°C 9.4°F-12.6°C 10% Calm Calm -- 29.56 in1001.0 mb 0.00 in0.0 mm 0.00 in0.0 mm 0.00 in0.0 mm
03:02 PM 67.8°F19.9°C 9.3°F-12.6°C 10% 0.2 mph E0.3 kmh E 1.1 mph1.8 kmh 29.55 in1000.7 mb 0.00 in0.0 mm 0.00 in0.0 mm 0.00 in0.0 mm
03:03 PM 67.6°F19.8°C 9.1°F-12.7°C 10% Calm Calm -- 29.56 in1001.0 mb 0.00 in0.0 mm 0.00 in0.0 mm 0.00 in0.0 mm
03:04 PM 67.5°F19.7°C 9.0°F-12.8°C 10% 0.2 mph E0.3 kmh E 1.1 mph1.8 kmh 29.56 in1001.0 mb 0.00 in0.0 mm 0.00 in0.0 mm 0.00 in0.0 mm
03:05 PM 67.5°F19.7°C 9.0°F-12.8°C 10% Calm Calm -- 29.55 in1000.7 mb 0.00 in0.0 mm 0.00 in0.0 mm 0.00 in0.0 mm
03:06 PM 67.3°F19.6°C 8.9°F-12.8°C 10% 0.7 mph E1.1 kmh E 1.1 mph1.8 kmh 29.55 in1000.7 mb 0.00 in0.0 mm 0.00 in0.0 mm 0.00 in0.0 mm
03:07 PM 67.3°F19.6°C 8.9°F-12.8°C 10% Calm Calm -- 29.55 in1000.7 mb 0.00 in0.0 mm 0.00 in0.0 mm 0.00 in0.0 mm
03:08 PM 67.1°F19.5°C 8.7°F-12.9°C 10% Calm Calm -- 29.55 in1000.7 mb 0.00 in0.0 mm 0.00 in0.0 mm 0.00 in0.0 mm
03:09 PM 67.1°F19.5°C 8.7°F-12.9°C 10% 0.7 mph E1.1 kmh E 1.1 mph1.8 kmh 29.56 in1001.0 mb 0.00 in0.0 mm 0.00 in0.0 mm 0.00 in0.0 mm
03:10 PM 67.1°F19.5°C 8.7°F-12.9°C 10% Calm Calm -- 29.56 in1001.0 mb 0.00 in0.0 mm 0.00 in0.0 mm 0.00 in0.0 mm
03:11 PM 66.9°F19.4°C 8.6°F-13.0°C 10% 0.4 mph E0.6 kmh E 1.1 mph1.8 kmh 29.56 in1001.0 mb 0.00 in0.0 mm 0.00 in0.0 mm 0.00 in0.0 mm
03:12 PM 66.7°F19.3°C 8.4°F-13.1°C 10% 0.7 mph E1.1 kmh E 1.1 mph1.8 kmh 29.55 in1000.7 mb 0.00 in0.0 mm 0.00 in0.0 mm 0.00 in0.0 mm
03:13 PM 66.7°F19.3°C 10.5°F-11.9°C 11% Calm Calm -- 29.55 in1000.7 mb 0.00 in0.0 mm 0.00 in0.0 mm 0.00 in0.0 mm
03:14 PM 66.7°F19.3°C 8.4°F-13.1°C 10% 0.2 mph E0.3 kmh E 1.1 mph1.8 kmh 29.55 in1000.7 mb 0.00 in0.0 mm 0.00 in0.0 mm 0.00 in0.0 mm
03:15 PM 66.7°F19.3°C 10.5°F-11.9°C 11% Calm Calm -- 29.55 in1000.7 mb 0.00 in0.0 mm 0.00 in0.0 mm 0.00 in0.0 mm
03:16 PM 66.7°F19.3°C 12.5°F-10.8°C 12% Calm Calm -- 29.55 in1000.7 mb 0.00 in0.0 mm 0.00 in0.0 mm 0.00 in0.0 mm
03:17 PM 66.6°F19.2°C 12.4°F-10.9°C 12% Calm Calm -- 29.56 in1001.0 mb 0.00 in0.0 mm 0.00 in0.0 mm 0.00 in0.0 mm
03:18 PM 66.4°F19.1°C 10.3°F-12.1°C 11% 1.3 mph E2.1 kmh E 2.2 mph3.5 kmh 29.56 in1001.0 mb 0.00 in0.0 mm 0.00 in0.0 mm 0.00 in0.0 mm
03:19 PM 66.4°F19.1°C 10.3°F-12.1°C 11% Calm Calm -- 29.55 in1000.7 mb 0.00 in0.0 mm 0.00 in0.0 mm 0.00 in0.0 mm
03:20 PM 66.4°F19.1°C 12.3°F-10.9°C 12% Calm Calm -- 29.55 in1000.7 mb 0.00 in0.0 mm 0.00 in0.0 mm 0.00 in0.0 mm
03:21 PM 66.4°F19.1°C 12.3°F-10.9°C 12% Calm Calm -- 29.57 in1001.4 mb 0.00 in0.0 mm 0.00 in0.0 mm 0.00 in0.0 mm
03:22 PM 66.2°F19.0°C 12.1°F-11.1°C 12% 0.2 mph E0.3 kmh E 1.1 mph1.8 kmh 29.55 in1000.7 mb 0.00 in0.0 mm 0.00 in0.0 mm 0.00 in0.0 mm
03:23 PM 66.0°F18.9°C 12.0°F-11.1°C 12% 1.1 mph E1.8 kmh E 1.1 mph1.8 kmh 29.56 in1001.0 mb 0.00 in0.0 mm 0.00 in0.0 mm 0.00 in0.0 mm
03:24 PM 66.0°F18.9°C 10.0°F-12.2°C 11% 1.3 mph E2.1 kmh E 2.2 mph3.5 kmh 29.56 in1001.0 mb 0.00 in0.0 mm 0.00 in0.0 mm 0.00 in0.0 mm
03:25 PM 66.2°F19.0°C 12.1°F-11.1°C 12% Calm Calm -- 29.56 in1001.0 mb 0.00 in0.0 mm 0.00 in0.0 mm 0.00 in0.0 mm
03:26 PM 66.2°F19.0°C 13.9°F-10.1°C 13% 0.2 mph E0.3 kmh E 1.1 mph1.8 kmh 29.55 in1000.7 mb 0.00 in0.0 mm 0.00 in0.0 mm 0.00 in0.0 mm
03:27 PM 66.2°F19.0°C 13.9°F-10.1°C 13% Calm Calm -- 29.56 in1001.0 mb 0.00 in0.0 mm 0.00 in0.0 mm 0.00 in0.0 mm
03:28 PM 66.0°F18.9°C 13.8°F-10.1°C 13% 0.2 mph E0.3 kmh E 1.1 mph1.8 kmh 29.56 in1001.0 mb 0.00 in0.0 mm 0.00 in0.0 mm 0.00 in0.0 mm
03:29 PM 65.8°F18.8°C 11.8°F-11.2°C 12% Calm Calm -- 29.56 in1001.0 mb 0.00 in0.0 mm 0.00 in0.0 mm 0.00 in0.0 mm
03:30 PM 65.8°F18.8°C 11.8°F-11.2°C 12% Calm Calm -- 29.56 in1001.0 mb 0.00 in0.0 mm 0.00 in0.0 mm 0.00 in0.0 mm
03:31 PM 65.8°F18.8°C 11.8°F-11.2°C 12% 0.2 mph E0.3 kmh E 1.1 mph1.8 kmh 29.55 in1000.7 mb 0.00 in0.0 mm 0.00 in0.0 mm 0.00 in0.0 mm
03:32 PM 65.7°F18.7°C 11.7°F-11.3°C 12% 0.7 mph E1.1 kmh E 1.1 mph1.8 kmh 29.55 in1000.7 mb 0.00 in0.0 mm 0.00 in0.0 mm 0.00 in0.0 mm
03:33 PM 65.8°F18.8°C 9.8°F-12.3°C 11% Calm Calm -- 29.56 in1001.0 mb 0.00 in0.0 mm 0.00 in0.0 mm 0.00 in0.0 mm
03:34 PM 65.7°F18.7°C 9.8°F-12.3°C 11% Calm Calm -- 29.57 in1001.4 mb 0.00 in0.0 mm 0.00 in0.0 mm 0.00 in0.0 mm
03:35 PM 65.7°F18.7°C 11.7°F-11.3°C 12% 0.2 mph E0.3 kmh E 1.1 mph1.8 kmh 29.56 in1001.0 mb 0.00 in0.0 mm 0.00 in0.0 mm 0.00 in0.0 mm
03:36 PM 65.7°F18.7°C 11.7°F-11.3°C 12% Calm Calm -- 29.56 in1001.0 mb 0.00 in0.0 mm 0.00 in0.0 mm 0.00 in0.0 mm
03:37 PM 65.5°F18.6°C 11.6°F-11.3°C 12% 0.2 mph E0.3 kmh E 1.1 mph1.8 kmh 29.56 in1001.0 mb 0.00 in0.0 mm 0.00 in0.0 mm 0.00 in0.0 mm
03:38 PM 65.5°F18.6°C 13.4°F-10.3°C 13% Calm Calm -- 29.56 in1001.0 mb 0.00 in0.0 mm 0.00 in0.0 mm 0.00 in0.0 mm
03:39 PM 65.3°F18.5°C 13.2°F-10.4°C 13% Calm Calm -- 29.56 in1001.0 mb 0.00 in0.0 mm 0.00 in0.0 mm 0.00 in0.0 mm
03:40 PM 65.3°F18.5°C 13.2°F-10.4°C 13% Calm Calm -- 29.56 in1001.0 mb 0.00 in0.0 mm 0.00 in0.0 mm 0.00 in0.0 mm
03:41 PM 65.1°F18.4°C 13.1°F-10.5°C 13% Calm Calm -- 29.56 in1001.0 mb 0.00 in0.0 mm 0.00 in0.0 mm 0.00 in0.0 mm
03:42 PM 64.9°F18.3°C 12.9°F-10.6°C 13% 0.7 mph E1.1 kmh E 1.1 mph1.8 kmh 29.55 in1000.7 mb 0.00 in0.0 mm 0.00 in0.0 mm 0.00 in0.0 mm
03:43 PM 64.8°F18.2°C 12.8°F-10.7°C 13% 0.2 mph E0.3 kmh E 1.1 mph1.8 kmh 29.56 in1001.0 mb 0.00 in0.0 mm 0.00 in0.0 mm 0.00 in0.0 mm
03:44 PM 64.8°F18.2°C 12.8°F-10.7°C 13% Calm Calm -- 29.55 in1000.7 mb 0.00 in0.0 mm 0.00 in0.0 mm 0.00 in0.0 mm
03:45 PM 64.8°F18.2°C 14.5°F-9.7°C 14% Calm Calm -- 29.56 in1001.0 mb 0.00 in0.0 mm 0.00 in0.0 mm 0.00 in0.0 mm
03:46 PM 64.8°F18.2°C 12.8°F-10.7°C 13% Calm Calm -- 29.56 in1001.0 mb 0.00 in0.0 mm 0.00 in0.0 mm 0.00 in0.0 mm
03:47 PM 64.6°F18.1°C 14.3°F-9.8°C 14% Calm Calm -- 29.56 in1001.0 mb 0.00 in0.0 mm 0.00 in0.0 mm 0.00 in0.0 mm
03:48 PM 64.4°F18.0°C 14.2°F-9.9°C 14% Calm Calm -- 29.56 in1001.0 mb 0.00 in0.0 mm 0.00 in0.0 mm 0.00 in0.0 mm
03:49 PM 64.2°F17.9°C 12.3°F-10.9°C 13% Calm Calm -- 29.56 in1001.0 mb 0.00 in0.0 mm 0.00 in0.0 mm 0.00 in0.0 mm
03:50 PM 64.0°F17.8°C 12.2°F-11.0°C 13% Calm Calm -- 29.56 in1001.0 mb 0.00 in0.0 mm 0.00 in0.0 mm 0.00 in0.0 mm
03:51 PM 64.0°F17.8°C 12.2°F-11.0°C 13% Calm Calm -- 29.57 in1001.4 mb 0.00 in0.0 mm 0.00 in0.0 mm 0.00 in0.0 mm
03:52 PM 64.0°F17.8°C 13.9°F-10.1°C 14% Calm Calm -- 29.56 in1001.0 mb 0.00 in0.0 mm 0.00 in0.0 mm 0.00 in0.0 mm
03:53 PM 64.0°F17.8°C 12.2°F-11.0°C 13% Calm Calm -- 29.56 in1001.0 mb 0.00 in0.0 mm 0.00 in0.0 mm 0.00 in0.0 mm
03:54 PM 64.0°F17.8°C 13.9°F-10.1°C 14% Calm Calm -- 29.56 in1001.0 mb 0.00 in0.0 mm 0.00 in0.0 mm 0.00 in0.0 mm
03:55 PM 64.0°F17.8°C 15.4°F-9.2°C 15% Calm Calm -- 29.57 in1001.4 mb 0.00 in0.0 mm 0.00 in0.0 mm 0.00 in0.0 mm
03:56 PM 64.0°F17.8°C 15.4°F-9.2°C 15% Calm Calm -- 29.56 in1001.0 mb 0.00 in0.0 mm 0.00 in0.0 mm 0.00 in0.0 mm
03:57 PM 63.9°F17.7°C 13.8°F-10.1°C 14% Calm Calm -- 29.56 in1001.0 mb 0.00 in0.0 mm 0.00 in0.0 mm 0.00 in0.0 mm
03:58 PM 63.9°F17.7°C 13.8°F-10.1°C 14% Calm Calm -- 29.56 in1001.0 mb 0.00 in0.0 mm 0.00 in0.0 mm 0.00 in0.0 mm
03:59 PM 63.7°F17.6°C 15.2°F-9.3°C 15% Calm Calm -- 29.56 in1001.0 mb 0.00 in0.0 mm 0.00 in0.0 mm 0.00 in0.0 mm
04:00 PM 63.5°F17.5°C 15.0°F-9.4°C 15% 0.2 mph E0.3 kmh E 1.1 mph1.8 kmh 29.56 in1001.0 mb 0.00 in0.0 mm 0.00 in0.0 mm 0.00 in0.0 mm
04:01 PM 63.5°F17.5°C 15.0°F-9.4°C 15% Calm Calm -- 29.56 in1001.0 mb 0.00 in0.0 mm 0.00 in0.0 mm 0.00 in0.0 mm
04:02 PM 63.3°F17.4°C 13.3°F-10.4°C 14% Calm Calm -- 29.56 in1001.0 mb 0.00 in0.0 mm 0.00 in0.0 mm 0.00 in0.0 mm
04:03 PM 63.3°F17.4°C 13.3°F-10.4°C 14% Calm Calm -- 29.56 in1001.0 mb 0.00 in0.0 mm 0.00 in0.0 mm 0.00 in0.0 mm
04:04 PM 63.1°F17.3°C 13.2°F-10.4°C 14% Calm Calm -- 29.57 in1001.4 mb 0.00 in0.0 mm 0.00 in0.0 mm 0.00 in0.0 mm
04:05 PM 63.1°F17.3°C 13.2°F-10.4°C 14% Calm Calm -- 29.56 in1001.0 mb 0.00 in0.0 mm 0.00 in0.0 mm 0.00 in0.0 mm
04:06 PM 63.1°F17.3°C 13.2°F-10.4°C 14% Calm Calm -- 29.56 in1001.0 mb 0.00 in0.0 mm 0.00 in0.0 mm 0.00 in0.0 mm
04:07 PM 63.3°F17.4°C 13.3°F-10.4°C 14% Calm Calm -- 29.56 in1001.0 mb 0.00 in0.0 mm 0.00 in0.0 mm 0.00 in0.0 mm
04:08 PM 63.3°F17.4°C 14.9°F-9.5°C 15% Calm Calm -- 29.56 in1001.0 mb 0.00 in0.0 mm 0.00 in0.0 mm 0.00 in0.0 mm
04:09 PM 63.3°F17.4°C 14.9°F-9.5°C 15% Calm Calm -- 29.56 in1001.0 mb 0.00 in0.0 mm 0.00 in0.0 mm 0.00 in0.0 mm
04:10 PM 63.3°F17.4°C 14.9°F-9.5°C 15% Calm Calm -- 29.56 in1001.0 mb 0.00 in0.0 mm 0.00 in0.0 mm 0.00 in0.0 mm
04:11 PM 63.0°F17.2°C 14.6°F-9.7°C 15% Calm Calm -- 29.56 in1001.0 mb 0.00 in0.0 mm 0.00 in0.0 mm 0.00 in0.0 mm
04:12 PM 62.8°F17.1°C 16.0°F-8.9°C 16% Calm Calm -- 29.56 in1001.0 mb 0.00 in0.0 mm 0.00 in0.0 mm 0.00 in0.0 mm
04:13 PM 62.8°F17.1°C 14.5°F-9.7°C 15% Calm Calm -- 29.56 in1001.0 mb 0.00 in0.0 mm 0.00 in0.0 mm 0.00 in0.0 mm
04:14 PM 62.4°F16.9°C 14.2°F-9.9°C 15% Calm Calm -- 29.56 in1001.0 mb 0.00 in0.0 mm 0.00 in0.0 mm 0.00 in0.0 mm
04:15 PM 62.2°F16.8°C 14.0°F-10.0°C 15% Calm Calm -- 29.57 in1001.4 mb 0.00 in0.0 mm 0.00 in0.0 mm 0.00 in0.0 mm
04:16 PM 62.1°F16.7°C 13.9°F-10.1°C 15% Calm Calm -- 29.55 in1000.7 mb 0.00 in0.0 mm 0.00 in0.0 mm 0.00 in0.0 mm
04:17 PM 61.9°F16.6°C 13.8°F-10.1°C 15% Calm Calm -- 29.56 in1001.0 mb 0.00 in0.0 mm 0.00 in0.0 mm 0.00 in0.0 mm
04:18 PM 61.7°F16.5°C 13.6°F-10.2°C 15% Calm Calm -- 29.56 in1001.0 mb 0.00 in0.0 mm 0.00 in0.0 mm 0.00 in0.0 mm
04:19 PM 61.5°F16.4°C 13.4°F-10.3°C 15% Calm Calm -- 29.56 in1001.0 mb 0.00 in0.0 mm 0.00 in0.0 mm 0.00 in0.0 mm
04:20 PM 61.5°F16.4°C 14.9°F-9.5°C 16% 0.7 mph E1.1 kmh E 1.1 mph1.8 kmh 29.56 in1001.0 mb 0.00 in0.0 mm 0.00 in0.0 mm 0.00 in0.0 mm
04:21 PM 61.3°F16.3°C 14.7°F-9.6°C 16% Calm Calm -- 29.56 in1001.0 mb 0.00 in0.0 mm 0.00 in0.0 mm 0.00 in0.0 mm
04:22 PM 61.3°F16.3°C 16.1°F-8.8°C 17% Calm Calm -- 29.56 in1001.0 mb 0.00 in0.0 mm 0.00 in0.0 mm 0.00 in0.0 mm
04:23 PM 61.3°F16.3°C 14.7°F-9.6°C 16% Calm Calm -- 29.57 in1001.4 mb 0.00 in0.0 mm 0.00 in0.0 mm 0.00 in0.0 mm
04:24 PM 61.2°F16.2°C 14.7°F-9.6°C 16% Calm Calm -- 29.56 in1001.0 mb 0.00 in0.0 mm 0.00 in0.0 mm 0.00 in0.0 mm
04:25 PM 61.2°F16.2°C 14.7°F-9.6°C 16% Calm Calm -- 29.56 in1001.0 mb 0.00 in0.0 mm 0.00 in0.0 mm 0.00 in0.0 mm
04:26 PM 61.0°F16.1°C 15.9°F-8.9°C 17% Calm Calm -- 29.56 in1001.0 mb 0.00 in0.0 mm 0.00 in0.0 mm 0.00 in0.0 mm
04:27 PM 61.0°F16.1°C 15.9°F-8.9°C 17% Calm Calm -- 29.57 in1001.4 mb 0.00 in0.0 mm 0.00 in0.0 mm 0.00 in0.0 mm
04:28 PM 60.8°F16.0°C 14.3°F-9.8°C 16% Calm Calm -- 29.56 in1001.0 mb 0.00 in0.0 mm 0.00 in0.0 mm 0.00 in0.0 mm
04:29 PM 60.6°F15.9°C 14.2°F-9.9°C 16% Calm Calm -- 29.56 in1001.0 mb 0.00 in0.0 mm 0.00 in0.0 mm 0.00 in0.0 mm
04:30 PM 60.6°F15.9°C 14.2°F-9.9°C 16% Calm Calm -- 29.56 in1001.0 mb 0.00 in0.0 mm 0.00 in0.0 mm 0.00 in0.0 mm
04:31 PM 60.6°F15.9°C 14.2°F-9.9°C 16% Calm Calm -- 29.57 in1001.4 mb 0.00 in0.0 mm 0.00 in0.0 mm 0.00 in0.0 mm
04:32 PM 60.4°F15.8°C 14.0°F-10.0°C 16% Calm Calm -- 29.57 in1001.4 mb 0.00 in0.0 mm 0.00 in0.0 mm 0.00 in0.0 mm
04:33 PM 60.4°F15.8°C 14.0°F-10.0°C 16% Calm Calm -- 29.57 in1001.4 mb 0.00 in0.0 mm 0.00 in0.0 mm 0.00 in0.0 mm
04:34 PM 60.4°F15.8°C 14.0°F-10.0°C 16% Calm Calm -- 29.57 in1001.4 mb 0.00 in0.0 mm 0.00 in0.0 mm 0.00 in0.0 mm
04:35 PM 60.3°F15.7°C 13.9°F-10.1°C 16% Calm Calm -- 29.57 in1001.4 mb 0.00 in0.0 mm 0.00 in0.0 mm 0.00 in0.0 mm
04:36 PM 60.3°F15.7°C 13.9°F-10.1°C 16% 0.2 mph E0.3 kmh E 1.1 mph1.8 kmh 29.57 in1001.4 mb 0.00 in0.0 mm 0.00 in0.0 mm 0.00 in0.0 mm
04:37 PM 60.3°F15.7°C 13.9°F-10.1°C 16% Calm Calm -- 29.57 in1001.4 mb 0.00 in0.0 mm 0.00 in0.0 mm 0.00 in0.0 mm
04:38 PM 60.1°F15.6°C 13.8°F-10.1°C 16% Calm Calm -- 29.57 in1001.4 mb 0.00 in0.0 mm 0.00 in0.0 mm 0.00 in0.0 mm
04:39 PM 60.1°F15.6°C 13.8°F-10.1°C 16% Calm Calm -- 29.57 in1001.4 mb 0.00 in0.0 mm 0.00 in0.0 mm 0.00 in0.0 mm
04:40 PM 60.1°F15.6°C 15.2°F-9.3°C 17% Calm Calm -- 29.57 in1001.4 mb 0.00 in0.0 mm 0.00 in0.0 mm 0.00 in0.0 mm
04:41 PM 60.1°F15.6°C 13.8°F-10.1°C 16% 0.7 mph E1.1 kmh E 1.1 mph1.8 kmh 29.57 in1001.4 mb 0.00 in0.0 mm 0.00 in0.0 mm 0.00 in0.0 mm
04:42 PM 60.1°F15.6°C 12.3°F-10.9°C 15% 0.9 mph E1.4 kmh E 1.1 mph1.8 kmh 29.57 in1001.4 mb 0.00 in0.0 mm 0.00 in0.0 mm 0.00 in0.0 mm
04:43 PM 60.4°F15.8°C 14.0°F-10.0°C 16% Calm Calm -- 29.57 in1001.4 mb 0.00 in0.0 mm 0.00 in0.0 mm 0.00 in0.0 mm
04:44 PM 60.6°F15.9°C 14.2°F-9.9°C 16% Calm Calm -- 29.56 in1001.0 mb 0.00 in0.0 mm 0.00 in0.0 mm 0.00 in0.0 mm
04:45 PM 60.6°F15.9°C 14.2°F-9.9°C 16% Calm Calm -- 29.57 in1001.4 mb 0.00 in0.0 mm 0.00 in0.0 mm 0.00 in0.0 mm
04:46 PM 60.6°F15.9°C 14.2°F-9.9°C 16% Calm Calm -- 29.57 in1001.4 mb 0.00 in0.0 mm 0.00 in0.0 mm 0.00 in0.0 mm
04:47 PM 60.6°F15.9°C 15.6°F-9.1°C 17% Calm Calm -- 29.57 in1001.4 mb 0.00 in0.0 mm 0.00 in0.0 mm 0.00 in0.0 mm
04:48 PM 60.6°F15.9°C 14.2°F-9.9°C 16% Calm Calm -- 29.57 in1001.4 mb 0.00 in0.0 mm 0.00 in0.0 mm 0.00 in0.0 mm
04:49 PM 60.6°F15.9°C 15.6°F-9.1°C 17% Calm Calm -- 29.57 in1001.4 mb 0.00 in0.0 mm 0.00 in0.0 mm 0.00 in0.0 mm
04:50 PM 60.6°F15.9°C 14.2°F-9.9°C 16% Calm Calm -- 29.57 in1001.4 mb 0.00 in0.0 mm 0.00 in0.0 mm 0.00 in0.0 mm
04:51 PM 60.8°F16.0°C 12.9°F-10.6°C 15% 0.7 mph E1.1 kmh E 2.2 mph3.5 kmh 29.58 in1001.7 mb 0.00 in0.0 mm 0.00 in0.0 mm 0.00 in0.0 mm
04:52 PM 60.8°F16.0°C 11.3°F-11.5°C 14% 0.7 mph ENE1.1 kmh ENE 1.1 mph1.8 kmh 29.57 in1001.4 mb 0.00 in0.0 mm 0.00 in0.0 mm 0.00 in0.0 mm
04:53 PM 61.3°F16.3°C 13.3°F-10.4°C 15% Calm Calm -- 29.58 in1001.7 mb 0.00 in0.0 mm 0.00 in0.0 mm 0.00 in0.0 mm
04:54 PM 62.4°F16.9°C 12.6°F-10.8°C 14% 0.2 mph E0.3 kmh E 1.1 mph1.8 kmh 29.57 in1001.4 mb 0.00 in0.0 mm 0.00 in0.0 mm 0.00 in0.0 mm
04:55 PM 62.4°F16.9°C 12.6°F-10.8°C 14% 0.2 mph E0.3 kmh E 1.1 mph1.8 kmh 29.58 in1001.7 mb 0.00 in0.0 mm 0.00 in0.0 mm 0.00 in0.0 mm
04:56 PM 62.4°F16.9°C 10.9°F-11.7°C 13% 1.3 mph E2.1 kmh E 2.2 mph3.5 kmh 29.57 in1001.4 mb 0.00 in0.0 mm 0.00 in0.0 mm 0.00 in0.0 mm
04:57 PM 62.4°F16.9°C 12.6°F-10.8°C 14% 1.8 mph E2.9 kmh E 2.2 mph3.5 kmh 29.58 in1001.7 mb 0.00 in0.0 mm 0.00 in0.0 mm 0.00 in0.0 mm
04:58 PM 63.1°F17.3°C 13.2°F-10.4°C 14% 0.4 mph ESE0.6 kmh ESE 1.1 mph1.8 kmh 29.57 in1001.4 mb 0.00 in0.0 mm 0.00 in0.0 mm 0.00 in0.0 mm
04:59 PM 63.1°F17.3°C 14.7°F-9.6°C 15% 0.7 mph E1.1 kmh E 1.1 mph1.8 kmh 29.57 in1001.4 mb 0.00 in0.0 mm 0.00 in0.0 mm 0.00 in0.0 mm
05:00 PM 63.0°F17.2°C 13.1°F-10.5°C 14% 0.9 mph E1.4 kmh E 2.2 mph3.5 kmh 29.58 in1001.7 mb 0.00 in0.0 mm 0.00 in0.0 mm 0.00 in0.0 mm
05:01 PM 62.8°F17.1°C 14.5°F-9.7°C 15% Calm Calm -- 29.57 in1001.4 mb 0.00 in0.0 mm 0.00 in0.0 mm 0.00 in0.0 mm
05:02 PM 62.6°F17.0°C 12.8°F-10.7°C 14% 0.2 mph E0.3 kmh E 1.1 mph1.8 kmh 29.57 in1001.4 mb 0.00 in0.0 mm 0.00 in0.0 mm 0.00 in0.0 mm
05:03 PM 62.6°F17.0°C 12.8°F-10.7°C 14% 0.9 mph ESE1.4 kmh ESE 1.1 mph1.8 kmh 29.58 in1001.7 mb 0.00 in0.0 mm 0.00 in0.0 mm 0.00 in0.0 mm
05:04 PM 62.4°F16.9°C 12.6°F-10.8°C 14% 0.4 mph E0.6 kmh E 1.1 mph1.8 kmh 29.58 in1001.7 mb 0.00 in0.0 mm 0.00 in0.0 mm 0.00 in0.0 mm
05:05 PM 62.4°F16.9°C 12.6°F-10.8°C 14% 0.7 mph ENE1.1 kmh ENE 1.1 mph1.8 kmh 29.58 in1001.7 mb 0.00 in0.0 mm 0.00 in0.0 mm 0.00 in0.0 mm
05:06 PM 62.4°F16.9°C 12.6°F-10.8°C 14% Calm Calm -- 29.58 in1001.7 mb 0.00 in0.0 mm 0.00 in0.0 mm 0.00 in0.0 mm
05:07 PM 62.4°F16.9°C 12.6°F-10.8°C 14% 0.9 mph E1.4 kmh E 1.1 mph1.8 kmh 29.57 in1001.4 mb 0.00 in0.0 mm 0.00 in0.0 mm 0.00 in0.0 mm
05:08 PM 62.4°F16.9°C 10.9°F-11.7°C 13% 0.7 mph NE1.1 kmh NE 3.4 mph5.5 kmh 29.57 in1001.4 mb 0.00 in0.0 mm 0.00 in0.0 mm 0.00 in0.0 mm
05:09 PM 62.6°F17.0°C 11.1°F-11.6°C 13% 1.1 mph E1.8 kmh E 1.1 mph1.8 kmh 29.57 in1001.4 mb 0.00 in0.0 mm 0.00 in0.0 mm 0.00 in0.0 mm
05:10 PM 63.0°F17.2°C 13.1°F-10.5°C 14% 1.1 mph E1.8 kmh E 2.2 mph3.5 kmh 29.58 in1001.7 mb 0.00 in0.0 mm 0.00 in0.0 mm 0.00 in0.0 mm
05:11 PM 63.0°F17.2°C 11.4°F-11.4°C 13% 1.8 mph E2.9 kmh E 2.2 mph3.5 kmh 29.58 in1001.7 mb 0.00 in0.0 mm 0.00 in0.0 mm 0.00 in0.0 mm
05:12 PM 63.0°F17.2°C 11.4°F-11.4°C 13% 0.9 mph E1.4 kmh E 1.1 mph1.8 kmh 29.58 in1001.7 mb 0.00 in0.0 mm 0.00 in0.0 mm 0.00 in0.0 mm
05:13 PM 63.0°F17.2°C 9.6°F-12.4°C 12% 0.7 mph ENE1.1 kmh ENE 1.1 mph1.8 kmh 29.57 in1001.4 mb 0.00 in0.0 mm 0.00 in0.0 mm 0.00 in0.0 mm
05:14 PM 63.1°F17.3°C 11.5°F-11.4°C 13% Calm Calm -- 29.58 in1001.7 mb 0.00 in0.0 mm 0.00 in0.0 mm 0.00 in0.0 mm
05:15 PM 63.3°F17.4°C 11.6°F-11.3°C 13% 1.1 mph E1.8 kmh E 2.2 mph3.5 kmh 29.58 in1001.7 mb 0.00 in0.0 mm 0.00 in0.0 mm 0.00 in0.0 mm
05:16 PM 63.1°F17.3°C 11.5°F-11.4°C 13% 0.9 mph E1.4 kmh E 1.1 mph1.8 kmh 29.58 in1001.7 mb 0.00 in0.0 mm 0.00 in0.0 mm 0.00 in0.0 mm
05:17 PM 63.1°F17.3°C 11.5°F-11.4°C 13% 0.9 mph E1.4 kmh E 1.1 mph1.8 kmh 29.58 in1001.7 mb 0.00 in0.0 mm 0.00 in0.0 mm 0.00 in0.0 mm
05:18 PM 63.0°F17.2°C 11.4°F-11.4°C 13% Calm Calm -- 29.58 in1001.7 mb 0.00 in0.0 mm 0.00 in0.0 mm 0.00 in0.0 mm
05:19 PM 63.0°F17.2°C 9.6°F-12.4°C 12% 1.8 mph E2.9 kmh E 4.5 mph7.2 kmh 29.58 in1001.7 mb 0.00 in0.0 mm 0.00 in0.0 mm 0.00 in0.0 mm
05:20 PM 63.0°F17.2°C 11.4°F-11.4°C 13% 0.4 mph E0.6 kmh E 1.1 mph1.8 kmh 29.58 in1001.7 mb 0.00 in0.0 mm 0.00 in0.0 mm 0.00 in0.0 mm
05:21 PM 63.0°F17.2°C 9.6°F-12.4°C 12% 1.3 mph ENE2.1 kmh ENE 2.2 mph3.5 kmh 29.58 in1001.7 mb 0.00 in0.0 mm 0.00 in0.0 mm 0.00 in0.0 mm
05:22 PM 63.1°F17.3°C 9.7°F-12.4°C 12% 1.3 mph ENE2.1 kmh ENE 2.2 mph3.5 kmh 29.59 in1002.0 mb 0.00 in0.0 mm 0.00 in0.0 mm 0.00 in0.0 mm
05:23 PM 63.1°F17.3°C 9.7°F-12.4°C 12% Calm Calm -- 29.58 in1001.7 mb 0.00 in0.0 mm 0.00 in0.0 mm 0.00 in0.0 mm
05:24 PM 63.1°F17.3°C 11.5°F-11.4°C 13% Calm Calm -- 29.58 in1001.7 mb 0.00 in0.0 mm 0.00 in0.0 mm 0.00 in0.0 mm
05:25 PM 63.0°F17.2°C 9.6°F-12.4°C 12% 0.2 mph ENE0.3 kmh ENE 1.1 mph1.8 kmh 29.58 in1001.7 mb 0.00 in0.0 mm 0.00 in0.0 mm 0.00 in0.0 mm
05:26 PM 62.8°F17.1°C 11.2°F-11.6°C 13% Calm Calm -- 29.59 in1002.0 mb 0.00 in0.0 mm 0.00 in0.0 mm 0.00 in0.0 mm
05:27 PM 62.6°F17.0°C 11.1°F-11.6°C 13% 0.2 mph ENE0.3 kmh ENE 1.1 mph1.8 kmh 29.58 in1001.7 mb 0.00 in0.0 mm 0.00 in0.0 mm 0.00 in0.0 mm
05:28 PM 62.4°F16.9°C 10.9°F-11.7°C 13% 1.3 mph ENE2.1 kmh ENE 2.2 mph3.5 kmh 29.59 in1002.0 mb 0.00 in0.0 mm 0.00 in0.0 mm 0.00 in0.0 mm
05:29 PM 62.4°F16.9°C 10.9°F-11.7°C 13% 0.7 mph ENE1.1 kmh ENE 1.1 mph1.8 kmh 29.58 in1001.7 mb 0.00 in0.0 mm 0.00 in0.0 mm 0.00 in0.0 mm
05:30 PM 62.2°F16.8°C 9.0°F-12.8°C 12% 0.9 mph E1.4 kmh E 1.1 mph1.8 kmh 29.59 in1002.0 mb 0.00 in0.0 mm 0.00 in0.0 mm 0.00 in0.0 mm
05:31 PM 62.2°F16.8°C 9.0°F-12.8°C 12% Calm Calm -- 29.58 in1001.7 mb 0.00 in0.0 mm 0.00 in0.0 mm 0.00 in0.0 mm
05:32 PM 62.2°F16.8°C 9.0°F-12.8°C 12% 2.0 mph E3.2 kmh E 2.2 mph3.5 kmh 29.58 in1001.7 mb 0.00 in0.0 mm 0.00 in0.0 mm 0.00 in0.0 mm
05:33 PM 62.2°F16.8°C 9.0°F-12.8°C 12% 1.1 mph E1.8 kmh E 1.1 mph1.8 kmh 29.58 in1001.7 mb 0.00 in0.0 mm 0.00 in0.0 mm 0.00 in0.0 mm
05:34 PM 63.1°F17.3°C 7.8°F-13.4°C 11% 1.3 mph E2.1 kmh E 2.2 mph3.5 kmh 29.58 in1001.7 mb 0.00 in0.0 mm 0.00 in0.0 mm 0.00 in0.0 mm
05:35 PM 63.5°F17.5°C 10.0°F-12.2°C 12% 0.2 mph E0.3 kmh E 1.1 mph1.8 kmh 29.58 in1001.7 mb 0.00 in0.0 mm 0.00 in0.0 mm 0.00 in0.0 mm
05:36 PM 63.5°F17.5°C 10.0°F-12.2°C 12% 0.4 mph E0.6 kmh E 1.1 mph1.8 kmh 29.58 in1001.7 mb 0.00 in0.0 mm 0.00 in0.0 mm 0.00 in0.0 mm
05:37 PM 63.3°F17.4°C 9.8°F-12.3°C 12% Calm Calm -- 29.58 in1001.7 mb 0.00 in0.0 mm 0.00 in0.0 mm 0.00 in0.0 mm
05:38 PM 63.0°F17.2°C 7.7°F-13.5°C 11% 2.2 mph ENE3.5 kmh ENE 3.4 mph5.5 kmh 29.59 in1002.0 mb 0.00 in0.0 mm 0.00 in0.0 mm 0.00 in0.0 mm
05:39 PM 62.8°F17.1°C 7.5°F-13.6°C 11% 0.2 mph ENE0.3 kmh ENE 1.1 mph1.8 kmh 29.58 in1001.7 mb 0.00 in0.0 mm 0.00 in0.0 mm 0.00 in0.0 mm
05:40 PM 62.8°F17.1°C 9.5°F-12.5°C 12% Calm Calm -- 29.59 in1002.0 mb 0.00 in0.0 mm 0.00 in0.0 mm 0.00 in0.0 mm
05:41 PM 62.8°F17.1°C 11.2°F-11.6°C 13% 0.2 mph ENE0.3 kmh ENE 1.1 mph1.8 kmh 29.59 in1002.0 mb 0.00 in0.0 mm 0.00 in0.0 mm 0.00 in0.0 mm
05:42 PM 62.2°F16.8°C 9.0°F-12.8°C 12% 1.1 mph ENE1.8 kmh ENE 1.1 mph1.8 kmh 29.59 in1002.0 mb 0.00 in0.0 mm 0.00 in0.0 mm 0.00 in0.0 mm
05:43 PM 62.1°F16.7°C 10.7°F-11.8°C 13% Calm Calm -- 29.58 in1001.7 mb 0.00 in0.0 mm 0.00 in0.0 mm 0.00 in0.0 mm
05:44 PM 62.1°F16.7°C 12.4°F-10.9°C 14% Calm Calm -- 29.59 in1002.0 mb 0.00 in0.0 mm 0.00 in0.0 mm 0.00 in0.0 mm
05:45 PM 61.7°F16.5°C 12.0°F-11.1°C 14% 0.2 mph ENE0.3 kmh ENE 1.1 mph1.8 kmh 29.59 in1002.0 mb 0.00 in0.0 mm 0.00 in0.0 mm 0.00 in0.0 mm
05:46 PM 61.3°F16.3°C 10.1°F-12.2°C 13% Calm Calm -- 29.59 in1002.0 mb 0.00 in0.0 mm 0.00 in0.0 mm 0.00 in0.0 mm
05:47 PM 61.0°F16.1°C 8.1°F-13.3°C 12% Calm Calm -- 29.58 in1001.7 mb 0.00 in0.0 mm 0.00 in0.0 mm 0.00 in0.0 mm
05:48 PM 61.0°F16.1°C 8.1°F-13.3°C 12% 1.3 mph E2.1 kmh E 2.2 mph3.5 kmh 29.59 in1002.0 mb 0.00 in0.0 mm 0.00 in0.0 mm 0.00 in0.0 mm
05:49 PM 61.0°F16.1°C 8.1°F-13.3°C 12% 1.1 mph E1.8 kmh E 2.2 mph3.5 kmh 29.59 in1002.0 mb 0.00 in0.0 mm 0.00 in0.0 mm 0.00 in0.0 mm
05:50 PM 61.3°F16.3°C 8.3°F-13.2°C 12% Calm Calm -- 29.59 in1002.0 mb 0.00 in0.0 mm 0.00 in0.0 mm 0.00 in0.0 mm
05:51 PM 61.3°F16.3°C 8.3°F-13.2°C 12% Calm Calm -- 29.59 in1002.0 mb 0.00 in0.0 mm 0.00 in0.0 mm 0.00 in0.0 mm
05:52 PM 61.3°F16.3°C 11.7°F-11.3°C 14% Calm Calm -- 29.59 in1002.0 mb 0.00 in0.0 mm 0.00 in0.0 mm 0.00 in0.0 mm
05:53 PM 61.3°F16.3°C 11.7°F-11.3°C 14% Calm Calm -- 29.59 in1002.0 mb 0.00 in0.0 mm 0.00 in0.0 mm 0.00 in0.0 mm
05:54 PM 61.0°F16.1°C 13.0°F-10.6°C 15% 0.7 mph E1.1 kmh E 1.1 mph1.8 kmh 29.59 in1002.0 mb 0.00 in0.0 mm 0.00 in0.0 mm 0.00 in0.0 mm
05:55 PM 60.8°F16.0°C 12.9°F-10.6°C 15% Calm Calm -- 29.60 in1002.4 mb 0.00 in0.0 mm 0.00 in0.0 mm 0.00 in0.0 mm
05:56 PM 60.4°F15.8°C 11.0°F-11.7°C 14% Calm Calm -- 29.59 in1002.0 mb 0.00 in0.0 mm 0.00 in0.0 mm 0.00 in0.0 mm
05:57 PM 60.3°F15.7°C 10.9°F-11.7°C 14% Calm Calm -- 29.59 in1002.0 mb 0.00 in0.0 mm 0.00 in0.0 mm 0.00 in0.0 mm
05:58 PM 60.3°F15.7°C 9.3°F-12.6°C 13% 0.2 mph E0.3 kmh E 1.1 mph1.8 kmh 29.59 in1002.0 mb 0.00 in0.0 mm 0.00 in0.0 mm 0.00 in0.0 mm
05:59 PM 60.3°F15.7°C 9.3°F-12.6°C 13% Calm Calm -- 29.60 in1002.4 mb 0.00 in0.0 mm 0.00 in0.0 mm 0.00 in0.0 mm
06:00 PM 60.3°F15.7°C 10.9°F-11.7°C 14% Calm Calm -- 29.59 in1002.0 mb 0.00 in0.0 mm 0.00 in0.0 mm 0.00 in0.0 mm
06:01 PM 60.4°F15.8°C 9.4°F-12.6°C 13% 0.9 mph E1.4 kmh E 1.1 mph1.8 kmh 29.59 in1002.0 mb 0.00 in0.0 mm 0.00 in0.0 mm 0.00 in0.0 mm
06:02 PM 60.4°F15.8°C 9.4°F-12.6°C 13% Calm Calm -- 29.59 in1002.0 mb 0.00 in0.0 mm 0.00 in0.0 mm 0.00 in0.0 mm
06:03 PM 60.4°F15.8°C 9.4°F-12.6°C 13% Calm Calm -- 29.60 in1002.4 mb 0.00 in0.0 mm 0.00 in0.0 mm 0.00 in0.0 mm
06:04 PM 60.4°F15.8°C 11.0°F-11.7°C 14% Calm Calm -- 29.60 in1002.4 mb 0.00 in0.0 mm 0.00 in0.0 mm 0.00 in0.0 mm
06:05 PM 60.1°F15.6°C 9.1°F-12.7°C 13% 0.2 mph E0.3 kmh E 1.1 mph1.8 kmh 29.59 in1002.0 mb 0.00 in0.0 mm 0.00 in0.0 mm 0.00 in0.0 mm
06:06 PM 59.9°F15.5°C 9.0°F-12.8°C 13% Calm Calm -- 29.60 in1002.4 mb 0.00 in0.0 mm 0.00 in0.0 mm 0.00 in0.0 mm
06:07 PM 59.9°F15.5°C 9.0°F-12.8°C 13% Calm Calm -- 29.60 in1002.4 mb 0.00 in0.0 mm 0.00 in0.0 mm 0.00 in0.0 mm
06:08 PM 59.7°F15.4°C 8.8°F-12.9°C 13% Calm Calm -- 29.59 in1002.0 mb 0.00 in0.0 mm 0.00 in0.0 mm 0.00 in0.0 mm
06:09 PM 59.7°F15.4°C 12.0°F-11.1°C 15% Calm Calm -- 29.60 in1002.4 mb 0.00 in0.0 mm 0.00 in0.0 mm 0.00 in0.0 mm
06:10 PM 59.7°F15.4°C 10.4°F-12.0°C 14% Calm Calm -- 29.60 in1002.4 mb 0.00 in0.0 mm 0.00 in0.0 mm 0.00 in0.0 mm
06:11 PM 59.4°F15.2°C 10.2°F-12.1°C 14% 1.3 mph ENE2.1 kmh ENE 2.2 mph3.5 kmh 29.60 in1002.4 mb 0.00 in0.0 mm 0.00 in0.0 mm 0.00 in0.0 mm
06:12 PM 59.2°F15.1°C 10.1°F-12.2°C 14% 1.1 mph ENE1.8 kmh ENE 2.2 mph3.5 kmh 29.60 in1002.4 mb 0.00 in0.0 mm 0.00 in0.0 mm 0.00 in0.0 mm
06:13 PM 58.8°F14.9°C 9.7°F-12.4°C 14% 0.4 mph NE0.6 kmh NE 1.1 mph1.8 kmh 29.60 in1002.4 mb 0.00 in0.0 mm 0.00 in0.0 mm 0.00 in0.0 mm
06:14 PM 58.3°F14.6°C 10.9°F-11.7°C 15% Calm Calm -- 29.59 in1002.0 mb 0.00 in0.0 mm 0.00 in0.0 mm 0.00 in0.0 mm
06:15 PM 57.9°F14.4°C 10.6°F-11.9°C 15% Calm Calm -- 29.60 in1002.4 mb 0.00 in0.0 mm 0.00 in0.0 mm 0.00 in0.0 mm
06:16 PM 57.6°F14.2°C 10.3°F-12.1°C 15% Calm Calm -- 29.60 in1002.4 mb 0.00 in0.0 mm 0.00 in0.0 mm 0.00 in0.0 mm
06:17 PM 57.4°F14.1°C 10.2°F-12.1°C 15% Calm Calm -- 29.60 in1002.4 mb 0.00 in0.0 mm 0.00 in0.0 mm 0.00 in0.0 mm
06:18 PM 57.2°F14.0°C 10.0°F-12.2°C 15% 1.6 mph NE2.6 kmh NE 2.2 mph3.5 kmh 29.60 in1002.4 mb 0.00 in0.0 mm 0.00 in0.0 mm 0.00 in0.0 mm
06:19 PM 57.2°F14.0°C 10.0°F-12.2°C 15% 1.1 mph ENE1.8 kmh ENE 1.1 mph1.8 kmh 29.60 in1002.4 mb 0.00 in0.0 mm 0.00 in0.0 mm 0.00 in0.0 mm
06:20 PM 57.2°F14.0°C 8.5°F-13.1°C 14% 1.6 mph NE2.6 kmh NE 2.2 mph3.5 kmh 29.60 in1002.4 mb 0.00 in0.0 mm 0.00 in0.0 mm 0.00 in0.0 mm
06:21 PM 57.4°F14.1°C 8.6°F-13.0°C 14% 1.8 mph WSW2.9 kmh WSW 3.4 mph5.5 kmh 29.61 in1002.7 mb 0.00 in0.0 mm 0.00 in0.0 mm 0.00 in0.0 mm
06:22 PM 58.1°F14.5°C 7.5°F-13.6°C 13% 0.7 mph WSW1.1 kmh WSW 1.1 mph1.8 kmh 29.60 in1002.4 mb 0.00 in0.0 mm 0.00 in0.0 mm 0.00 in0.0 mm
06:23 PM 58.8°F14.9°C 9.7°F-12.4°C 14% 0.9 mph WSW1.4 kmh WSW 1.1 mph1.8 kmh 29.60 in1002.4 mb 0.00 in0.0 mm 0.00 in0.0 mm 0.00 in0.0 mm
06:24 PM 58.8°F14.9°C 9.7°F-12.4°C 14% 0.7 mph WSW1.1 kmh WSW 1.1 mph1.8 kmh 29.61 in1002.7 mb 0.00 in0.0 mm 0.00 in0.0 mm 0.00 in0.0 mm
06:25 PM 58.6°F14.8°C 9.6°F-12.4°C 14% 1.3 mph WSW2.1 kmh WSW 2.2 mph3.5 kmh 29.61 in1002.7 mb 0.00 in0.0 mm 0.00 in0.0 mm 0.00 in0.0 mm
06:26 PM 58.3°F14.6°C 9.3°F-12.6°C 14% 2.2 mph WSW3.5 kmh WSW 2.2 mph3.5 kmh 29.60 in1002.4 mb 0.00 in0.0 mm 0.00 in0.0 mm 0.00 in0.0 mm
06:27 PM 58.1°F14.5°C 9.2°F-12.7°C 14% 2.5 mph WSW4.0 kmh WSW 3.4 mph5.5 kmh 29.60 in1002.4 mb 0.00 in0.0 mm 0.00 in0.0 mm 0.00 in0.0 mm
06:28 PM 58.1°F14.5°C 9.2°F-12.7°C 14% 1.8 mph WSW2.9 kmh WSW 2.2 mph3.5 kmh 29.60 in1002.4 mb 0.00 in0.0 mm 0.00 in0.0 mm 0.00 in0.0 mm
06:29 PM 58.1°F14.5°C 9.2°F-12.7°C 14% 2.5 mph WSW4.0 kmh WSW 3.4 mph5.5 kmh 29.61 in1002.7 mb 0.00 in0.0 mm 0.00 in0.0 mm 0.00 in0.0 mm
06:30 PM 57.9°F14.4°C 9.0°F-12.8°C 14% 2.2 mph W3.5 kmh W 2.2 mph3.5 kmh 29.61 in1002.7 mb 0.00 in0.0 mm 0.00 in0.0 mm 0.00 in0.0 mm
06:31 PM 57.9°F14.4°C 10.6°F-11.9°C 15% 0.2 mph W0.3 kmh W 1.1 mph1.8 kmh 29.60 in1002.4 mb 0.00 in0.0 mm 0.00 in0.0 mm 0.00 in0.0 mm
06:32 PM 57.7°F14.3°C 10.4°F-12.0°C 15% 0.7 mph W1.1 kmh W 1.1 mph1.8 kmh 29.61 in1002.7 mb 0.00 in0.0 mm 0.00 in0.0 mm 0.00 in0.0 mm
06:33 PM 57.4°F14.1°C 10.2°F-12.1°C 15% Calm Calm -- 29.60 in1002.4 mb 0.00 in0.0 mm 0.00 in0.0 mm 0.00 in0.0 mm
06:34 PM 57.0°F13.9°C 9.8°F-12.3°C 15% Calm Calm -- 29.60 in1002.4 mb 0.00 in0.0 mm 0.00 in0.0 mm 0.00 in0.0 mm
06:35 PM 56.8°F13.8°C 9.7°F-12.4°C 15% Calm Calm -- 29.61 in1002.7 mb 0.00 in0.0 mm 0.00 in0.0 mm 0.00 in0.0 mm
06:36 PM 56.8°F13.8°C 9.7°F-12.4°C 15% 1.1 mph W1.8 kmh W 1.1 mph1.8 kmh 29.61 in1002.7 mb 0.00 in0.0 mm 0.00 in0.0 mm 0.00 in0.0 mm
06:37 PM 56.5°F13.6°C 9.4°F-12.6°C 15% 2.2 mph W3.5 kmh W 2.2 mph3.5 kmh 29.61 in1002.7 mb 0.00 in0.0 mm 0.00 in0.0 mm 0.00 in0.0 mm
06:38 PM 56.5°F13.6°C 10.9°F-11.7°C 16% 2.5 mph W4.0 kmh W 3.4 mph5.5 kmh 29.61 in1002.7 mb 0.00 in0.0 mm 0.00 in0.0 mm 0.00 in0.0 mm
06:39 PM 56.3°F13.5°C 10.7°F-11.8°C 16% 0.9 mph W1.4 kmh W 1.1 mph1.8 kmh 29.61 in1002.7 mb 0.00 in0.0 mm 0.00 in0.0 mm 0.00 in0.0 mm
06:40 PM 56.1°F13.4°C 10.5°F-11.9°C 16% 1.8 mph W2.9 kmh W 2.2 mph3.5 kmh 29.62 in1003.0 mb 0.00 in0.0 mm 0.00 in0.0 mm 0.00 in0.0 mm
06:41 PM 55.8°F13.2°C 10.3°F-12.1°C 16% 0.9 mph W1.4 kmh W 1.1 mph1.8 kmh 29.61 in1002.7 mb 0.00 in0.0 mm 0.00 in0.0 mm 0.00 in0.0 mm
06:42 PM 55.6°F13.1°C 10.1°F-12.2°C 16% 0.7 mph W1.1 kmh W 1.1 mph1.8 kmh 29.62 in1003.0 mb 0.00 in0.0 mm 0.00 in0.0 mm 0.00 in0.0 mm
06:43 PM 55.4°F13.0°C 10.0°F-12.2°C 16% 0.2 mph W0.3 kmh W 1.1 mph1.8 kmh 29.61 in1002.7 mb 0.00 in0.0 mm 0.00 in0.0 mm 0.00 in0.0 mm
06:44 PM 55.2°F12.9°C 11.2°F-11.6°C 17% Calm Calm -- 29.62 in1003.0 mb 0.00 in0.0 mm 0.00 in0.0 mm 0.00 in0.0 mm
06:45 PM 55.2°F12.9°C 12.5°F-10.8°C 18% Calm Calm -- 29.61 in1002.7 mb 0.00 in0.0 mm 0.00 in0.0 mm 0.00 in0.0 mm
06:46 PM 54.9°F12.7°C 10.9°F-11.7°C 17% Calm Calm -- 29.61 in1002.7 mb 0.00 in0.0 mm 0.00 in0.0 mm 0.00 in0.0 mm
06:47 PM 54.7°F12.6°C 10.8°F-11.8°C 17% Calm Calm -- 29.62 in1003.0 mb 0.00 in0.0 mm 0.00 in0.0 mm 0.00 in0.0 mm
06:48 PM 54.3°F12.4°C 11.7°F-11.3°C 18% Calm Calm -- 29.62 in1003.0 mb 0.00 in0.0 mm 0.00 in0.0 mm 0.00 in0.0 mm
06:49 PM 54.1°F12.3°C 10.3°F-12.1°C 17% 0.2 mph W0.3 kmh W 1.1 mph1.8 kmh 29.62 in1003.0 mb 0.00 in0.0 mm 0.00 in0.0 mm 0.00 in0.0 mm
06:50 PM 54.0°F12.2°C 11.5°F-11.4°C 18% Calm Calm -- 29.61 in1002.7 mb 0.00 in0.0 mm 0.00 in0.0 mm 0.00 in0.0 mm
06:51 PM 54.0°F12.2°C 11.5°F-11.4°C 18% 0.9 mph W1.4 kmh W 1.1 mph1.8 kmh 29.61 in1002.7 mb 0.00 in0.0 mm 0.00 in0.0 mm 0.00 in0.0 mm
06:52 PM 53.8°F12.1°C 11.3°F-11.5°C 18% 0.7 mph W1.1 kmh W 1.1 mph1.8 kmh 29.61 in1002.7 mb 0.00 in0.0 mm 0.00 in0.0 mm 0.00 in0.0 mm
06:53 PM 53.8°F12.1°C 10.0°F-12.2°C 17% Calm Calm -- 29.61 in1002.7 mb 0.00 in0.0 mm 0.00 in0.0 mm 0.00 in0.0 mm
06:54 PM 53.8°F12.1°C 11.3°F-11.5°C 18% Calm Calm -- 29.62 in1003.0 mb 0.00 in0.0 mm 0.00 in0.0 mm 0.00 in0.0 mm
06:55 PM 53.6°F12.0°C 11.1°F-11.6°C 18% Calm Calm -- 29.62 in1003.0 mb 0.00 in0.0 mm 0.00 in0.0 mm 0.00 in0.0 mm
06:56 PM 53.4°F11.9°C 12.2°F-11.0°C 19% 0.4 mph W0.6 kmh W 1.1 mph1.8 kmh 29.62 in1003.0 mb 0.00 in0.0 mm 0.00 in0.0 mm 0.00 in0.0 mm
06:57 PM 53.4°F11.9°C 18.5°F-7.5°C 25% Calm Calm -- 29.62 in1003.0 mb 0.00 in0.0 mm 0.00 in0.0 mm 0.00 in0.0 mm
06:58 PM 53.2°F11.8°C 18.3°F-7.6°C 25% Calm Calm -- 29.62 in1003.0 mb 0.00 in0.0 mm 0.00 in0.0 mm 0.00 in0.0 mm
06:59 PM 52.7°F11.5°C 17.9°F-7.8°C 25% Calm Calm -- 29.62 in1003.0 mb 0.00 in0.0 mm 0.00 in0.0 mm 0.00 in0.0 mm
07:00 PM 52.3°F11.3°C 16.6°F-8.6°C 24% Calm Calm -- 29.62 in1003.0 mb 0.00 in0.0 mm 0.00 in0.0 mm 0.00 in0.0 mm
07:01 PM 52.2°F11.2°C 17.5°F-8.1°C 25% Calm Calm -- 29.62 in1003.0 mb 0.00 in0.0 mm 0.00 in0.0 mm 0.00 in0.0 mm
07:02 PM 52.0°F11.1°C 15.4°F-9.2°C 23% Calm Calm -- 29.61 in1002.7 mb 0.00 in0.0 mm 0.00 in0.0 mm 0.00 in0.0 mm
07:03 PM 51.6°F10.9°C 15.0°F-9.4°C 23% 0.2 mph W0.3 kmh W 1.1 mph1.8 kmh 29.61 in1002.7 mb 0.00 in0.0 mm 0.00 in0.0 mm 0.00 in0.0 mm
07:04 PM 51.4°F10.8°C 13.9°F-10.1°C 22% Calm Calm -- 29.62 in1003.0 mb 0.00 in0.0 mm 0.00 in0.0 mm 0.00 in0.0 mm
07:05 PM 51.4°F10.8°C 12.8°F-10.7°C 21% Calm Calm -- 29.62 in1003.0 mb 0.00 in0.0 mm 0.00 in0.0 mm 0.00 in0.0 mm
07:06 PM 51.4°F10.8°C 13.9°F-10.1°C 22% Calm Calm -- 29.62 in1003.0 mb 0.00 in0.0 mm 0.00 in0.0 mm 0.00 in0.0 mm
07:07 PM 51.4°F10.8°C 19.4°F-7.0°C 28% Calm Calm -- 29.62 in1003.0 mb 0.00 in0.0 mm 0.00 in0.0 mm 0.00 in0.0 mm
07:08 PM 51.4°F10.8°C 19.4°F-7.0°C 28% Calm Calm -- 29.63 in1003.4 mb 0.00 in0.0 mm 0.00 in0.0 mm 0.00 in0.0 mm
07:09 PM 51.1°F10.6°C 19.1°F-7.2°C 28% Calm Calm -- 29.63 in1003.4 mb 0.00 in0.0 mm 0.00 in0.0 mm 0.00 in0.0 mm
07:10 PM 50.9°F10.5°C 19.0°F-7.2°C 28% Calm Calm -- 29.62 in1003.0 mb 0.00 in0.0 mm 0.00 in0.0 mm 0.00 in0.0 mm
07:11 PM 50.7°F10.4°C 18.0°F-7.8°C 27% 0.2 mph W0.3 kmh W 1.1 mph1.8 kmh 29.63 in1003.4 mb 0.00 in0.0 mm 0.00 in0.0 mm 0.00 in0.0 mm
07:12 PM 50.5°F10.3°C 14.1°F-9.9°C 23% Calm Calm -- 29.62 in1003.0 mb 0.00 in0.0 mm 0.00 in0.0 mm 0.00 in0.0 mm
07:13 PM 50.5°F10.3°C 10.9°F-11.7°C 20% 0.9 mph W1.4 kmh W 1.1 mph1.8 kmh 29.62 in1003.0 mb 0.00 in0.0 mm 0.00 in0.0 mm 0.00 in0.0 mm
07:14 PM 50.5°F10.3°C 10.9°F-11.7°C 20% Calm Calm -- 29.62 in1003.0 mb 0.00 in0.0 mm 0.00 in0.0 mm 0.00 in0.0 mm
07:15 PM 50.4°F10.2°C 12.0°F-11.1°C 21% Calm Calm -- 29.62 in1003.0 mb 0.00 in0.0 mm 0.00 in0.0 mm 0.00 in0.0 mm
07:16 PM 50.4°F10.2°C 10.9°F-11.7°C 20% Calm Calm -- 29.63 in1003.4 mb 0.00 in0.0 mm 0.00 in0.0 mm 0.00 in0.0 mm
07:17 PM 50.4°F10.2°C 12.0°F-11.1°C 21% Calm Calm -- 29.63 in1003.4 mb 0.00 in0.0 mm 0.00 in0.0 mm 0.00 in0.0 mm
07:18 PM 50.2°F10.1°C 16.7°F-8.5°C 26% Calm Calm -- 29.62 in1003.0 mb 0.00 in0.0 mm 0.00 in0.0 mm 0.00 in0.0 mm
07:19 PM 50.0°F10.0°C 14.7°F-9.6°C 24% Calm Calm -- 29.63 in1003.4 mb 0.00 in0.0 mm 0.00 in0.0 mm 0.00 in0.0 mm
07:20 PM 49.8°F9.9°C 13.5°F-10.3°C 23% Calm Calm -- 29.63 in1003.4 mb 0.00 in0.0 mm 0.00 in0.0 mm 0.00 in0.0 mm
07:21 PM 49.8°F9.9°C 12.5°F-10.8°C 22% Calm Calm -- 29.63 in1003.4 mb 0.00 in0.0 mm 0.00 in0.0 mm 0.00 in0.0 mm
07:22 PM 49.6°F9.8°C 10.2°F-12.1°C 20% Calm Calm -- 29.63 in1003.4 mb 0.00 in0.0 mm 0.00 in0.0 mm 0.00 in0.0 mm
07:23 PM 49.6°F9.8°C 10.2°F-12.1°C 20% Calm Calm -- 29.63 in1003.4 mb 0.00 in0.0 mm 0.00 in0.0 mm 0.00 in0.0 mm
07:24 PM 49.6°F9.8°C 10.2°F-12.1°C 20% 0.2 mph W0.3 kmh W 1.1 mph1.8 kmh 29.63 in1003.4 mb 0.00 in0.0 mm 0.00 in0.0 mm 0.00 in0.0 mm
07:25 PM 49.6°F9.8°C 10.2°F-12.1°C 20% Calm Calm -- 29.63 in1003.4 mb 0.00 in0.0 mm 0.00 in0.0 mm 0.00 in0.0 mm
07:26 PM 49.6°F9.8°C 10.2°F-12.1°C 20% 0.2 mph W0.3 kmh W 1.1 mph1.8 kmh 29.63 in1003.4 mb 0.00 in0.0 mm 0.00 in0.0 mm 0.00 in0.0 mm
07:27 PM 49.6°F9.8°C 9.1°F-12.7°C 19% Calm Calm -- 29.63 in1003.4 mb 0.00 in0.0 mm 0.00 in0.0 mm 0.00 in0.0 mm
07:28 PM 49.6°F9.8°C 10.2°F-12.1°C 20% Calm Calm -- 29.63 in1003.4 mb 0.00 in0.0 mm 0.00 in0.0 mm 0.00 in0.0 mm
07:29 PM 49.6°F9.8°C 10.2°F-12.1°C 20% Calm Calm -- 29.63 in1003.4 mb 0.00 in0.0 mm 0.00 in0.0 mm 0.00 in0.0 mm
07:30 PM 49.6°F9.8°C 10.2°F-12.1°C 20% Calm Calm -- 29.63 in1003.4 mb 0.00 in0.0 mm 0.00 in0.0 mm 0.00 in0.0 mm
07:31 PM 49.5°F9.7°C 11.2°F-11.6°C 21% Calm Calm -- 29.63 in1003.4 mb 0.00 in0.0 mm 0.00 in0.0 mm 0.00 in0.0 mm
07:32 PM 49.5°F9.7°C 10.1°F-12.2°C 20% Calm Calm -- 29.63 in1003.4 mb 0.00 in0.0 mm 0.00 in0.0 mm 0.00 in0.0 mm
07:33 PM 49.5°F9.7°C 11.2°F-11.6°C 21% Calm Calm -- 29.63 in1003.4 mb 0.00 in0.0 mm 0.00 in0.0 mm 0.00 in0.0 mm
07:34 PM 49.5°F9.7°C 10.1°F-12.2°C 20% 1.1 mph W1.8 kmh W 1.1 mph1.8 kmh 29.63 in1003.4 mb 0.00 in0.0 mm 0.00 in0.0 mm 0.00 in0.0 mm
07:35 PM 49.5°F9.7°C 9.0°F-12.8°C 19% 1.6 mph W2.6 kmh W 2.2 mph3.5 kmh 29.63 in1003.4 mb 0.00 in0.0 mm 0.00 in0.0 mm 0.00 in0.0 mm
07:36 PM 49.6°F9.8°C 9.1°F-12.7°C 19% 0.2 mph W0.3 kmh W 1.1 mph1.8 kmh 29.63 in1003.4 mb 0.00 in0.0 mm 0.00 in0.0 mm 0.00 in0.0 mm
07:37 PM 50.0°F10.0°C 9.4°F-12.6°C 19% 1.6 mph W2.6 kmh W 2.2 mph3.5 kmh 29.63 in1003.4 mb 0.00 in0.0 mm 0.00 in0.0 mm 0.00 in0.0 mm
07:38 PM 50.2°F10.1°C 8.4°F-13.1°C 18% 1.1 mph W1.8 kmh W 1.1 mph1.8 kmh 29.63 in1003.4 mb 0.00 in0.0 mm 0.00 in0.0 mm 0.00 in0.0 mm
07:39 PM 50.5°F10.3°C 8.6°F-13.0°C 18% 1.1 mph W1.8 kmh W 1.1 mph1.8 kmh 29.64 in1003.7 mb 0.00 in0.0 mm 0.00 in0.0 mm 0.00 in0.0 mm
07:40 PM 50.5°F10.3°C 9.8°F-12.3°C 19% 0.2 mph W0.3 kmh W 1.1 mph1.8 kmh 29.63 in1003.4 mb 0.00 in0.0 mm 0.00 in0.0 mm 0.00 in0.0 mm
07:41 PM 50.5°F10.3°C 8.6°F-13.0°C 18% 2.2 mph WNW3.5 kmh WNW 2.2 mph3.5 kmh 29.63 in1003.4 mb 0.00 in0.0 mm 0.00 in0.0 mm 0.00 in0.0 mm
07:42 PM 50.7°F10.4°C 8.8°F-12.9°C 18% Calm Calm -- 29.63 in1003.4 mb 0.00 in0.0 mm 0.00 in0.0 mm 0.00 in0.0 mm
07:43 PM 50.7°F10.4°C 8.8°F-12.9°C 18% 0.7 mph WNW1.1 kmh WNW 1.1 mph1.8 kmh 29.63 in1003.4 mb 0.00 in0.0 mm 0.00 in0.0 mm 0.00 in0.0 mm
07:44 PM 50.7°F10.4°C 10.0°F-12.2°C 19% 0.9 mph WNW1.4 kmh WNW 1.1 mph1.8 kmh 29.63 in1003.4 mb 0.00 in0.0 mm 0.00 in0.0 mm 0.00 in0.0 mm
07:45 PM 50.7°F10.4°C 10.0°F-12.2°C 19% Calm Calm -- 29.63 in1003.4 mb 0.00 in0.0 mm 0.00 in0.0 mm 0.00 in0.0 mm
07:46 PM 50.7°F10.4°C 8.8°F-12.9°C 18% 1.3 mph WNW2.1 kmh WNW 2.2 mph3.5 kmh 29.63 in1003.4 mb 0.00 in0.0 mm 0.00 in0.0 mm 0.00 in0.0 mm
07:47 PM 50.7°F10.4°C 8.8°F-12.9°C 18% 1.1 mph WNW1.8 kmh WNW 1.1 mph1.8 kmh 29.64 in1003.7 mb 0.00 in0.0 mm 0.00 in0.0 mm